Darstellungsparameter: Aktuell verwendete Einstellungen:
Skalierung der Graphiken ... ?
xyx+y,   Skalierungsfaktor:      Skalierung: Modus: x, Faktor: 1
Darstellungszeitraum ... ?
Vom - - bis: - -   Zeitraum: 13.03.2010 - 12.09.2010
Min/Max/Avg-Anzeige ... ?
Zeige MMA aktuell
Zeige MMA Monat
Zeige MMA alles
Zeige --A aktuell
Zeige --A Monat
Zeige --A alles
Keine MMA-Anzeige
MMA:
Average (ber die Originaldaten)
MMA-Basis: 13.03.2010 - 12.09.2010
Quicknavigation für Darstellung... ?
Tage:      1T, 2T, 3T, 5T -1T -2T -3T -5T +1T +2T +3T +5T
Wochen: 1W, 2W, 3W -1W -2W -3W +1W +2W +3W
Monate: 1M, 3M, 6M -1M -3M -6M +1M +3M +6M
Jahre:    1J, 3J, 5J, 10J -1J -3J -5J -10J +1J +3J +5J +10J
Nutze für die Darstellung ... ?
Originaldaten oder Mittelwerte auf ...
Stundenbasis Tagesbasis Wochenbasis
Monatsbasis Jahresbasis      Datenbasis: Original-Daten
Darstellen als:
Statistik (Auto) Statistik J:M      Darstellung:
Zur Graphik,    zurück zur Übersicht aller Sensoren.
 
Tabellarische Datenbersicht: ?
 
Sensor: Nr:Datum:Temp:Abs-Feuchte:Windchill:Wind:
Aussen-T/F 1 13-03-2010 00:08:03 2.3 C 4.48 g/m*3 2.3 C 0 km/h
2 13-03-2010 00:20:03 2.2 C 4.45 g/m*3 2.2 C 0 km/h
3 13-03-2010 00:32:03 2.3 C 4.48 g/m*3 2.3 C 0 km/h
4 13-03-2010 00:44:03 2.3 C 4.48 g/m*3 2.3 C 0 km/h
5 13-03-2010 00:56:03 2.3 C 4.48 g/m*3 2.3 C 0 km/h
6 13-03-2010 01:08:03 2.2 C 4.45 g/m*3 2.2 C 0 km/h
7 13-03-2010 01:20:03 2.2 C 4.39 g/m*3 2.2 C 0 km/h
8 13-03-2010 01:32:03 2.3 C 4.42 g/m*3 2.3 C 0 km/h
9 13-03-2010 01:44:03 2.2 C 4.39 g/m*3 2.2 C 0 km/h
10 13-03-2010 01:56:03 2.2 C 4.39 g/m*3 2.2 C 0 km/h
11 13-03-2010 02:08:03 2.2 C 4.39 g/m*3 2.2 C 0 km/h
12 13-03-2010 02:20:03 2.1 C 4.31 g/m*3 2.1 C 0 km/h
13 13-03-2010 02:32:03 2.2 C 4.34 g/m*3 2.2 C 0 km/h
14 13-03-2010 02:44:04 2.1 C 4.25 g/m*3 2.1 C 0 km/h
15 13-03-2010 02:56:04 2.2 C 4.28 g/m*3 2.2 C 0 km/h
16 13-03-2010 03:08:04 2.2 C 4.22 g/m*3 2.2 C 0 km/h
17 13-03-2010 03:20:04 2.2 C 4.22 g/m*3 2.2 C 0 km/h
18 13-03-2010 03:32:04 2.2 C 4.22 g/m*3 2.2 C 0 km/h
19 13-03-2010 03:44:04 2 C 4.17 g/m*3 2 C 0 km/h
20 13-03-2010 03:56:04 1.8 C 4.22 g/m*3 1.8 C 0 km/h
21 13-03-2010 04:08:04 1.9 C 4.19 g/m*3 1.9 C 0 km/h
22 13-03-2010 04:20:04 2 C 4.17 g/m*3 2 C 0 km/h
23 13-03-2010 04:32:04 2 C 4.17 g/m*3 2 C 0 km/h
24 13-03-2010 04:44:04 2 C 4.17 g/m*3 2 C 0 km/h
25 13-03-2010 04:56:04 2 C 4.17 g/m*3 2 C 0 km/h
Sensor: Nr:Datum:Temp:Abs-Feuchte:Windchill:Wind:
Aussen-T/F 26 13-03-2010 05:08:04 2 C 4.17 g/m*3 2 C 0 km/h
27 13-03-2010 05:20:04 1.8 C 4.17 g/m*3 1.8 C 0 km/h
28 13-03-2010 05:32:04 1.9 C 4.19 g/m*3 1.9 C 0 km/h
29 13-03-2010 05:44:04 2 C 4.11 g/m*3 2 C 0 km/h
30 13-03-2010 05:56:04 2 C 4.11 g/m*3 2 C 0 km/h
31 13-03-2010 06:08:04 2 C 4.11 g/m*3 2 C 0 km/h
32 13-03-2010 06:20:04 2.1 C 4.08 g/m*3 2.1 C 0 km/h
33 13-03-2010 06:32:04 2.2 C 4.11 g/m*3 2.2 C 0 km/h
34 13-03-2010 06:44:04 2.1 C 4.08 g/m*3 2.1 C 0 km/h
35 13-03-2010 06:56:02 2.3 C 4.2 g/m*3 2.3 C 0 km/h
36 13-03-2010 07:08:02 2.3 C 4.25 g/m*3 2.3 C 0 km/h
37 13-03-2010 07:20:02 2.3 C 4.31 g/m*3 2.3 C 0 km/h
38 13-03-2010 07:32:02 2.3 C 4.31 g/m*3 2.3 C 0 km/h
39 13-03-2010 07:44:02 2.4 C 4.45 g/m*3 2.4 C 0 km/h
40 13-03-2010 07:56:02 2.6 C 4.63 g/m*3 2.6 C 0 km/h
41 13-03-2010 08:08:02 2.7 C 4.66 g/m*3 2.7 C 0 km/h
42 13-03-2010 08:20:02 2.8 C 4.69 g/m*3 2.8 C 0 km/h
43 13-03-2010 08:32:02 2.9 C 4.72 g/m*3 2.9 C 0 km/h
44 13-03-2010 08:44:02 3.1 C 4.73 g/m*3 3.1 C 0 km/h
45 13-03-2010 08:56:02 3.3 C 4.73 g/m*3 3.3 C 0 km/h
46 13-03-2010 09:08:01 3.4 C 4.7 g/m*3 3.4 C 0 km/h
47 13-03-2010 09:20:02 3.4 C 4.64 g/m*3 3.4 C 0 km/h
48 13-03-2010 09:32:01 3.6 C 4.7 g/m*3 3.6 C 0 km/h
49 13-03-2010 09:44:01 3.6 C 4.7 g/m*3 3.6 C 0 km/h
50 13-03-2010 09:56:02 3.7 C 4.74 g/m*3 3.7 C 0 km/h
Sensor: Nr:Datum:Temp:Abs-Feuchte:Windchill:Wind:
Aussen-T/F 51 13-03-2010 10:08:01 4 C 4.7 g/m*3 4 C 0 km/h
52 13-03-2010 10:20:02 4.4 C 4.7 g/m*3 4.4 C 0 km/h
53 13-03-2010 10:32:02 4.8 C 4.69 g/m*3 4.8 C 0 km/h
54 13-03-2010 10:44:02 4.8 C 4.49 g/m*3 4.8 C 0 km/h
55 13-03-2010 10:56:02 5 C 4.42 g/m*3 5 C 0 km/h
56 13-03-2010 11:08:02 4.8 C 4.22 g/m*3 4.8 C 0 km/h
57 13-03-2010 11:20:02 4.7 C 4.26 g/m*3 4.7 C 0 km/h
58 13-03-2010 11:32:02 5.2 C 4.34 g/m*3 5.2 C 0 km/h
59 13-03-2010 11:44:02 5.3 C 4.23 g/m*3 5.3 C 0 km/h
60 13-03-2010 11:56:02 6 C 4.06 g/m*3 6 C 0 km/h
61 13-03-2010 12:08:02 6.5 C 4.05 g/m*3 6.5 C 0 km/h
62 13-03-2010 12:20:01 6.2 C 3.75 g/m*3 6.2 C 0 km/h
63 13-03-2010 12:32:02 5.8 C 3.72 g/m*3 5.8 C 0 km/h
64 13-03-2010 12:44:02 6.3 C 3.78 g/m*3 6.3 C 0 km/h
65 13-03-2010 12:56:02 6.7 C 3.72 g/m*3 6.7 C 0 km/h
66 13-03-2010 13:08:02 6.3 C 3.7 g/m*3 6.3 C 0 km/h
67 13-03-2010 13:20:02 6 C 3.7 g/m*3 6 C 0 km/h
68 13-03-2010 13:32:02 5.8 C 3.94 g/m*3 5.8 C 0 km/h
69 13-03-2010 13:44:02 5.8 C 4.01 g/m*3 5.8 C 0 km/h
70 13-03-2010 13:56:02 6.1 C 4.16 g/m*3 6.1 C 0 km/h
71 13-03-2010 14:08:02 6.3 C 4.07 g/m*3 6.3 C 0 km/h
72 13-03-2010 14:20:02 6.3 C 4.07 g/m*3 6.3 C 0 km/h
73 13-03-2010 14:32:02 6.1 C 4.02 g/m*3 6.1 C 0 km/h
74 13-03-2010 14:44:02 6.2 C 3.97 g/m*3 6.2 C 0 km/h
75 13-03-2010 14:56:02 6.3 C 4 g/m*3 6.3 C 0 km/h
Sensor: Nr:Datum:Temp:Abs-Feuchte:Windchill:Wind:
Aussen-T/F 76 13-03-2010 15:08:02 6.5 C 4.05 g/m*3 6.5 C 0 km/h
77 13-03-2010 15:20:02 6.5 C 3.9 g/m*3 6.5 C 0 km/h
78 13-03-2010 15:32:02 6.5 C 3.9 g/m*3 6.5 C 0 km/h
79 13-03-2010 15:44:02 6.7 C 4.03 g/m*3 6.7 C 0 km/h
80 13-03-2010 15:56:02 6.6 C 3.93 g/m*3 6.6 C 0 km/h
81 13-03-2010 16:08:02 6.6 C 3.93 g/m*3 6.6 C 0 km/h
82 13-03-2010 16:20:03 6.5 C 3.9 g/m*3 6.5 C 0 km/h
83 13-03-2010 16:32:02 6.5 C 3.9 g/m*3 6.5 C 0 km/h
84 13-03-2010 16:44:02 6.4 C 3.87 g/m*3 6.4 C 0 km/h
85 13-03-2010 16:56:02 6.4 C 3.95 g/m*3 6.4 C 0 km/h
86 13-03-2010 17:08:02 6.4 C 3.95 g/m*3 6.4 C 0 km/h
87 13-03-2010 17:20:02 6.3 C 3.92 g/m*3 6.3 C 0 km/h
88 13-03-2010 17:32:02 6.3 C 4 g/m*3 6.3 C 0 km/h
89 13-03-2010 17:44:02 6.2 C 3.97 g/m*3 6.2 C 0 km/h
90 13-03-2010 17:56:02 6.2 C 3.97 g/m*3 6.2 C 0 km/h
91 13-03-2010 18:08:02 6.2 C 3.97 g/m*3 6.2 C 0 km/h
92 13-03-2010 18:20:02 6.1 C 3.95 g/m*3 6.1 C 0 km/h
93 13-03-2010 18:32:01 6.1 C 3.95 g/m*3 6.1 C 0 km/h
94 13-03-2010 18:44:01 6 C 3.92 g/m*3 6 C 0 km/h
95 13-03-2010 18:56:02 6.1 C 3.95 g/m*3 6.1 C 0 km/h
96 13-03-2010 19:08:01 6 C 3.92 g/m*3 6 C 0 km/h
97 13-03-2010 19:20:02 6 C 3.99 g/m*3 6 C 0 km/h
98 13-03-2010 19:32:02 6 C 3.99 g/m*3 6 C 0 km/h
99 13-03-2010 19:44:02 6 C 3.99 g/m*3 6 C 0 km/h
100 13-03-2010 19:56:02 6 C 3.99 g/m*3 6 C 0 km/h
Sensor: Nr:Datum:Temp:Abs-Feuchte:Windchill:Wind:
Aussen-T/F 101 13-03-2010 20:08:01 5.8 C 4.08 g/m*3 5.8 C 0 km/h
102 13-03-2010 20:20:01 5.8 C 4.23 g/m*3 5.8 C 0 km/h
103 13-03-2010 20:32:02 5.5 C 4.28 g/m*3 5.5 C 0 km/h
104 13-03-2010 20:44:02 5.5 C 4.42 g/m*3 5.5 C 0 km/h
105 13-03-2010 20:56:02 5.6 C 4.45 g/m*3 5.6 C 0 km/h
106 13-03-2010 21:08:02 5.6 C 4.45 g/m*3 5.6 C 0 km/h
107 13-03-2010 21:20:02 5.5 C 4.35 g/m*3 5.5 C 0 km/h
108 13-03-2010 21:32:02 5.6 C 4.17 g/m*3 5.6 C 0 km/h
109 13-03-2010 21:44:02 5.5 C 4.07 g/m*3 5.5 C 0 km/h
110 13-03-2010 21:56:01 5.4 C 4.05 g/m*3 5.4 C 0 km/h
111 13-03-2010 22:08:02 5.3 C 4.02 g/m*3 5.3 C 0 km/h
112 13-03-2010 22:21:03 5.2 C 4.13 g/m*3 5.2 C 0 km/h
113 13-03-2010 22:33:04 5 C 4.21 g/m*3 5 C 0 km/h
114 13-03-2010 22:45:04 5 C 4.08 g/m*3 5 C 0 km/h
115 13-03-2010 22:57:04 5.2 C 3.79 g/m*3 5.2 C 0 km/h
116 13-03-2010 23:09:04 5.1 C 3.63 g/m*3 5.1 C 0 km/h
117 13-03-2010 23:21:04 5.1 C 3.63 g/m*3 5.1 C 0 km/h
118 13-03-2010 23:33:04 5.1 C 3.63 g/m*3 5.1 C 0 km/h
119 13-03-2010 23:45:04 5 C 3.67 g/m*3 5 C 0 km/h
120 13-03-2010 23:57:04 4.9 C 3.71 g/m*3 4.9 C 0 km/h
121 14-03-2010 00:09:04 4.8 C 3.62 g/m*3 4.8 C 0 km/h
122 14-03-2010 00:21:04 4.7 C 3.6 g/m*3 4.7 C 0 km/h
123 14-03-2010 00:33:04 4.7 C 3.6 g/m*3 4.7 C 0 km/h
124 14-03-2010 00:45:04 4.7 C 3.6 g/m*3 4.7 C 0 km/h
125 14-03-2010 00:57:04 4.6 C 3.57 g/m*3 4.6 C 0 km/h
Sensor: Nr:Datum:Temp:Abs-Feuchte:Windchill:Wind:
Aussen-T/F 126 14-03-2010 01:09:04 4.6 C 3.64 g/m*3 4.6 C 0 km/h
127 14-03-2010 01:21:04 4.5 C 3.68 g/m*3 4.5 C 0 km/h
128 14-03-2010 01:33:04 4.4 C 3.66 g/m*3 4.4 C 0 km/h
129 14-03-2010 01:45:04 4.3 C 3.7 g/m*3 4.3 C 0 km/h
130 14-03-2010 01:57:04 4.3 C 3.76 g/m*3 4.3 C 0 km/h
131 14-03-2010 02:09:04 4.3 C 3.76 g/m*3 4.3 C 0 km/h
132 14-03-2010 02:21:04 4.3 C 3.83 g/m*3 4.3 C 0 km/h
133 14-03-2010 02:33:04 4.3 C 3.83 g/m*3 4.3 C 0 km/h
134 14-03-2010 02:45:05 4.2 C 3.8 g/m*3 4.2 C 0 km/h
135 14-03-2010 02:57:05 4.3 C 3.83 g/m*3 4.3 C 0 km/h
136 14-03-2010 03:09:05 4.3 C 3.89 g/m*3 4.3 C 0 km/h
137 14-03-2010 03:21:05 4.3 C 3.89 g/m*3 4.3 C 0 km/h
138 14-03-2010 03:33:05 4.4 C 3.85 g/m*3 4.4 C 0 km/h
139 14-03-2010 03:45:05 4.4 C 3.85 g/m*3 4.4 C 0 km/h
140 14-03-2010 03:57:05 4.4 C 3.85 g/m*3 4.4 C 0 km/h
141 14-03-2010 04:09:05 4.4 C 3.85 g/m*3 4.4 C 0 km/h
142 14-03-2010 04:21:05 4.5 C 3.88 g/m*3 4.5 C 0 km/h
143 14-03-2010 04:33:05 4.4 C 3.92 g/m*3 4.4 C 0 km/h
144 14-03-2010 04:45:05 4.4 C 3.92 g/m*3 4.4 C 0 km/h
145 14-03-2010 04:57:05 4.3 C 3.96 g/m*3 4.3 C 0 km/h
146 14-03-2010 05:09:05 4.3 C 4.02 g/m*3 4.3 C 0 km/h
147 14-03-2010 05:21:05 4.3 C 4.02 g/m*3 4.3 C 0 km/h
148 14-03-2010 05:33:05 4.3 C 4.02 g/m*3 4.3 C 0 km/h
149 14-03-2010 05:45:05 4.2 C 3.99 g/m*3 4.2 C 0 km/h
150 14-03-2010 05:57:05 4.2 C 3.99 g/m*3 4.2 C 0 km/h
Sensor: Nr:Datum:Temp:Abs-Feuchte:Windchill:Wind:
Aussen-T/F 151 14-03-2010 06:09:05 4.3 C 4.02 g/m*3 4.3 C 0 km/h
152 14-03-2010 06:21:05 4.2 C 3.99 g/m*3 4.2 C 0 km/h
153 14-03-2010 06:33:05 4.2 C 3.99 g/m*3 4.2 C 0 km/h
154 14-03-2010 06:45:06 4.2 C 3.99 g/m*3 4.2 C 0 km/h
155 14-03-2010 06:57:06 4.2 C 4.06 g/m*3 4.2 C 0 km/h
156 14-03-2010 07:09:06 4.3 C 4.02 g/m*3 4.3 C 0 km/h
157 14-03-2010 07:21:06 4.3 C 4.02 g/m*3 4.3 C 0 km/h
158 14-03-2010 07:33:06 4.5 C 4.08 g/m*3 4.5 C 0 km/h
159 14-03-2010 07:45:06 4.6 C 4.04 g/m*3 4.6 C 0 km/h
160 14-03-2010 07:57:06 4.7 C 4 g/m*3 4.7 C 0 km/h
161 14-03-2010 08:09:06 4.8 C 3.96 g/m*3 4.8 C 0 km/h
162 14-03-2010 08:21:06 4.9 C 3.92 g/m*3 4.9 C 0 km/h
163 14-03-2010 08:33:06 5.2 C 3.86 g/m*3 5.2 C 0 km/h
164 14-03-2010 08:45:01 5.3 C 3.81 g/m*3 5.3 C 0 km/h
165 14-03-2010 08:57:01 5.4 C 3.77 g/m*3 5.4 C 0 km/h
166 14-03-2010 09:09:02 5.6 C 3.82 g/m*3 5.6 C 0 km/h
167 14-03-2010 09:21:01 5.7 C 3.77 g/m*3 5.7 C 0 km/h
168 14-03-2010 09:33:02 6 C 3.7 g/m*3 6 C 0 km/h
169 14-03-2010 09:45:02 5.9 C 3.75 g/m*3 5.9 C 0 km/h
170 14-03-2010 09:57:02 6 C 3.77 g/m*3 6 C 0 km/h
171 14-03-2010 10:09:02 6.3 C 3.78 g/m*3 6.3 C 0 km/h
172 14-03-2010 10:21:02 6.5 C 3.75 g/m*3 6.5 C 0 km/h
173 14-03-2010 10:33:02 6.8 C 3.82 g/m*3 6.8 C 0 km/h
174 14-03-2010 10:45:02 7 C 3.64 g/m*3 7 C 0 km/h
175 14-03-2010 10:57:02 6.9 C 3.7 g/m*3 6.9 C 0 km/h
Sensor: Nr:Datum:Temp:Abs-Feuchte:Windchill:Wind:
Aussen-T/F 176 14-03-2010 11:09:02 7.2 C 3.69 g/m*3 7.2 C 0 km/h
177 14-03-2010 11:21:02 7.5 C 3.76 g/m*3 7.5 C 0 km/h
178 14-03-2010 11:33:02 7.4 C 3.66 g/m*3 7.4 C 0 km/h
179 14-03-2010 11:45:01 7.5 C 3.76 g/m*3 7.5 C 0 km/h
180 14-03-2010 11:57:01 7.6 C 3.63 g/m*3 7.6 C 0 km/h
181 14-03-2010 12:09:02 7.8 C 3.51 g/m*3 7.8 C 0 km/h
182 14-03-2010 12:21:01 7.8 C 3.43 g/m*3 7.8 C 0 km/h
183 14-03-2010 12:33:01 7.7 C 3.49 g/m*3 7.7 C 0 km/h
184 14-03-2010 12:45:01 7.6 C 3.54 g/m*3 7.6 C 0 km/h
185 14-03-2010 12:57:01 7.6 C 3.63 g/m*3 7.6 C 0 km/h
186 14-03-2010 13:09:02 7.6 C 3.63 g/m*3 7.6 C 0 km/h
187 14-03-2010 13:21:01 7.7 C 3.73 g/m*3 7.7 C 0 km/h
188 14-03-2010 13:33:02 7.7 C 3.73 g/m*3 7.7 C 0 km/h
189 14-03-2010 13:45:02 7.5 C 3.76 g/m*3 7.5 C 0 km/h
190 14-03-2010 13:57:02 7.5 C 3.76 g/m*3 7.5 C 0 km/h
191 14-03-2010 14:09:02 7.4 C 3.74 g/m*3 7.4 C 0 km/h
192 14-03-2010 14:21:01 7.3 C 3.79 g/m*3 7.3 C 0 km/h
193 14-03-2010 14:33:02 7.4 C 3.82 g/m*3 7.4 C 0 km/h
194 14-03-2010 14:45:02 7.5 C 3.84 g/m*3 7.5 C 0 km/h
195 14-03-2010 14:57:02 7.5 C 3.84 g/m*3 7.5 C 0 km/h
196 14-03-2010 15:09:02 7.7 C 3.89 g/m*3 7.7 C 0 km/h
197 14-03-2010 15:21:02 7.7 C 3.89 g/m*3 7.7 C 0 km/h
198 14-03-2010 15:33:02 7.8 C 3.84 g/m*3 7.8 C 0 km/h
199 14-03-2010 15:45:02 7.8 C 3.92 g/m*3 7.8 C 0 km/h
200 14-03-2010 15:57:02 7.7 C 3.97 g/m*3 7.7 C 0 km/h
Sensor: Nr:Datum:Temp:Abs-Feuchte:Windchill:Wind:
Aussen-T/F 201 14-03-2010 16:09:02 7.6 C 3.95 g/m*3 7.6 C 0 km/h
202 14-03-2010 16:21:02 7.3 C 4.03 g/m*3 7.3 C 0 km/h
203 14-03-2010 16:33:02 7.2 C 4.08 g/m*3 7.2 C 0 km/h
204 14-03-2010 16:45:02 6.9 C 4.31 g/m*3 6.9 C 0 km/h
205 14-03-2010 16:57:02 6.5 C 4.27 g/m*3 6.5 C 0 km/h
206 14-03-2010 17:09:02 6.4 C 4.47 g/m*3 6.4 C 0 km/h
207 14-03-2010 17:21:02 6.7 C 4.18 g/m*3 6.7 C 0 km/h
208 14-03-2010 17:33:02 6.8 C 4.21 g/m*3 6.8 C 0 km/h
209 14-03-2010 17:45:02 6.6 C 4.23 g/m*3 6.6 C 0 km/h
210 14-03-2010 17:57:02 6.4 C 4.32 g/m*3 6.4 C 0 km/h
211 14-03-2010 18:09:02 6.4 C 4.4 g/m*3 6.4 C 0 km/h
212 14-03-2010 18:21:02 6.2 C 4.49 g/m*3 6.2 C 0 km/h
213 14-03-2010 18:33:02 5.9 C 4.61 g/m*3 5.9 C 0 km/h
214 14-03-2010 18:45:02 5.7 C 4.84 g/m*3 5.7 C 0 km/h
215 14-03-2010 18:57:02 5.4 C 4.95 g/m*3 5.4 C 0 km/h
216 14-03-2010 19:09:01 5.4 C 4.95 g/m*3 5.4 C 0 km/h
217 14-03-2010 19:21:02 5.4 C 4.95 g/m*3 5.4 C 0 km/h
218 14-03-2010 19:33:01 5.6 C 5.02 g/m*3 5.6 C 0 km/h
219 14-03-2010 19:45:02 5.7 C 4.98 g/m*3 5.7 C 0 km/h
220 14-03-2010 19:57:02 5.8 C 4.94 g/m*3 5.8 C 0 km/h
221 14-03-2010 20:09:01 5.7 C 4.91 g/m*3 5.7 C 0 km/h
222 14-03-2010 20:21:02 5.7 C 4.84 g/m*3 5.7 C 0 km/h
223 14-03-2010 20:33:01 5.7 C 4.77 g/m*3 5.7 C 0 km/h
224 14-03-2010 20:45:02 5.8 C 4.73 g/m*3 5.8 C 0 km/h
225 14-03-2010 20:57:02 5.7 C 4.63 g/m*3 5.7 C 0 km/h
Sensor: Nr:Datum:Temp:Abs-Feuchte:Windchill:Wind:
Aussen-T/F 226 14-03-2010 21:09:02 5.7 C 4.55 g/m*3 5.7 C 0 km/h
227 14-03-2010 21:21:02 5.7 C 4.55 g/m*3 5.7 C 0 km/h
228 14-03-2010 21:33:02 5.9 C 4.4 g/m*3 5.9 C 0 km/h
229 14-03-2010 21:46:05 5.8 C 4.37 g/m*3 5.8 C 0 km/h
230 14-03-2010 21:58:06 5.8 C 4.3 g/m*3 5.8 C 0 km/h
231 14-03-2010 22:10:06 5.8 C 4.3 g/m*3 5.8 C 0 km/h
232 14-03-2010 22:22:06 5.9 C 4.33 g/m*3 5.9 C 0 km/h
233 14-03-2010 22:34:06 5.8 C 4.3 g/m*3 5.8 C 0 km/h
234 14-03-2010 22:46:06 5.9 C 4.33 g/m*3 5.9 C 0 km/h
235 14-03-2010 22:58:06 5.9 C 4.33 g/m*3 5.9 C 0 km/h
236 14-03-2010 23:10:06 6.1 C 4.31 g/m*3 6.1 C 0 km/h
237 14-03-2010 23:22:06 6 C 4.5 g/m*3 6 C 0 km/h
238 14-03-2010 23:34:06 5.8 C 4.58 g/m*3 5.8 C 0 km/h
239 14-03-2010 23:46:06 6.1 C 4.75 g/m*3 6.1 C 0 km/h
240 14-03-2010 23:58:06 5.7 C 4.77 g/m*3 5.7 C 0 km/h
241 15-03-2010 00:10:06 5.8 C 4.73 g/m*3 5.8 C 0 km/h
242 15-03-2010 00:22:06 5.8 C 4.73 g/m*3 5.8 C 0 km/h
243 15-03-2010 00:34:06 5.9 C 4.76 g/m*3 5.9 C 0 km/h
244 15-03-2010 00:46:06 5.8 C 4.8 g/m*3 5.8 C 0 km/h
245 15-03-2010 00:58:06 5.8 C 4.73 g/m*3 5.8 C 0 km/h
246 15-03-2010 01:10:06 5.8 C 4.73 g/m*3 5.8 C 0 km/h
247 15-03-2010 01:22:06 5.8 C 4.73 g/m*3 5.8 C 0 km/h
248 15-03-2010 01:34:06 5.7 C 4.63 g/m*3 5.7 C 0 km/h
249 15-03-2010 01:46:06 5.7 C 4.7 g/m*3 5.7 C 0 km/h
250 15-03-2010 01:58:07 5.7 C 4.77 g/m*3 5.7 C 0 km/h
Sensor: Nr:Datum:Temp:Abs-Feuchte:Windchill:Wind:
Aussen-T/F 251 15-03-2010 02:10:07 5.4 C 4.81 g/m*3 5.4 C 0 km/h
252 15-03-2010 02:22:07 5.2 C 4.82 g/m*3 5.2 C 0 km/h
253 15-03-2010 02:34:07 4.9 C 4.93 g/m*3 4.9 C 0 km/h
254 15-03-2010 02:46:07 4.8 C 5.03 g/m*3 4.8 C 0 km/h
255 15-03-2010 02:58:07 4.7 C 5 g/m*3 4.7 C 0 km/h
256 15-03-2010 03:10:07 5 C 4.76 g/m*3 5 C 0 km/h
257 15-03-2010 03:22:07 5 C 4.69 g/m*3 5 C 0 km/h
258 15-03-2010 03:34:07 4.9 C 4.79 g/m*3 4.9 C 0 km/h
259 15-03-2010 03:46:07 4.8 C 4.69 g/m*3 4.8 C 0 km/h
260 15-03-2010 03:58:07 4.7 C 4.73 g/m*3 4.7 C 0 km/h
261 15-03-2010 04:10:07 4.6 C 4.63 g/m*3 4.6 C 0 km/h
262 15-03-2010 04:22:07 4.6 C 4.63 g/m*3 4.6 C 0 km/h
263 15-03-2010 04:34:07 4.6 C 4.63 g/m*3 4.6 C 0 km/h
264 15-03-2010 04:46:07 4.6 C 4.57 g/m*3 4.6 C 0 km/h
265 15-03-2010 04:58:07 4.7 C 4.6 g/m*3 4.7 C 0 km/h
266 15-03-2010 05:10:07 4.6 C 4.5 g/m*3 4.6 C 0 km/h
267 15-03-2010 05:22:07 4.6 C 4.57 g/m*3 4.6 C 0 km/h
268 15-03-2010 05:34:07 4.6 C 4.43 g/m*3 4.6 C 0 km/h
269 15-03-2010 05:46:07 4.7 C 4.33 g/m*3 4.7 C 0 km/h
270 15-03-2010 05:58:07 4.7 C 4.33 g/m*3 4.7 C 0 km/h
271 15-03-2010 06:10:08 4.7 C 4.26 g/m*3 4.7 C 0 km/h
272 15-03-2010 06:22:03 4.7 C 4.2 g/m*3 4.7 C 0 km/h
273 15-03-2010 06:34:04 4.6 C 4.17 g/m*3 4.6 C 0 km/h
274 15-03-2010 06:46:02 4.6 C 4.23 g/m*3 4.6 C 0 km/h
275 15-03-2010 06:58:02 4.7 C 4.2 g/m*3 4.7 C 0 km/h
Sensor: Nr:Datum:Temp:Abs-Feuchte:Windchill:Wind:
Aussen-T/F 276 15-03-2010 07:10:02 4.4 C 4.37 g/m*3 4.4 C 0 km/h
277 15-03-2010 07:22:02 4 C 4.64 g/m*3 4 C 0 km/h
278 15-03-2010 07:34:02 3.7 C 4.86 g/m*3 3.7 C 0 km/h
279 15-03-2010 07:46:02 3.6 C 4.95 g/m*3 3.6 C 0 km/h
280 15-03-2010 07:58:02 3.7 C 5.11 g/m*3 3.7 C 0 km/h
281 15-03-2010 08:10:02 3.8 C 5.21 g/m*3 3.8 C 0 km/h
282 15-03-2010 08:22:02 3.7 C 5.23 g/m*3 3.7 C 0 km/h
283 15-03-2010 08:34:02 3.8 C 5.33 g/m*3 3.8 C 0 km/h
284 15-03-2010 08:46:02 4 C 5.4 g/m*3 4 C 0 km/h
285 15-03-2010 08:58:02 4.2 C 5.54 g/m*3 4.2 C 0 km/h
286 15-03-2010 09:10:02 4.3 C 5.51 g/m*3 4.3 C 0 km/h
287 15-03-2010 09:22:02 4.3 C 5.51 g/m*3 4.3 C 0 km/h
288 15-03-2010 09:34:02 4.4 C 5.55 g/m*3 4.4 C 0 km/h
289 15-03-2010 09:46:02 4.6 C 5.62 g/m*3 4.6 C 0 km/h
290 15-03-2010 09:58:02 4.5 C 5.52 g/m*3 4.5 C 0 km/h
291 15-03-2010 10:10:02 4.5 C 5.52 g/m*3 4.5 C 0 km/h
292 15-03-2010 10:22:02 4.6 C 5.56 g/m*3 4.6 C 0 km/h
293 15-03-2010 10:34:02 5.1 C 5.61 g/m*3 5.1 C 0 km/h
294 15-03-2010 10:46:02 5.5 C 5.48 g/m*3 5.5 C 0 km/h
295 15-03-2010 10:58:02 6 C 5.44 g/m*3 6 C 0 km/h
296 15-03-2010 11:10:02 5.9 C 5.26 g/m*3 5.9 C 0 km/h
297 15-03-2010 11:22:02 6 C 5.08 g/m*3 6 C 0 km/h
298 15-03-2010 11:34:01 5.9 C 5.05 g/m*3 5.9 C 0 km/h
299 15-03-2010 11:46:02 5.9 C 4.98 g/m*3 5.9 C 0 km/h
300 15-03-2010 11:58:02 6 C 4.94 g/m*3 6 C 0 km/h
Sensor: Nr:Datum:Temp:Abs-Feuchte:Windchill:Wind:
Aussen-T/F 301 15-03-2010 12:10:01 6 C 4.79 g/m*3 6 C 0 km/h
302 15-03-2010 12:22:02 6.6 C 4.98 g/m*3 6.6 C 0 km/h
303 15-03-2010 12:34:01 7.4 C 4.85 g/m*3 7.4 C 0 km/h
304 15-03-2010 12:46:02 7.8 C 4.98 g/m*3 7.8 C 0 km/h
305 15-03-2010 12:58:02 8.5 C 4.87 g/m*3 8.5 C 0 km/h
306 15-03-2010 13:10:02 9.3 C 4.67 g/m*3 9.3 C 0 km/h
307 15-03-2010 13:22:02 9 C 4.58 g/m*3 9 C 0 km/h
308 15-03-2010 13:34:02 9.4 C 4.61 g/m*3 9.4 C 0 km/h
309 15-03-2010 13:46:02 9.9 C 4.58 g/m*3 9.9 C 0 km/h
310 15-03-2010 13:58:03 9.7 C 4.33 g/m*3 9.7 C 0 km/h
311 15-03-2010 14:10:01 10.1 C 4.35 g/m*3 10.1 C 0 km/h
312 15-03-2010 14:22:01 10 C 4.04 g/m*3 10 C 0 km/h
313 15-03-2010 14:34:02 10.4 C 3.95 g/m*3 10.4 C 0 km/h
314 15-03-2010 14:46:02 10.5 C 4.07 g/m*3 10.5 C 0 km/h
315 15-03-2010 14:58:02 10.3 C 4.02 g/m*3 10.3 C 0 km/h
316 15-03-2010 15:10:01 10.4 C 4.05 g/m*3 10.4 C 0 km/h
317 15-03-2010 15:22:02 11 C 4.1 g/m*3 11 C 0 km/h
318 15-03-2010 15:34:02 10.5 C 3.98 g/m*3 10.5 C 0 km/h
319 15-03-2010 15:46:02 10.4 C 4.05 g/m*3 10.4 C 0 km/h
320 15-03-2010 15:58:02 10.1 C 4.07 g/m*3 10.1 C 0 km/h
321 15-03-2010 16:10:03 9.9 C 4.2 g/m*3 9.9 C 0 km/h
322 15-03-2010 16:22:02 10 C 4.23 g/m*3 10 C 0 km/h
323 15-03-2010 16:34:02 9.9 C 4.29 g/m*3 9.9 C 0 km/h
324 15-03-2010 16:46:01 9.8 C 4.27 g/m*3 9.8 C 0 km/h
325 15-03-2010 16:58:01 9.7 C 4.43 g/m*3 9.7 C 0 km/h
Sensor: Nr:Datum:Temp:Abs-Feuchte:Windchill:Wind:
Aussen-T/F 326 15-03-2010 17:10:02 9.6 C 4.4 g/m*3 9.6 C 0 km/h
327 15-03-2010 17:22:01 9.2 C 4.55 g/m*3 9.2 C 0 km/h
328 15-03-2010 17:34:01 8.6 C 4.98 g/m*3 8.6 C 0 km/h
329 15-03-2010 17:46:01 8.3 C 5.06 g/m*3 8.3 C 0 km/h
330 15-03-2010 17:58:01 8.2 C 4.94 g/m*3 8.2 C 0 km/h
331 15-03-2010 18:10:02 8.2 C 5.11 g/m*3 8.2 C 0 km/h
332 15-03-2010 18:22:01 8.1 C 5.16 g/m*3 8.1 C 0 km/h
333 15-03-2010 18:34:02 8 C 5.21 g/m*3 8 C 0 km/h
334 15-03-2010 18:46:01 8.1 C 5.08 g/m*3 8.1 C 0 km/h
335 15-03-2010 18:58:01 7.7 C 5.27 g/m*3 7.7 C 0 km/h
336 15-03-2010 19:10:02 7.5 C 5.36 g/m*3 7.5 C 0 km/h
337 15-03-2010 19:22:01 7.2 C 5.42 g/m*3 7.2 C 0 km/h
338 15-03-2010 19:34:02 7.1 C 5.46 g/m*3 7.1 C 0 km/h
339 15-03-2010 19:46:01 7 C 5.5 g/m*3 7 C 0 km/h
340 15-03-2010 19:58:01 7 C 5.58 g/m*3 7 C 0 km/h
341 15-03-2010 20:10:02 6.7 C 5.77 g/m*3 6.7 C 0 km/h
342 15-03-2010 20:22:01 6.8 C 5.81 g/m*3 6.8 C 0 km/h
343 15-03-2010 20:34:02 6.9 C 5.62 g/m*3 6.9 C 0 km/h
344 15-03-2010 20:46:01 6.8 C 5.58 g/m*3 6.8 C 0 km/h
345 15-03-2010 20:58:01 6.8 C 5.58 g/m*3 6.8 C 0 km/h
346 15-03-2010 21:10:02 6.9 C 5.47 g/m*3 6.9 C 0 km/h
347 15-03-2010 21:22:02 6.6 C 5.59 g/m*3 6.6 C 0 km/h
348 15-03-2010 21:34:02 6.4 C 5.66 g/m*3 6.4 C 0 km/h
349 15-03-2010 21:46:01 6.3 C 5.85 g/m*3 6.3 C 0 km/h
350 15-03-2010 21:58:01 6.2 C 5.81 g/m*3 6.2 C 0 km/h
Sensor: Nr:Datum:Temp:Abs-Feuchte:Windchill:Wind:
Aussen-T/F 351 15-03-2010 22:10:01 6.1 C 5.77 g/m*3 6.1 C 0 km/h
352 15-03-2010 22:23:02 6 C 5.73 g/m*3 6 C 0 km/h
353 15-03-2010 22:35:02 6 C 5.88 g/m*3 6 C 0 km/h
354 15-03-2010 22:47:02 5.8 C 5.95 g/m*3 5.8 C 0 km/h
355 15-03-2010 22:59:02 5.8 C 6.02 g/m*3 5.8 C 0 km/h
356 15-03-2010 23:11:02 5.7 C 6.05 g/m*3 5.7 C 0 km/h
357 15-03-2010 23:23:02 5.6 C 6.08 g/m*3 5.6 C 0 km/h
358 15-03-2010 23:35:03 5.5 C 6.11 g/m*3 5.5 C 0 km/h
359 15-03-2010 23:47:03 5.5 C 6.11 g/m*3 5.5 C 0 km/h
360 15-03-2010 23:59:03 5.4 C 6.07 g/m*3 5.4 C 0 km/h
361 16-03-2010 00:11:03 5.4 C 6.14 g/m*3 5.4 C 0 km/h
362 16-03-2010 00:23:03 5.4 C 6.14 g/m*3 5.4 C 0 km/h
363 16-03-2010 00:35:03 5.3 C 6.1 g/m*3 5.3 C 0 km/h
364 16-03-2010 00:47:03 5.2 C 6.13 g/m*3 5.2 C 0 km/h
365 16-03-2010 00:59:03 5.1 C 6.09 g/m*3 5.1 C 0 km/h
366 16-03-2010 01:11:03 5 C 5.98 g/m*3 5 C 0 km/h
367 16-03-2010 01:23:03 5 C 6.05 g/m*3 5 C 0 km/h
368 16-03-2010 01:35:03 5 C 6.05 g/m*3 5 C 0 km/h
369 16-03-2010 01:47:03 5 C 6.05 g/m*3 5 C 0 km/h
370 16-03-2010 01:59:03 5 C 6.05 g/m*3 5 C 0 km/h
371 16-03-2010 02:11:03 5 C 6.12 g/m*3 5 C 0 km/h
372 16-03-2010 02:23:03 4.9 C 6.08 g/m*3 4.9 C 0 km/h
373 16-03-2010 02:35:03 4.9 C 6.08 g/m*3 4.9 C 0 km/h
374 16-03-2010 02:47:03 4.9 C 6.08 g/m*3 4.9 C 0 km/h
375 16-03-2010 02:59:03 4.8 C 5.97 g/m*3 4.8 C 0 km/h
Sensor: Nr:Datum:Temp:Abs-Feuchte:Windchill:Wind:
Aussen-T/F 376 16-03-2010 03:11:03 4.8 C 5.97 g/m*3 4.8 C 0 km/h
377 16-03-2010 03:23:03 4.7 C 5.93 g/m*3 4.7 C 0 km/h
378 16-03-2010 03:35:04 4.8 C 6.04 g/m*3 4.8 C 0 km/h
379 16-03-2010 03:47:04 4.8 C 6.04 g/m*3 4.8 C 0 km/h
380 16-03-2010 03:59:04 4.8 C 6.1 g/m*3 4.8 C 0 km/h
381 16-03-2010 04:11:04 4.8 C 6.1 g/m*3 4.8 C 0 km/h
382 16-03-2010 04:23:04 4.8 C 6.1 g/m*3 4.8 C 0 km/h
383 16-03-2010 04:35:04 4.7 C 6.06 g/m*3 4.7 C 0 km/h
384 16-03-2010 04:47:04 4.8 C 6.1 g/m*3 4.8 C 0 km/h
385 16-03-2010 04:59:04 4.7 C 6.06 g/m*3 4.7 C 0 km/h
386 16-03-2010 05:11:04 4.7 C 6.06 g/m*3 4.7 C 0 km/h
387 16-03-2010 05:23:04 4.7 C 6.13 g/m*3 4.7 C 0 km/h
388 16-03-2010 05:35:04 4.7 C 6.13 g/m*3 4.7 C 0 km/h
389 16-03-2010 05:47:04 4.6 C 6.02 g/m*3 4.6 C 0 km/h
390 16-03-2010 05:59:04 4.6 C 6.02 g/m*3 4.6 C 0 km/h
391 16-03-2010 06:11:04 4.6 C 6.02 g/m*3 4.6 C 0 km/h
392 16-03-2010 06:23:04 4.6 C 5.96 g/m*3 4.6 C 0 km/h
393 16-03-2010 06:35:04 4.6 C 5.96 g/m*3 4.6 C 0 km/h
394 16-03-2010 06:47:04 4.7 C 6.06 g/m*3 4.7 C 0 km/h
395 16-03-2010 06:59:04 4.7 C 6.06 g/m*3 4.7 C 0 km/h
396 16-03-2010 07:11:02 4.7 C 6.06 g/m*3 4.7 C 0 km/h
397 16-03-2010 07:23:01 4.8 C 6.1 g/m*3 4.8 C 0 km/h
398 16-03-2010 07:35:02 4.9 C 6.21 g/m*3 4.9 C 0 km/h
399 16-03-2010 07:47:02 5 C 6.18 g/m*3 5 C 0 km/h
400 16-03-2010 07:59:02 5 C 6.18 g/m*3 5 C 0 km/h
Sensor: Nr:Datum:Temp:Abs-Feuchte:Windchill:Wind:
Aussen-T/F 401 16-03-2010 08:11:02 5 C 6.18 g/m*3 5 C 0 km/h
402 16-03-2010 08:23:02 5.1 C 6.22 g/m*3 5.1 C 0 km/h
403 16-03-2010 08:35:02 5.3 C 6.31 g/m*3 5.3 C 0 km/h
404 16-03-2010 08:47:02 5.3 C 6.24 g/m*3 5.3 C 0 km/h
405 16-03-2010 08:59:02 5.5 C 6.32 g/m*3 5.5 C 0 km/h
406 16-03-2010 09:11:01 5.7 C 6.4 g/m*3 5.7 C 0 km/h
407 16-03-2010 09:23:02 6 C 6.46 g/m*3 6 C 0 km/h
408 16-03-2010 09:35:01 6.4 C 6.48 g/m*3 6.4 C 0 km/h
409 16-03-2010 09:47:02 6.4 C 6.26 g/m*3 6.4 C 0 km/h
410 16-03-2010 09:59:02 6.6 C 6.11 g/m*3 6.6 C 0 km/h
411 16-03-2010 10:11:01 6.7 C 6 g/m*3 6.7 C 0 km/h
412 16-03-2010 10:23:01 6.8 C 5.97 g/m*3 6.8 C 0 km/h
413 16-03-2010 10:35:02 6.8 C 5.81 g/m*3 6.8 C 0 km/h
414 16-03-2010 10:47:02 6.8 C 5.66 g/m*3 6.8 C 0 km/h
415 16-03-2010 10:59:03 6.9 C 5.7 g/m*3 6.9 C 0 km/h
416 16-03-2010 11:11:01 7.1 C 5.62 g/m*3 7.1 C 0 km/h
417 16-03-2010 11:23:02 7.5 C 5.44 g/m*3 7.5 C 0 km/h
418 16-03-2010 11:35:02 8.1 C 5.41 g/m*3 8.1 C 0 km/h
419 16-03-2010 11:47:02 8.5 C 5.29 g/m*3 8.5 C 0 km/h
420 16-03-2010 11:59:02 8.7 C 5.1 g/m*3 8.7 C 0 km/h
421 16-03-2010 12:11:03 8.7 C 5.1 g/m*3 8.7 C 0 km/h
422 16-03-2010 12:23:02 8.9 C 5.26 g/m*3 8.9 C 0 km/h
423 16-03-2010 12:35:02 8.4 C 5.17 g/m*3 8.4 C 0 km/h
424 16-03-2010 12:47:02 7.9 C 5.34 g/m*3 7.9 C 0 km/h
425 16-03-2010 12:59:02 7.8 C 5.39 g/m*3 7.8 C 0 km/h
Sensor: Nr:Datum:Temp:Abs-Feuchte:Windchill:Wind:
Aussen-T/F 426 16-03-2010 13:11:02 8 C 5.29 g/m*3 8 C 0 km/h
427 16-03-2010 13:23:01 7.8 C 5.14 g/m*3 7.8 C 0 km/h
428 16-03-2010 13:35:02 8.7 C 5.45 g/m*3 8.7 C 0 km/h
429 16-03-2010 13:47:02 8.2 C 5.11 g/m*3 8.2 C 0 km/h
430 16-03-2010 13:59:02 8.1 C 5.08 g/m*3 8.1 C 0 km/h
431 16-03-2010 14:11:02 8.1 C 5.16 g/m*3 8.1 C 0 km/h
432 16-03-2010 14:23:01 8.7 C 5.36 g/m*3 8.7 C 0 km/h
433 16-03-2010 14:35:02 8.7 C 5.1 g/m*3 8.7 C 0 km/h
434 16-03-2010 14:47:02 8.2 C 4.94 g/m*3 8.2 C 0 km/h
435 16-03-2010 14:59:02 8.1 C 4.99 g/m*3 8.1 C 0 km/h
436 16-03-2010 15:11:02 8.1 C 5.08 g/m*3 8.1 C 0 km/h
437 16-03-2010 15:23:01 8.5 C 5.12 g/m*3 8.5 C 0 km/h
438 16-03-2010 15:35:02 8.6 C 4.81 g/m*3 8.6 C 0 km/h
439 16-03-2010 15:47:01 8.8 C 4.79 g/m*3 8.8 C 0 km/h
440 16-03-2010 15:59:01 9 C 4.85 g/m*3 9 C 0 km/h
441 16-03-2010 16:11:02 8.7 C 4.76 g/m*3 8.7 C 0 km/h
442 16-03-2010 16:23:02 8.5 C 4.78 g/m*3 8.5 C 0 km/h
443 16-03-2010 16:35:02 8.7 C 4.84 g/m*3 8.7 C 0 km/h
444 16-03-2010 16:47:02 8.7 C 4.84 g/m*3 8.7 C 0 km/h
445 16-03-2010 16:59:02 8.7 C 4.84 g/m*3 8.7 C 0 km/h
446 16-03-2010 17:11:02 8.9 C 4.99 g/m*3 8.9 C 0 km/h
447 16-03-2010 17:23:02 8.8 C 5.05 g/m*3 8.8 C 0 km/h
448 16-03-2010 17:35:01 8.6 C 4.98 g/m*3 8.6 C 0 km/h
449 16-03-2010 17:47:02 8.6 C 4.98 g/m*3 8.6 C 0 km/h
450 16-03-2010 17:59:02 8.4 C 5.01 g/m*3 8.4 C 0 km/h
Sensor: Nr:Datum:Temp:Abs-Feuchte:Windchill:Wind:
Aussen-T/F 451 16-03-2010 18:11:01 8.2 C 5.28 g/m*3 8.2 C 0 km/h
452 16-03-2010 18:23:02 8 C 5.37 g/m*3 8 C 0 km/h
453 16-03-2010 18:35:01 7.8 C 5.55 g/m*3 7.8 C 0 km/h
454 16-03-2010 18:47:02 7.5 C 5.52 g/m*3 7.5 C 0 km/h
455 16-03-2010 18:59:02 7.3 C 5.53 g/m*3 7.3 C 0 km/h
456 16-03-2010 19:11:02 7.1 C 5.46 g/m*3 7.1 C 0 km/h
457 16-03-2010 19:23:02 7 C 5.58 g/m*3 7 C 0 km/h
458 16-03-2010 19:35:03 6.9 C 5.62 g/m*3 6.9 C 0 km/h
459 16-03-2010 19:47:02 6.8 C 5.58 g/m*3 6.8 C 0 km/h
460 16-03-2010 19:59:02 6.6 C 5.51 g/m*3 6.6 C 0 km/h
461 16-03-2010 20:11:01 6.2 C 5.37 g/m*3 6.2 C 0 km/h
462 16-03-2010 20:23:02 5.7 C 5.34 g/m*3 5.7 C 0 km/h
463 16-03-2010 20:35:02 5.3 C 5.2 g/m*3 5.3 C 0 km/h
464 16-03-2010 20:47:02 4.9 C 5.2 g/m*3 4.9 C 0 km/h
465 16-03-2010 20:59:03 4.6 C 5.16 g/m*3 4.6 C 0 km/h
466 16-03-2010 21:11:01 4.4 C 5.09 g/m*3 4.4 C 0 km/h
467 16-03-2010 21:23:01 4.2 C 5.03 g/m*3 4.2 C 0 km/h
468 16-03-2010 21:36:04 4 C 5.02 g/m*3 4 C 0 km/h
469 16-03-2010 21:48:04 3.8 C 5.02 g/m*3 3.8 C 0 km/h
470 16-03-2010 22:00:04 3.7 C 5.05 g/m*3 3.7 C 0 km/h
471 16-03-2010 22:12:04 3.3 C 4.91 g/m*3 3.3 C 0 km/h
472 16-03-2010 22:24:04 3.2 C 4.88 g/m*3 3.2 C 0 km/h
473 16-03-2010 22:36:04 2.9 C 4.84 g/m*3 2.9 C 0 km/h
474 16-03-2010 22:48:04 2.8 C 4.81 g/m*3 2.8 C 0 km/h
475 16-03-2010 23:00:04 2.7 C 4.78 g/m*3 2.7 C 0 km/h
Sensor: Nr:Datum:Temp:Abs-Feuchte:Windchill:Wind:
Aussen-T/F 476 16-03-2010 23:12:04 2.5 C 4.71 g/m*3 2.5 C 0 km/h
477 16-03-2010 23:24:04 2.4 C 4.74 g/m*3 2.4 C 0 km/h
478 16-03-2010 23:36:04 2.2 C 4.68 g/m*3 2.2 C 0 km/h
479 16-03-2010 23:48:04 2 C 4.61 g/m*3 2 C 0 km/h
480 17-03-2010 00:00:04 2.3 C 4.76 g/m*3 2.3 C 0 km/h
481 17-03-2010 00:12:04 2 C 4.67 g/m*3 2 C 0 km/h
482 17-03-2010 00:24:05 2.2 C 4.73 g/m*3 2.2 C 0 km/h
483 17-03-2010 00:36:05 2.3 C 4.82 g/m*3 2.3 C 0 km/h
484 17-03-2010 00:48:05 2.3 C 4.76 g/m*3 2.3 C 0 km/h
485 17-03-2010 01:00:05 2.3 C 4.76 g/m*3 2.3 C 0 km/h
486 17-03-2010 01:12:05 2.3 C 4.76 g/m*3 2.3 C 0 km/h
487 17-03-2010 01:24:05 1.8 C 4.6 g/m*3 1.8 C 0 km/h
488 17-03-2010 01:36:05 1.6 C 4.54 g/m*3 1.6 C 0 km/h
489 17-03-2010 01:48:05 1.7 C 4.63 g/m*3 1.7 C 0 km/h
490 17-03-2010 02:00:05 2 C 4.67 g/m*3 2 C 0 km/h
491 17-03-2010 02:12:05 2 C 4.67 g/m*3 2 C 0 km/h
492 17-03-2010 02:24:05 2.1 C 4.64 g/m*3 2.1 C 0 km/h
493 17-03-2010 02:36:05 2.1 C 4.64 g/m*3 2.1 C 0 km/h
494 17-03-2010 02:48:05 2.1 C 4.59 g/m*3 2.1 C 0 km/h
495 17-03-2010 03:00:05 2.2 C 4.62 g/m*3 2.2 C 0 km/h
496 17-03-2010 03:12:05 2 C 4.56 g/m*3 2 C 0 km/h
497 17-03-2010 03:24:05 2.1 C 4.59 g/m*3 2.1 C 0 km/h
498 17-03-2010 03:36:05 2 C 4.56 g/m*3 2 C 0 km/h
499 17-03-2010 03:48:05 2.1 C 4.59 g/m*3 2.1 C 0 km/h
500 17-03-2010 04:00:05 2 C 4.56 g/m*3 2 C 0 km/h
Sensor: Nr:Datum:Temp:Abs-Feuchte:Windchill:Wind:
Aussen-T/F 501 17-03-2010 04:12:05 1.9 C 4.58 g/m*3 1.9 C 0 km/h
502 17-03-2010 04:24:05 1.7 C 4.46 g/m*3 1.7 C 0 km/h
503 17-03-2010 04:36:06 1.4 C 4.37 g/m*3 1.4 C 0 km/h
504 17-03-2010 04:48:06 1.1 C 4.34 g/m*3 1.1 C 0 km/h
505 17-03-2010 05:00:06 1 C 4.31 g/m*3 1 C 0 km/h
506 17-03-2010 05:12:06 0.8 C 4.3 g/m*3 0.8 C 0 km/h
507 17-03-2010 05:24:06 0.8 C 4.35 g/m*3 0.8 C 0 km/h
508 17-03-2010 05:36:06 0.7 C 4.32 g/m*3 0.7 C 0 km/h
509 17-03-2010 05:48:06 0.7 C 4.37 g/m*3 0.7 C 0 km/h
510 17-03-2010 06:00:06 0.6 C 4.34 g/m*3 0.6 C 0 km/h
511 17-03-2010 06:12:06 0.5 C 4.31 g/m*3 0.5 C 0 km/h
512 17-03-2010 06:24:06 0.6 C 4.39 g/m*3 0.6 C 0 km/h
513 17-03-2010 06:36:06 0.4 C 4.33 g/m*3 0.4 C 0 km/h
514 17-03-2010 06:48:02 0.6 C 4.39 g/m*3 0.6 C 0 km/h
515 17-03-2010 07:00:02 0.5 C 4.36 g/m*3 0.5 C 0 km/h
516 17-03-2010 07:12:02 0.6 C 4.44 g/m*3 0.6 C 0 km/h
517 17-03-2010 07:24:03 0.8 C 4.51 g/m*3 0.8 C 0 km/h
518 17-03-2010 07:36:02 1.2 C 4.63 g/m*3 1.2 C 0 km/h
519 17-03-2010 07:48:02 1.5 C 4.73 g/m*3 1.5 C 0 km/h
520 17-03-2010 08:00:02 1.6 C 4.7 g/m*3 1.6 C 0 km/h
521 17-03-2010 08:12:02 1.8 C 4.77 g/m*3 1.8 C 0 km/h
522 17-03-2010 08:24:02 2 C 4.72 g/m*3 2 C 0 km/h
523 17-03-2010 08:36:02 2.3 C 4.76 g/m*3 2.3 C 0 km/h
524 17-03-2010 08:48:02 2.6 C 4.8 g/m*3 2.6 C 0 km/h
525 17-03-2010 09:00:02 2.9 C 4.67 g/m*3 2.9 C 0 km/h
Sensor: Nr:Datum:Temp:Abs-Feuchte:Windchill:Wind:
Aussen-T/F 526 17-03-2010 09:12:02 3.5 C 4.67 g/m*3 3.5 C 0 km/h
527 17-03-2010 09:24:03 4.2 C 4.77 g/m*3 4.2 C 0 km/h
528 17-03-2010 09:36:02 4.6 C 4.5 g/m*3 4.6 C 0 km/h
529 17-03-2010 09:48:02 4.8 C 4.36 g/m*3 4.8 C 0 km/h
530 17-03-2010 10:00:02 5.2 C 4.41 g/m*3 5.2 C 0 km/h
531 17-03-2010 10:12:02 5.5 C 4.35 g/m*3 5.5 C 0 km/h
532 17-03-2010 10:24:02 6.2 C 4.27 g/m*3 6.2 C 0 km/h
533 17-03-2010 10:36:02 6.8 C 4.36 g/m*3 6.8 C 0 km/h
534 17-03-2010 10:48:02 7.1 C 4.21 g/m*3 7.1 C 0 km/h
535 17-03-2010 11:00:02 7.6 C 4.11 g/m*3 7.6 C 0 km/h
536 17-03-2010 11:12:02 8.2 C 3.94 g/m*3 8.2 C 0 km/h
537 17-03-2010 11:24:02 8.8 C 3.92 g/m*3 8.8 C 0 km/h
538 17-03-2010 11:36:01 9 C 3.79 g/m*3 9 C 0 km/h
539 17-03-2010 11:48:02 9.1 C 3.73 g/m*3 9.1 C 0 km/h
540 17-03-2010 12:00:02 9.6 C 3.94 g/m*3 9.6 C 0 km/h
541 17-03-2010 12:12:01 10.1 C 3.78 g/m*3 10.1 C 0 km/h
542 17-03-2010 12:24:02 10.4 C 3.66 g/m*3 10.4 C 0 km/h
543 17-03-2010 12:36:02 11.1 C 3.73 g/m*3 11.1 C 0 km/h
544 17-03-2010 12:48:02 11.5 C 3.72 g/m*3 11.5 C 0 km/h
545 17-03-2010 13:00:03 11.8 C 3.58 g/m*3 11.8 C 0 km/h
546 17-03-2010 13:12:02 12.2 C 3.45 g/m*3 12.2 C 0 km/h
547 17-03-2010 13:24:02 12.8 C 3.47 g/m*3 12.8 C 0 km/h
548 17-03-2010 13:36:02 13.1 C 3.42 g/m*3 13.1 C 0 km/h
549 17-03-2010 13:48:02 13.2 C 3.44 g/m*3 13.2 C 0 km/h
550 17-03-2010 14:00:02 13.4 C 3.02 g/m*3 13.4 C 0 km/h
Sensor: Nr:Datum:Temp:Abs-Feuchte:Windchill:Wind:
Aussen-T/F 551 17-03-2010 14:12:02 13.5 C 2.92 g/m*3 13.5 C 0 km/h
552 17-03-2010 14:24:01 13.4 C 2.91 g/m*3 13.4 C 0 km/h
553 17-03-2010 14:36:02 13.8 C 3.1 g/m*3 13.8 C 0 km/h
554 17-03-2010 14:48:02 14.1 C 2.79 g/m*3 14.1 C 0 km/h
555 17-03-2010 15:00:02 14.5 C 3.11 g/m*3 14.5 C 0 km/h
556 17-03-2010 15:12:02 14.7 C 3.15 g/m*3 14.7 C 0 km/h
557 17-03-2010 15:24:02 14.6 C 3.13 g/m*3 14.6 C 0 km/h
558 17-03-2010 15:36:02 14.6 C 3.13 g/m*3 14.6 C 0 km/h
559 17-03-2010 15:48:02 14.1 C 3.16 g/m*3 14.1 C 0 km/h
560 17-03-2010 16:00:02 14.1 C 3.03 g/m*3 14.1 C 0 km/h
561 17-03-2010 16:12:03 13.9 C 3 g/m*3 13.9 C 0 km/h
562 17-03-2010 16:24:02 14 C 3.14 g/m*3 14 C 0 km/h
563 17-03-2010 16:36:02 13.9 C 3.12 g/m*3 13.9 C 0 km/h
564 17-03-2010 16:48:01 13.8 C 2.98 g/m*3 13.8 C 0 km/h
565 17-03-2010 17:00:01 13.7 C 3.08 g/m*3 13.7 C 0 km/h
566 17-03-2010 17:12:02 13.7 C 3.08 g/m*3 13.7 C 0 km/h
567 17-03-2010 17:24:01 13.4 C 3.25 g/m*3 13.4 C 0 km/h
568 17-03-2010 17:36:01 13.1 C 3.42 g/m*3 13.1 C 0 km/h
569 17-03-2010 17:48:01 12.5 C 3.63 g/m*3 12.5 C 0 km/h
570 17-03-2010 18:00:01 12 C 3.62 g/m*3 12 C 0 km/h
571 17-03-2010 18:12:02 11.7 C 3.77 g/m*3 11.7 C 0 km/h
572 17-03-2010 18:24:02 11.2 C 3.75 g/m*3 11.2 C 0 km/h
573 17-03-2010 18:36:01 10.8 C 3.76 g/m*3 10.8 C 0 km/h
574 17-03-2010 18:48:01 10.4 C 3.86 g/m*3 10.4 C 0 km/h
575 17-03-2010 19:00:01 10 C 3.95 g/m*3 10 C 0 km/h
Sensor: Nr:Datum:Temp:Abs-Feuchte:Windchill:Wind:
Aussen-T/F 576 17-03-2010 19:12:01 9.6 C 3.94 g/m*3 9.6 C 0 km/h
577 17-03-2010 19:24:02 9.5 C 3.91 g/m*3 9.5 C 0 km/h
578 17-03-2010 19:36:01 9.2 C 4.02 g/m*3 9.2 C 0 km/h
579 17-03-2010 19:48:03 9 C 4.14 g/m*3 9 C 0 km/h
580 17-03-2010 20:00:03 8.6 C 4.12 g/m*3 8.6 C 0 km/h
581 17-03-2010 20:12:02 8.5 C 4.18 g/m*3 8.5 C 0 km/h
582 17-03-2010 20:24:02 8.2 C 4.19 g/m*3 8.2 C 0 km/h
583 17-03-2010 20:36:02 7.9 C 4.19 g/m*3 7.9 C 0 km/h
584 17-03-2010 20:48:02 7.8 C 4.24 g/m*3 7.8 C 0 km/h
585 17-03-2010 21:00:02 7.5 C 4.32 g/m*3 7.5 C 0 km/h
586 17-03-2010 21:13:03 7.3 C 4.35 g/m*3 7.3 C 0 km/h
587 17-03-2010 21:25:03 7.3 C 4.35 g/m*3 7.3 C 0 km/h
588 17-03-2010 21:37:03 7 C 4.26 g/m*3 7 C 0 km/h
589 17-03-2010 21:49:03 6.9 C 4.39 g/m*3 6.9 C 0 km/h
590 17-03-2010 22:01:03 6.9 C 4.39 g/m*3 6.9 C 0 km/h
591 17-03-2010 22:13:03 6.9 C 4.39 g/m*3 6.9 C 0 km/h
592 17-03-2010 22:25:03 6.9 C 4.31 g/m*3 6.9 C 0 km/h
593 17-03-2010 22:37:03 6.9 C 4.23 g/m*3 6.9 C 0 km/h
594 17-03-2010 22:49:03 6.8 C 4.28 g/m*3 6.8 C 0 km/h
595 17-03-2010 23:01:03 6.6 C 4.38 g/m*3 6.6 C 0 km/h
596 17-03-2010 23:13:03 6.4 C 4.4 g/m*3 6.4 C 0 km/h
597 17-03-2010 23:25:03 6.1 C 4.38 g/m*3 6.1 C 0 km/h
598 17-03-2010 23:37:03 5.9 C 4.47 g/m*3 5.9 C 0 km/h
599 17-03-2010 23:49:03 6.2 C 4.49 g/m*3 6.2 C 0 km/h
600 18-03-2010 00:01:03 6.1 C 4.38 g/m*3 6.1 C 0 km/h
Sensor: Nr:Datum:Temp:Abs-Feuchte:Windchill:Wind:
Aussen-T/F 601 18-03-2010 00:13:03 6.1 C 4.38 g/m*3 6.1 C 0 km/h
602 18-03-2010 00:25:03 5.8 C 4.44 g/m*3 5.8 C 0 km/h
603 18-03-2010 00:37:03 5.7 C 4.41 g/m*3 5.7 C 0 km/h
604 18-03-2010 00:49:03 5.7 C 4.41 g/m*3 5.7 C 0 km/h
605 18-03-2010 01:01:03 5.6 C 4.38 g/m*3 5.6 C 0 km/h
606 18-03-2010 01:13:04 5.5 C 4.35 g/m*3 5.5 C 0 km/h
607 18-03-2010 01:25:04 5.6 C 4.38 g/m*3 5.6 C 0 km/h
608 18-03-2010 01:37:04 5.4 C 4.4 g/m*3 5.4 C 0 km/h
609 18-03-2010 01:49:04 5.4 C 4.47 g/m*3 5.4 C 0 km/h
610 18-03-2010 02:01:04 5.4 C 4.4 g/m*3 5.4 C 0 km/h
611 18-03-2010 02:13:04 5.4 C 4.4 g/m*3 5.4 C 0 km/h
612 18-03-2010 02:25:04 5.3 C 4.37 g/m*3 5.3 C 0 km/h
613 18-03-2010 02:37:04 4.9 C 4.39 g/m*3 4.9 C 0 km/h
614 18-03-2010 02:49:04 4.5 C 4.34 g/m*3 4.5 C 0 km/h
615 18-03-2010 03:01:04 4.3 C 4.35 g/m*3 4.3 C 0 km/h
616 18-03-2010 03:13:04 4 C 4.32 g/m*3 4 C 0 km/h
617 18-03-2010 03:25:04 3.8 C 4.39 g/m*3 3.8 C 0 km/h
618 18-03-2010 03:37:04 3.8 C 4.39 g/m*3 3.8 C 0 km/h
619 18-03-2010 03:49:04 3.8 C 4.39 g/m*3 3.8 C 0 km/h
620 18-03-2010 04:01:04 3.8 C 4.39 g/m*3 3.8 C 0 km/h
621 18-03-2010 04:13:04 3.7 C 4.42 g/m*3 3.7 C 0 km/h
622 18-03-2010 04:25:04 3.4 C 4.4 g/m*3 3.4 C 0 km/h
623 18-03-2010 04:37:04 3.2 C 4.34 g/m*3 3.2 C 0 km/h
624 18-03-2010 04:49:04 3 C 4.28 g/m*3 3 C 0 km/h
625 18-03-2010 05:01:04 2.8 C 4.34 g/m*3 2.8 C 0 km/h
Sensor: Nr:Datum:Temp:Abs-Feuchte:Windchill:Wind:
Aussen-T/F 626 18-03-2010 05:13:04 2.7 C 4.31 g/m*3 2.7 C 0 km/h
627 18-03-2010 05:25:04 2.5 C 4.25 g/m*3 2.5 C 0 km/h
628 18-03-2010 05:37:04 2.5 C 4.25 g/m*3 2.5 C 0 km/h
629 18-03-2010 05:49:05 2.2 C 4.17 g/m*3 2.2 C 0 km/h
630 18-03-2010 06:01:05 2.1 C 4.2 g/m*3 2.1 C 0 km/h
631 18-03-2010 06:13:05 2.1 C 4.25 g/m*3 2.1 C 0 km/h
632 18-03-2010 06:25:05 1.9 C 4.19 g/m*3 1.9 C 0 km/h
633 18-03-2010 06:37:05 1.8 C 4.22 g/m*3 1.8 C 0 km/h
634 18-03-2010 06:49:05 1.7 C 4.19 g/m*3 1.7 C 0 km/h
635 18-03-2010 07:01:02 1.7 C 4.19 g/m*3 1.7 C 0 km/h
636 18-03-2010 07:13:02 1.9 C 4.3 g/m*3 1.9 C 0 km/h
637 18-03-2010 07:25:03 1.8 C 4.28 g/m*3 1.8 C 0 km/h
638 18-03-2010 07:37:02 2 C 4.33 g/m*3 2 C 0 km/h
639 18-03-2010 07:49:02 2.2 C 4.39 g/m*3 2.2 C 0 km/h
640 18-03-2010 08:01:01 2.5 C 4.43 g/m*3 2.5 C 0 km/h
641 18-03-2010 08:13:01 2.8 C 4.52 g/m*3 2.8 C 0 km/h
642 18-03-2010 08:25:02 3.1 C 4.55 g/m*3 3.1 C 0 km/h
643 18-03-2010 08:37:01 3.5 C 4.61 g/m*3 3.5 C 0 km/h
644 18-03-2010 08:49:01 4 C 4.64 g/m*3 4 C 0 km/h
645 18-03-2010 09:01:02 4.6 C 4.7 g/m*3 4.6 C 0 km/h
646 18-03-2010 09:13:02 5.1 C 4.45 g/m*3 5.1 C 0 km/h
647 18-03-2010 09:25:01 5.3 C 4.37 g/m*3 5.3 C 0 km/h
648 18-03-2010 09:37:02 5.9 C 4.25 g/m*3 5.9 C 0 km/h
649 18-03-2010 09:49:01 6.2 C 4.19 g/m*3 6.2 C 0 km/h
650 18-03-2010 10:01:02 6.7 C 4.41 g/m*3 6.7 C 0 km/h
Sensor: Nr:Datum:Temp:Abs-Feuchte:Windchill:Wind:
Aussen-T/F 651 18-03-2010 10:13:02 7.4 C 4.53 g/m*3 7.4 C 0 km/h
652 18-03-2010 10:25:01 7.9 C 4.35 g/m*3 7.9 C 0 km/h
653 18-03-2010 10:37:02 8.3 C 4.3 g/m*3 8.3 C 0 km/h
654 18-03-2010 10:49:01 8.8 C 4.35 g/m*3 8.8 C 0 km/h
655 18-03-2010 11:01:02 9.5 C 4.46 g/m*3 9.5 C 0 km/h
656 18-03-2010 11:13:02 10.2 C 4.47 g/m*3 10.2 C 0 km/h
657 18-03-2010 11:25:02 10.7 C 4.52 g/m*3 10.7 C 0 km/h
658 18-03-2010 11:37:01 11.4 C 4.21 g/m*3 11.4 C 0 km/h
659 18-03-2010 11:49:01 12 C 4.05 g/m*3 12 C 0 km/h
660 18-03-2010 12:01:01 12.8 C 4.26 g/m*3 12.8 C 0 km/h
661 18-03-2010 12:13:01 13.4 C 4.18 g/m*3 13.4 C 0 km/h
662 18-03-2010 12:25:02 14.2 C 4.27 g/m*3 14.2 C 0 km/h
663 18-03-2010 12:37:01 15 C 4.1 g/m*3 15 C 0 km/h
664 18-03-2010 12:49:02 15.9 C 4.2 g/m*3 15.9 C 0 km/h
665 18-03-2010 13:01:01 16.8 C 3.86 g/m*3 16.8 C 0 km/h
666 18-03-2010 13:13:01 17.5 C 3.58 g/m*3 17.5 C 0 km/h
667 18-03-2010 13:25:02 18.2 C 3.11 g/m*3 18.2 C 0 km/h
668 18-03-2010 13:37:01 18.7 C 3.2 g/m*3 18.7 C 0 km/h
669 18-03-2010 13:49:02 19 C 3.26 g/m*3 19 C 0 km/h
670 18-03-2010 14:01:02 19.2 C 3.3 g/m*3 19.2 C 0 km/h
671 18-03-2010 14:13:02 19.1 C 3.28 g/m*3 19.1 C 0 km/h
672 18-03-2010 14:25:02 19 C 3.26 g/m*3 19 C 0 km/h
673 18-03-2010 14:37:02 19.2 C 3.3 g/m*3 19.2 C 0 km/h
674 18-03-2010 14:49:02 19.6 C 3.38 g/m*3 19.6 C 0 km/h
675 18-03-2010 15:01:01 20.2 C 3.5 g/m*3 20.2 C 0 km/h
Sensor: Nr:Datum:Temp:Abs-Feuchte:Windchill:Wind:
Aussen-T/F 676 18-03-2010 15:13:01 20 C 3.46 g/m*3 20 C 0 km/h
677 18-03-2010 15:25:02 20.4 C 3.54 g/m*3 20.4 C 0 km/h
678 18-03-2010 15:37:02 20.6 C 3.58 g/m*3 20.6 C 0 km/h
679 18-03-2010 15:49:01 20.6 C 3.58 g/m*3 20.6 C 0 km/h
680 18-03-2010 16:01:01 20 C 3.46 g/m*3 20 C 0 km/h
681 18-03-2010 16:13:01 19.8 C 3.42 g/m*3 19.8 C 0 km/h
682 18-03-2010 16:25:01 20 C 3.46 g/m*3 20 C 0 km/h
683 18-03-2010 16:37:02 20 C 3.46 g/m*3 20 C 0 km/h
684 18-03-2010 16:49:02 19.3 C 3.32 g/m*3 19.3 C 0 km/h
685 18-03-2010 17:01:02 19.1 C 3.28 g/m*3 19.1 C 0 km/h
686 18-03-2010 17:13:02 18.5 C 3.16 g/m*3 18.5 C 0 km/h
687 18-03-2010 17:25:02 18 C 3.38 g/m*3 18 C 0 km/h
688 18-03-2010 17:37:02 17.5 C 3.88 g/m*3 17.5 C 0 km/h
689 18-03-2010 17:49:02 16.8 C 4.15 g/m*3 16.8 C 0 km/h
690 18-03-2010 18:01:03 16.3 C 4.16 g/m*3 16.3 C 0 km/h
691 18-03-2010 18:13:03 15.8 C 4.17 g/m*3 15.8 C 0 km/h
692 18-03-2010 18:25:02 15.4 C 3.94 g/m*3 15.4 C 0 km/h
693 18-03-2010 18:37:02 15 C 3.98 g/m*3 15 C 0 km/h
694 18-03-2010 18:49:01 14.5 C 3.98 g/m*3 14.5 C 0 km/h
695 18-03-2010 19:01:02 14.1 C 4 g/m*3 14.1 C 0 km/h
696 18-03-2010 19:13:02 13.7 C 4.14 g/m*3 13.7 C 0 km/h
697 18-03-2010 19:25:01 13.4 C 4.18 g/m*3 13.4 C 0 km/h
698 18-03-2010 19:37:02 13.3 C 4.04 g/m*3 13.3 C 0 km/h
699 18-03-2010 19:49:02 13.2 C 4.13 g/m*3 13.2 C 0 km/h
700 18-03-2010 20:01:02 13.1 C 4.11 g/m*3 13.1 C 0 km/h
Sensor: Nr:Datum:Temp:Abs-Feuchte:Windchill:Wind:
Aussen-T/F 701 18-03-2010 20:13:02 13.1 C 3.99 g/m*3 13.1 C 0 km/h
702 18-03-2010 20:25:01 13 C 3.86 g/m*3 13 C 0 km/h
703 18-03-2010 20:37:02 12.8 C 4.03 g/m*3 12.8 C 0 km/h
704 18-03-2010 20:49:02 12.6 C 3.98 g/m*3 12.6 C 0 km/h
705 18-03-2010 21:01:02 12.4 C 3.93 g/m*3 12.4 C 0 km/h
706 18-03-2010 21:13:02 12.4 C 3.82 g/m*3 12.4 C 0 km/h
707 18-03-2010 21:25:02 12.4 C 3.82 g/m*3 12.4 C 0 km/h
708 18-03-2010 21:37:02 12.1 C 3.97 g/m*3 12.1 C 0 km/h
709 18-03-2010 21:49:02 11.8 C 3.89 g/m*3 11.8 C 0 km/h
710 18-03-2010 22:01:02 11.7 C 3.97 g/m*3 11.7 C 0 km/h
711 18-03-2010 22:13:02 11.4 C 3.9 g/m*3 11.4 C 0 km/h
712 18-03-2010 22:25:02 11.2 C 4.05 g/m*3 11.2 C 0 km/h
713 18-03-2010 22:38:04 11.1 C 4.03 g/m*3 11.1 C 0 km/h
714 18-03-2010 22:50:04 10.8 C 4.05 g/m*3 10.8 C 0 km/h
715 18-03-2010 23:02:04 10.5 C 4.07 g/m*3 10.5 C 0 km/h
716 18-03-2010 23:14:04 10.7 C 3.93 g/m*3 10.7 C 0 km/h
717 18-03-2010 23:26:04 10.7 C 3.93 g/m*3 10.7 C 0 km/h
718 18-03-2010 23:38:04 10.5 C 3.98 g/m*3 10.5 C 0 km/h
719 18-03-2010 23:50:04 10.4 C 3.86 g/m*3 10.4 C 0 km/h
720 19-03-2010 00:02:04 10 C 4.04 g/m*3 10 C 0 km/h
721 19-03-2010 00:14:04 9.8 C 4.08 g/m*3 9.8 C 0 km/h
722 19-03-2010 00:26:04 9.8 C 4.08 g/m*3 9.8 C 0 km/h
723 19-03-2010 00:38:04 9.9 C 4.01 g/m*3 9.9 C 0 km/h
724 19-03-2010 00:50:04 10.1 C 3.88 g/m*3 10.1 C 0 km/h
725 19-03-2010 01:02:04 10.8 C 3.56 g/m*3 10.8 C 0 km/h
Sensor: Nr:Datum:Temp:Abs-Feuchte:Windchill:Wind:
Aussen-T/F 726 19-03-2010 01:14:04 11.4 C 3.39 g/m*3 11.4 C 0 km/h
727 19-03-2010 01:26:04 11.5 C 3.31 g/m*3 11.5 C 0 km/h
728 19-03-2010 01:38:04 11.4 C 3.28 g/m*3 11.4 C 0 km/h
729 19-03-2010 01:50:05 11.4 C 3.28 g/m*3 11.4 C 0 km/h
730 19-03-2010 02:02:05 11.4 C 3.28 g/m*3 11.4 C 0 km/h
731 19-03-2010 02:14:05 11.5 C 3.31 g/m*3 11.5 C 0 km/h
732 19-03-2010 02:26:05 11.4 C 3.39 g/m*3 11.4 C 0 km/h
733 19-03-2010 02:38:05 11.6 C 3.33 g/m*3 11.6 C 0 km/h
734 19-03-2010 02:50:05 11.6 C 3.33 g/m*3 11.6 C 0 km/h
735 19-03-2010 03:02:05 11.6 C 3.33 g/m*3 11.6 C 0 km/h
736 19-03-2010 03:14:05 12 C 3.2 g/m*3 12 C 0 km/h
737 19-03-2010 03:26:05 12 C 3.2 g/m*3 12 C 0 km/h
738 19-03-2010 03:38:05 12.1 C 3.22 g/m*3 12.1 C 0 km/h
739 19-03-2010 03:50:05 12.1 C 3.22 g/m*3 12.1 C 0 km/h
740 19-03-2010 04:02:05 12.2 C 3.24 g/m*3 12.2 C 0 km/h
741 19-03-2010 04:14:05 12.1 C 3.22 g/m*3 12.1 C 0 km/h
742 19-03-2010 04:26:05 11.9 C 3.28 g/m*3 11.9 C 0 km/h
743 19-03-2010 04:38:05 11.8 C 3.37 g/m*3 11.8 C 0 km/h
744 19-03-2010 04:50:05 11.6 C 3.43 g/m*3 11.6 C 0 km/h
745 19-03-2010 05:02:05 11.4 C 3.49 g/m*3 11.4 C 0 km/h
746 19-03-2010 05:14:05 11.3 C 3.57 g/m*3 11.3 C 0 km/h
747 19-03-2010 05:26:05 11.3 C 3.57 g/m*3 11.3 C 0 km/h
748 19-03-2010 05:38:05 11.3 C 3.57 g/m*3 11.3 C 0 km/h
749 19-03-2010 05:50:06 11.6 C 3.64 g/m*3 11.6 C 0 km/h
750 19-03-2010 06:02:06 11.5 C 3.62 g/m*3 11.5 C 0 km/h
Sensor: Nr:Datum:Temp:Abs-Feuchte:Windchill:Wind:
Aussen-T/F 751 19-03-2010 06:14:06 11.5 C 3.62 g/m*3 11.5 C 0 km/h
752 19-03-2010 06:26:06 11.5 C 3.62 g/m*3 11.5 C 0 km/h
753 19-03-2010 06:38:06 11.5 C 3.72 g/m*3 11.5 C 0 km/h
754 19-03-2010 06:50:02 11.4 C 3.7 g/m*3 11.4 C 0 km/h
755 19-03-2010 07:02:02 11.4 C 3.9 g/m*3 11.4 C 0 km/h
756 19-03-2010 07:14:02 11.8 C 4 g/m*3 11.8 C 0 km/h
757 19-03-2010 07:26:02 12.3 C 4.02 g/m*3 12.3 C 0 km/h
758 19-03-2010 07:38:01 12.4 C 4.04 g/m*3 12.4 C 0 km/h
759 19-03-2010 07:50:02 12.4 C 4.04 g/m*3 12.4 C 0 km/h
760 19-03-2010 08:02:02 12.3 C 4.13 g/m*3 12.3 C 0 km/h
761 19-03-2010 08:14:02 12.6 C 4.43 g/m*3 12.6 C 0 km/h
762 19-03-2010 08:26:02 12.9 C 4.62 g/m*3 12.9 C 0 km/h
763 19-03-2010 08:38:02 13.1 C 4.56 g/m*3 13.1 C 0 km/h
764 19-03-2010 08:50:02 13.3 C 4.74 g/m*3 13.3 C 0 km/h
765 19-03-2010 09:02:01 13.4 C 4.77 g/m*3 13.4 C 0 km/h
766 19-03-2010 09:14:01 13.5 C 4.8 g/m*3 13.5 C 0 km/h
767 19-03-2010 09:26:01 13.5 C 4.91 g/m*3 13.5 C 0 km/h
768 19-03-2010 09:38:02 13.6 C 4.94 g/m*3 13.6 C 0 km/h
769 19-03-2010 09:50:02 13.8 C 5 g/m*3 13.8 C 0 km/h
770 19-03-2010 10:02:01 14.1 C 5.1 g/m*3 14.1 C 0 km/h
771 19-03-2010 10:14:01 14.4 C 5.07 g/m*3 14.4 C 0 km/h
772 19-03-2010 10:26:02 14.9 C 5.23 g/m*3 14.9 C 0 km/h
773 19-03-2010 10:38:02 15.2 C 5.19 g/m*3 15.2 C 0 km/h
774 19-03-2010 10:50:02 15.5 C 5.16 g/m*3 15.5 C 0 km/h
775 19-03-2010 11:02:01 15.8 C 5.25 g/m*3 15.8 C 0 km/h
Sensor: Nr:Datum:Temp:Abs-Feuchte:Windchill:Wind:
Aussen-T/F 776 19-03-2010 11:14:01 16.2 C 5.24 g/m*3 16.2 C 0 km/h
777 19-03-2010 11:26:02 16.3 C 5.27 g/m*3 16.3 C 0 km/h
778 19-03-2010 11:38:01 16 C 5.31 g/m*3 16 C 0 km/h
779 19-03-2010 11:50:02 16.5 C 5.48 g/m*3 16.5 C 0 km/h
780 19-03-2010 12:02:01 17 C 5.35 g/m*3 17 C 0 km/h
781 19-03-2010 12:14:01 18.1 C 5.41 g/m*3 18.1 C 0 km/h
782 19-03-2010 12:26:02 18.6 C 5.57 g/m*3 18.6 C 0 km/h
783 19-03-2010 12:38:01 19 C 5.38 g/m*3 19 C 0 km/h
784 19-03-2010 12:50:02 18.9 C 5.35 g/m*3 18.9 C 0 km/h
785 19-03-2010 13:02:02 18.3 C 5.47 g/m*3 18.3 C 0 km/h
786 19-03-2010 13:14:02 18.7 C 5.44 g/m*3 18.7 C 0 km/h
787 19-03-2010 13:26:02 18.7 C 5.28 g/m*3 18.7 C 0 km/h
788 19-03-2010 13:38:02 19.3 C 5.14 g/m*3 19.3 C 0 km/h
789 19-03-2010 13:50:02 19.4 C 5.17 g/m*3 19.4 C 0 km/h
790 19-03-2010 14:02:01 20 C 5.18 g/m*3 20 C 0 km/h
791 19-03-2010 14:14:01 19.8 C 5.12 g/m*3 19.8 C 0 km/h
792 19-03-2010 14:26:02 20.3 C 5.1 g/m*3 20.3 C 0 km/h
793 19-03-2010 14:38:01 20.6 C 4.83 g/m*3 20.6 C 0 km/h
794 19-03-2010 14:50:02 20.7 C 4.86 g/m*3 20.7 C 0 km/h
795 19-03-2010 15:02:01 20.6 C 4.65 g/m*3 20.6 C 0 km/h
796 19-03-2010 15:14:01 21 C 4.58 g/m*3 21 C 0 km/h
797 19-03-2010 15:26:01 21.2 C 4.63 g/m*3 21.2 C 0 km/h
798 19-03-2010 15:38:02 20.6 C 4.65 g/m*3 20.6 C 0 km/h
799 19-03-2010 15:50:02 20.8 C 4.71 g/m*3 20.8 C 0 km/h
800 19-03-2010 16:02:01 20.7 C 4.68 g/m*3 20.7 C 0 km/h
Sensor: Nr:Datum:Temp:Abs-Feuchte:Windchill:Wind:
Aussen-T/F 801 19-03-2010 16:14:01 20.8 C 4.89 g/m*3 20.8 C 0 km/h
802 19-03-2010 16:26:02 20 C 4.84 g/m*3 20 C 0 km/h
803 19-03-2010 16:38:02 20 C 4.84 g/m*3 20 C 0 km/h
804 19-03-2010 16:50:01 19.7 C 5.09 g/m*3 19.7 C 0 km/h
805 19-03-2010 17:02:02 19.4 C 5.17 g/m*3 19.4 C 0 km/h
806 19-03-2010 17:14:02 19.1 C 5.08 g/m*3 19.1 C 0 km/h
807 19-03-2010 17:26:01 18.8 C 5.15 g/m*3 18.8 C 0 km/h
808 19-03-2010 17:38:01 18.6 C 5.09 g/m*3 18.6 C 0 km/h
809 19-03-2010 17:50:01 18.3 C 5.32 g/m*3 18.3 C 0 km/h
810 19-03-2010 18:02:02 18.1 C 5.41 g/m*3 18.1 C 0 km/h
811 19-03-2010 18:14:02 17.9 C 5.5 g/m*3 17.9 C 0 km/h
812 19-03-2010 18:26:01 17.7 C 5.43 g/m*3 17.7 C 0 km/h
813 19-03-2010 18:38:02 17.3 C 5.45 g/m*3 17.3 C 0 km/h
814 19-03-2010 18:50:02 16.8 C 5.58 g/m*3 16.8 C 0 km/h
815 19-03-2010 19:02:02 16.4 C 5.58 g/m*3 16.4 C 0 km/h
816 19-03-2010 19:14:02 16.4 C 5.58 g/m*3 16.4 C 0 km/h
817 19-03-2010 19:26:01 15.9 C 5.69 g/m*3 15.9 C 0 km/h
818 19-03-2010 19:38:02 15.7 C 5.62 g/m*3 15.7 C 0 km/h
819 19-03-2010 19:50:02 15.7 C 5.62 g/m*3 15.7 C 0 km/h
820 19-03-2010 20:02:02 15.7 C 5.49 g/m*3 15.7 C 0 km/h
821 19-03-2010 20:14:02 15.6 C 5.59 g/m*3 15.6 C 0 km/h
822 19-03-2010 20:26:01 15.5 C 5.42 g/m*3 15.5 C 0 km/h
823 19-03-2010 20:38:02 15.6 C 5.45 g/m*3 15.6 C 0 km/h
824 19-03-2010 20:50:02 15.5 C 5.42 g/m*3 15.5 C 0 km/h
825 19-03-2010 21:02:02 15.4 C 5.39 g/m*3 15.4 C 0 km/h
Sensor: Nr:Datum:Temp:Abs-Feuchte:Windchill:Wind:
Aussen-T/F 826 19-03-2010 21:14:02 15.5 C 5.55 g/m*3 15.5 C 0 km/h
827 19-03-2010 21:26:02 15.4 C 5.52 g/m*3 15.4 C 0 km/h
828 19-03-2010 21:38:02 15.4 C 5.52 g/m*3 15.4 C 0 km/h
829 19-03-2010 21:50:02 15.3 C 5.48 g/m*3 15.3 C 0 km/h
830 19-03-2010 22:02:02 15.2 C 5.58 g/m*3 15.2 C 0 km/h
831 19-03-2010 22:14:02 15.2 C 5.58 g/m*3 15.2 C 0 km/h
832 19-03-2010 22:26:02 15.1 C 5.68 g/m*3 15.1 C 0 km/h
833 19-03-2010 22:38:02 15 C 5.77 g/m*3 15 C 0 km/h
834 19-03-2010 22:50:02 14.9 C 5.74 g/m*3 14.9 C 0 km/h
835 19-03-2010 23:02:01 14.7 C 5.79 g/m*3 14.7 C 0 km/h
836 19-03-2010 23:14:01 14.7 C 5.79 g/m*3 14.7 C 0 km/h
837 19-03-2010 23:26:02 14.6 C 5.76 g/m*3 14.6 C 0 km/h
838 19-03-2010 23:38:02 14.5 C 5.85 g/m*3 14.5 C 0 km/h
839 19-03-2010 23:51:04 14.5 C 5.72 g/m*3 14.5 C 0 km/h
840 20-03-2010 00:03:04 14.4 C 5.93 g/m*3 14.4 C 0 km/h
841 20-03-2010 00:15:04 14.2 C 5.86 g/m*3 14.2 C 0 km/h
842 20-03-2010 00:27:04 14.1 C 5.95 g/m*3 14.1 C 0 km/h
843 20-03-2010 00:39:04 14.1 C 5.83 g/m*3 14.1 C 0 km/h
844 20-03-2010 00:51:04 14.1 C 5.83 g/m*3 14.1 C 0 km/h
845 20-03-2010 01:03:04 14.1 C 5.83 g/m*3 14.1 C 0 km/h
846 20-03-2010 01:15:04 14.1 C 5.95 g/m*3 14.1 C 0 km/h
847 20-03-2010 01:27:04 13.9 C 5.99 g/m*3 13.9 C 0 km/h
848 20-03-2010 01:39:04 13.9 C 5.87 g/m*3 13.9 C 0 km/h
849 20-03-2010 01:51:04 14.1 C 5.58 g/m*3 14.1 C 0 km/h
850 20-03-2010 02:03:04 14.7 C 5.41 g/m*3 14.7 C 0 km/h
Sensor: Nr:Datum:Temp:Abs-Feuchte:Windchill:Wind:
Aussen-T/F 851 20-03-2010 02:15:04 14.7 C 5.67 g/m*3 14.7 C 0 km/h
852 20-03-2010 02:27:04 14.4 C 6.43 g/m*3 14.4 C 0 km/h
853 20-03-2010 02:39:04 13.8 C 7.03 g/m*3 13.8 C 0 km/h
854 20-03-2010 02:51:04 13.5 C 7.49 g/m*3 13.5 C 0 km/h
855 20-03-2010 03:03:05 13 C 7.83 g/m*3 13 C 0 km/h
856 20-03-2010 03:15:05 12.5 C 8.14 g/m*3 12.5 C 0 km/h
857 20-03-2010 03:27:05 12.1 C 8.26 g/m*3 12.1 C 0 km/h
858 20-03-2010 03:39:05 12.2 C 8.52 g/m*3 12.2 C 0 km/h
859 20-03-2010 03:51:05 12.1 C 8.47 g/m*3 12.1 C 0 km/h
860 20-03-2010 04:03:05 12 C 8.63 g/m*3 12 C 0 km/h
861 20-03-2010 04:15:05 12.2 C 8.85 g/m*3 12.2 C 0 km/h
862 20-03-2010 04:27:05 12 C 8.85 g/m*3 12 C 0 km/h
863 20-03-2010 04:39:05 12.1 C 9.01 g/m*3 12.1 C 0 km/h
864 20-03-2010 04:51:05 12.1 C 9.12 g/m*3 12.1 C 0 km/h
865 20-03-2010 05:03:05 12.1 C 9.12 g/m*3 12.1 C 0 km/h
866 20-03-2010 05:15:05 12.4 C 9.4 g/m*3 12.4 C 0 km/h
867 20-03-2010 05:27:05 12.7 C 9.46 g/m*3 12.7 C 0 km/h
868 20-03-2010 05:39:05 12.6 C 9.29 g/m*3 12.6 C 0 km/h
869 20-03-2010 05:51:05 12.7 C 9.35 g/m*3 12.7 C 0 km/h
870 20-03-2010 06:03:06 12.7 C 9.24 g/m*3 12.7 C 0 km/h
871 20-03-2010 06:15:06 13.1 C 9.24 g/m*3 13.1 C 0 km/h
872 20-03-2010 06:27:06 13.2 C 9.19 g/m*3 13.2 C 0 km/h
873 20-03-2010 06:39:06 13.2 C 9.07 g/m*3 13.2 C 0 km/h
874 20-03-2010 06:51:06 13.2 C 9.19 g/m*3 13.2 C 0 km/h
875 20-03-2010 07:03:06 13.3 C 9.13 g/m*3 13.3 C 0 km/h
Sensor: Nr:Datum:Temp:Abs-Feuchte:Windchill:Wind:
Aussen-T/F 876 20-03-2010 07:15:06 13.4 C 9.18 g/m*3 13.4 C 0 km/h
877 20-03-2010 07:27:06 13.4 C 9.18 g/m*3 13.4 C 0 km/h
878 20-03-2010 07:39:06 13.6 C 9.18 g/m*3 13.6 C 0 km/h
879 20-03-2010 07:51:06 13.9 C 9.23 g/m*3 13.9 C 0 km/h
880 20-03-2010 08:03:06 14 C 9.05 g/m*3 14 C 0 km/h
881 20-03-2010 08:15:06 14.2 C 9.04 g/m*3 14.2 C 0 km/h
882 20-03-2010 08:27:06 14.2 C 9.16 g/m*3 14.2 C 0 km/h
883 20-03-2010 08:39:03 14.3 C 9.09 g/m*3 14.3 C 0 km/h
884 20-03-2010 08:51:02 14.4 C 9.15 g/m*3 14.4 C 0 km/h
885 20-03-2010 09:03:03 14.6 C 9.13 g/m*3 14.6 C 0 km/h
886 20-03-2010 09:15:02 14.8 C 9.12 g/m*3 14.8 C 0 km/h
887 20-03-2010 09:27:02 14.6 C 9.39 g/m*3 14.6 C 0 km/h
888 20-03-2010 09:39:02 14.2 C 9.52 g/m*3 14.2 C 0 km/h
889 20-03-2010 09:51:01 15 C 9.36 g/m*3 15 C 0 km/h
890 20-03-2010 10:03:02 15.4 C 9.2 g/m*3 15.4 C 0 km/h
891 20-03-2010 10:15:01 15.8 C 9.29 g/m*3 15.8 C 0 km/h
892 20-03-2010 10:27:01 16.1 C 9.05 g/m*3 16.1 C 0 km/h
893 20-03-2010 10:39:02 16.1 C 8.91 g/m*3 16.1 C 0 km/h
894 20-03-2010 10:51:01 15.8 C 9.02 g/m*3 15.8 C 0 km/h
895 20-03-2010 11:03:02 15.1 C 9.29 g/m*3 15.1 C 0 km/h
896 20-03-2010 11:15:01 15.2 C 9.35 g/m*3 15.2 C 0 km/h
897 20-03-2010 11:27:01 15.6 C 9.31 g/m*3 15.6 C 0 km/h
898 20-03-2010 11:39:02 15.5 C 9.25 g/m*3 15.5 C 0 km/h
899 20-03-2010 11:51:02 15.1 C 9.16 g/m*3 15.1 C 0 km/h
900 20-03-2010 12:03:02 15.1 C 9.29 g/m*3 15.1 C 0 km/h
Sensor: Nr:Datum:Temp:Abs-Feuchte:Windchill:Wind:
Aussen-T/F 901 20-03-2010 12:15:01 15.4 C 9.33 g/m*3 15.4 C 0 km/h
902 20-03-2010 12:27:01 15.7 C 9.1 g/m*3 15.7 C 0 km/h
903 20-03-2010 12:39:02 15.4 C 8.93 g/m*3 15.4 C 0 km/h
904 20-03-2010 12:51:01 15.4 C 8.93 g/m*3 15.4 C 0 km/h
905 20-03-2010 13:03:02 16.2 C 8.83 g/m*3 16.2 C 0 km/h
906 20-03-2010 13:15:02 15.9 C 8.67 g/m*3 15.9 C 0 km/h
907 20-03-2010 13:27:02 15.9 C 8.94 g/m*3 15.9 C 0 km/h
908 20-03-2010 13:39:02 16 C 8.86 g/m*3 16 C 0 km/h
909 20-03-2010 13:51:01 15.6 C 9.04 g/m*3 15.6 C 0 km/h
910 20-03-2010 14:03:02 15.1 C 9.03 g/m*3 15.1 C 0 km/h
911 20-03-2010 14:15:02 15 C 8.98 g/m*3 15 C 0 km/h
912 20-03-2010 14:27:02 15.5 C 8.99 g/m*3 15.5 C 0 km/h
913 20-03-2010 14:39:02 15.6 C 8.78 g/m*3 15.6 C 0 km/h
914 20-03-2010 14:51:01 15.8 C 8.48 g/m*3 15.8 C 0 km/h
915 20-03-2010 15:03:02 16.7 C 8.38 g/m*3 16.7 C 0 km/h
916 20-03-2010 15:15:02 17 C 8.1 g/m*3 17 C 0 km/h
917 20-03-2010 15:27:02 16.8 C 8.15 g/m*3 16.8 C 0 km/h
918 20-03-2010 15:39:01 17 C 8.25 g/m*3 17 C 0 km/h
919 20-03-2010 15:51:02 16.8 C 8.15 g/m*3 16.8 C 0 km/h
920 20-03-2010 16:03:01 16.5 C 8 g/m*3 16.5 C 0 km/h
921 20-03-2010 16:15:02 16.4 C 8.1 g/m*3 16.4 C 0 km/h
922 20-03-2010 16:27:02 16.1 C 8.09 g/m*3 16.1 C 0 km/h
923 20-03-2010 16:39:01 16 C 8.17 g/m*3 16 C 0 km/h
924 20-03-2010 16:51:03 15.9 C 8.26 g/m*3 15.9 C 0 km/h
925 20-03-2010 17:03:02 15.7 C 8.16 g/m*3 15.7 C 0 km/h
Sensor: Nr:Datum:Temp:Abs-Feuchte:Windchill:Wind:
Aussen-T/F 926 20-03-2010 17:15:02 15.1 C 8.39 g/m*3 15.1 C 0 km/h
927 20-03-2010 17:27:02 14.4 C 8.78 g/m*3 14.4 C 0 km/h
928 20-03-2010 17:39:02 14.6 C 8.63 g/m*3 14.6 C 0 km/h
929 20-03-2010 17:51:02 14.7 C 8.56 g/m*3 14.7 C 0 km/h
930 20-03-2010 18:03:01 14.6 C 8.38 g/m*3 14.6 C 0 km/h
931 20-03-2010 18:15:02 14.6 C 8.38 g/m*3 14.6 C 0 km/h
932 20-03-2010 18:27:02 14.5 C 8.33 g/m*3 14.5 C 0 km/h
933 20-03-2010 18:39:02 14.5 C 8.33 g/m*3 14.5 C 0 km/h
934 20-03-2010 18:51:02 14.4 C 8.41 g/m*3 14.4 C 0 km/h
935 20-03-2010 19:03:01 14.3 C 8.48 g/m*3 14.3 C 0 km/h
936 20-03-2010 19:15:01 14.2 C 8.43 g/m*3 14.2 C 0 km/h
937 20-03-2010 19:27:01 14.3 C 8.48 g/m*3 14.3 C 0 km/h
938 20-03-2010 19:39:02 14.4 C 8.53 g/m*3 14.4 C 0 km/h
939 20-03-2010 19:51:02 14.5 C 8.46 g/m*3 14.5 C 0 km/h
940 20-03-2010 20:03:02 14.6 C 8.38 g/m*3 14.6 C 0 km/h
941 20-03-2010 20:15:02 14.5 C 8.46 g/m*3 14.5 C 0 km/h
942 20-03-2010 20:27:02 14.6 C 8.38 g/m*3 14.6 C 0 km/h
943 20-03-2010 20:39:02 14.6 C 8.38 g/m*3 14.6 C 0 km/h
944 20-03-2010 20:51:02 14.5 C 8.21 g/m*3 14.5 C 0 km/h
945 20-03-2010 21:03:02 14.6 C 8.26 g/m*3 14.6 C 0 km/h
946 20-03-2010 21:15:02 14.5 C 8.21 g/m*3 14.5 C 0 km/h
947 20-03-2010 21:27:02 14.4 C 8.16 g/m*3 14.4 C 0 km/h
948 20-03-2010 21:39:02 14.2 C 8.18 g/m*3 14.2 C 0 km/h
949 20-03-2010 21:51:01 14.2 C 8.18 g/m*3 14.2 C 0 km/h
950 20-03-2010 22:03:02 14.2 C 8.18 g/m*3 14.2 C 0 km/h
Sensor: Nr:Datum:Temp:Abs-Feuchte:Windchill:Wind:
Aussen-T/F 951 20-03-2010 22:16:01 14.3 C 8.11 g/m*3 14.3 C 0 km/h
952 20-03-2010 22:28:01 13.9 C 8.39 g/m*3 13.9 C 0 km/h
953 20-03-2010 22:40:01 14.1 C 8.25 g/m*3 14.1 C 0 km/h
954 20-03-2010 22:52:01 13.7 C 8.53 g/m*3 13.7 C 0 km/h
955 20-03-2010 23:04:02 13 C 8.85 g/m*3 13 C 0 km/h
956 20-03-2010 23:16:02 12.6 C 9.07 g/m*3 12.6 C 0 km/h
957 20-03-2010 23:28:02 12.5 C 9.24 g/m*3 12.5 C 0 km/h
958 20-03-2010 23:40:02 12.4 C 9.29 g/m*3 12.4 C 0 km/h
959 20-03-2010 23:52:02 12.3 C 9.34 g/m*3 12.3 C 0 km/h
960 21-03-2010 00:04:02 12.1 C 9.44 g/m*3 12.1 C 0 km/h
961 21-03-2010 00:16:02 12 C 9.38 g/m*3 12 C 0 km/h
962 21-03-2010 00:28:02 12.1 C 9.54 g/m*3 12.1 C 0 km/h
963 21-03-2010 00:40:02 12.1 C 9.54 g/m*3 12.1 C 0 km/h
964 21-03-2010 00:52:02 12.1 C 9.54 g/m*3 12.1 C 0 km/h
965 21-03-2010 01:04:02 12 C 9.59 g/m*3 12 C 0 km/h
966 21-03-2010 01:16:02 12 C 9.59 g/m*3 12 C 0 km/h
967 21-03-2010 01:28:02 11.9 C 9.64 g/m*3 11.9 C 0 km/h
968 21-03-2010 01:40:02 11.9 C 9.64 g/m*3 11.9 C 0 km/h
969 21-03-2010 01:52:02 11.8 C 9.68 g/m*3 11.8 C 0 km/h
970 21-03-2010 02:04:02 11.8 C 9.68 g/m*3 11.8 C 0 km/h
971 21-03-2010 02:16:02 11.8 C 9.79 g/m*3 11.8 C 0 km/h
972 21-03-2010 02:28:02 11.7 C 9.73 g/m*3 11.7 C 0 km/h
973 21-03-2010 02:40:02 11.7 C 9.73 g/m*3 11.7 C 0 km/h
974 21-03-2010 02:52:02 11.5 C 9.61 g/m*3 11.5 C 0 km/h
975 21-03-2010 03:04:02 11.5 C 9.61 g/m*3 11.5 C 0 km/h
Sensor: Nr:Datum:Temp:Abs-Feuchte:Windchill:Wind:
Aussen-T/F 976 21-03-2010 03:16:02 11.4 C 9.55 g/m*3 11.4 C 0 km/h
977 21-03-2010 03:28:02 11.4 C 9.55 g/m*3 11.4 C 0 km/h
978 21-03-2010 03:40:03 11.5 C 9.71 g/m*3 11.5 C 0 km/h
979 21-03-2010 03:52:03 11.6 C 9.77 g/m*3 11.6 C 0 km/h
980 21-03-2010 04:04:03 11.6 C 9.77 g/m*3 11.6 C 0 km/h
981 21-03-2010 04:16:03 11.5 C 9.71 g/m*3 11.5 C 0 km/h
982 21-03-2010 04:28:03 11.6 C 9.77 g/m*3 11.6 C 0 km/h
983 21-03-2010 04:40:03 11.6 C 9.87 g/m*3 11.6 C 0 km/h
984 21-03-2010 04:52:03 11.6 C 9.87 g/m*3 11.6 C 0 km/h
985 21-03-2010 05:04:03 11.5 C 9.81 g/m*3 11.5 C 0 km/h
986 21-03-2010 05:16:03 11.4 C 9.75 g/m*3 11.4 C 0 km/h
987 21-03-2010 05:28:03 11.3 C 9.69 g/m*3 11.3 C 0 km/h
988 21-03-2010 05:40:03 11.3 C 9.69 g/m*3 11.3 C 0 km/h
989 21-03-2010 05:52:03 11.4 C 9.75 g/m*3 11.4 C 0 km/h
990 21-03-2010 06:04:03 11.4 C 9.65 g/m*3 11.4 C 0 km/h
991 21-03-2010 06:16:03 11.4 C 9.65 g/m*3 11.4 C 0 km/h
992 21-03-2010 06:28:03 11.4 C 9.55 g/m*3 11.4 C 0 km/h
993 21-03-2010 06:40:03 11.3 C 9.38 g/m*3 11.3 C 0 km/h
994 21-03-2010 06:52:03 11.3 C 9.38 g/m*3 11.3 C 0 km/h
995 21-03-2010 07:04:03 11.3 C 9.38 g/m*3 11.3 C 0 km/h
996 21-03-2010 07:16:03 11.3 C 9.38 g/m*3 11.3 C 0 km/h
997 21-03-2010 07:28:03 11.2 C 9.33 g/m*3 11.2 C 0 km/h
998 21-03-2010 07:40:03 11.3 C 9.49 g/m*3 11.3 C 0 km/h
999 21-03-2010 07:52:03 11.2 C 9.43 g/m*3 11.2 C 0 km/h
1000 21-03-2010 08:04:04 11.5 C 9.61 g/m*3 11.5 C 0 km/h
Sensor: Nr:Datum:Temp:Abs-Feuchte:Windchill:Wind:
Aussen-T/F 1001 21-03-2010 08:16:04 11.9 C 9.96 g/m*3 11.9 C 0 km/h
1002 21-03-2010 08:28:04 12.2 C 9.93 g/m*3 12.2 C 0 km/h
1003 21-03-2010 08:40:01 12.5 C 9.78 g/m*3 12.5 C 0 km/h
1004 21-03-2010 08:52:02 12.4 C 9.4 g/m*3 12.4 C 0 km/h
1005 21-03-2010 09:04:02 12.9 C 9.35 g/m*3 12.9 C 0 km/h
1006 21-03-2010 09:16:02 13.5 C 8.89 g/m*3 13.5 C 0 km/h
1007 21-03-2010 09:28:02 13.5 C 8.66 g/m*3 13.5 C 0 km/h
1008 21-03-2010 09:40:01 12.7 C 8.68 g/m*3 12.7 C 0 km/h
1009 21-03-2010 09:52:02 12.1 C 8.58 g/m*3 12.1 C 0 km/h
1010 21-03-2010 10:04:01 12.4 C 8.85 g/m*3 12.4 C 0 km/h
1011 21-03-2010 10:16:02 13 C 8.85 g/m*3 13 C 0 km/h
1012 21-03-2010 10:28:03 13.2 C 8.15 g/m*3 13.2 C 0 km/h
1013 21-03-2010 10:40:01 12.8 C 7.84 g/m*3 12.8 C 0 km/h
1014 21-03-2010 10:52:02 13.2 C 7.81 g/m*3 13.2 C 0 km/h
1015 21-03-2010 11:04:02 13.5 C 7.95 g/m*3 13.5 C 0 km/h
1016 21-03-2010 11:16:02 13.5 C 7.84 g/m*3 13.5 C 0 km/h
1017 21-03-2010 11:28:02 13.6 C 7.89 g/m*3 13.6 C 0 km/h
1018 21-03-2010 11:40:03 12.5 C 8.14 g/m*3 12.5 C 0 km/h
1019 21-03-2010 11:52:02 12.1 C 8.69 g/m*3 12.1 C 0 km/h
1020 21-03-2010 12:04:02 11.9 C 8.9 g/m*3 11.9 C 0 km/h
1021 21-03-2010 12:16:02 11.9 C 8.9 g/m*3 11.9 C 0 km/h
1022 21-03-2010 12:28:02 12.4 C 9.18 g/m*3 12.4 C 0 km/h
1023 21-03-2010 12:40:03 13.6 C 8.94 g/m*3 13.6 C 0 km/h
1024 21-03-2010 12:52:02 13.7 C 8.29 g/m*3 13.7 C 0 km/h
1025 21-03-2010 13:04:02 13.2 C 8.04 g/m*3 13.2 C 0 km/h
Sensor: Nr:Datum:Temp:Abs-Feuchte:Windchill:Wind:
Aussen-T/F 1026 21-03-2010 13:16:02 13 C 8.05 g/m*3 13 C 0 km/h
1027 21-03-2010 13:28:02 12.6 C 7.97 g/m*3 12.6 C 0 km/h
1028 21-03-2010 13:40:02 12.6 C 7.97 g/m*3 12.6 C 0 km/h
1029 21-03-2010 13:52:01 12.4 C 7.87 g/m*3 12.4 C 0 km/h
1030 21-03-2010 14:04:02 12.4 C 7.98 g/m*3 12.4 C 0 km/h
1031 21-03-2010 14:16:01 12.2 C 7.99 g/m*3 12.2 C 0 km/h
1032 21-03-2010 14:28:01 11.8 C 8.42 g/m*3 11.8 C 0 km/h
1033 21-03-2010 14:40:02 11.4 C 8.42 g/m*3 11.4 C 0 km/h
1034 21-03-2010 14:52:02 11.5 C 8.57 g/m*3 11.5 C 0 km/h
1035 21-03-2010 15:04:02 11.5 C 8.57 g/m*3 11.5 C 0 km/h
1036 21-03-2010 15:16:01 11.5 C 8.57 g/m*3 11.5 C 0 km/h
1037 21-03-2010 15:28:01 11.5 C 8.57 g/m*3 11.5 C 0 km/h
1038 21-03-2010 15:40:02 11.3 C 8.57 g/m*3 11.3 C 0 km/h
1039 21-03-2010 15:52:03 11.1 C 8.46 g/m*3 11.1 C 0 km/h
1040 21-03-2010 16:04:03 11.1 C 8.56 g/m*3 11.1 C 0 km/h
1041 21-03-2010 16:16:02 10.8 C 8.6 g/m*3 10.8 C 0 km/h
1042 21-03-2010 16:28:02 10.7 C 8.74 g/m*3 10.7 C 0 km/h
1043 21-03-2010 16:40:02 10.5 C 8.63 g/m*3 10.5 C 0 km/h
1044 21-03-2010 16:52:02 10.5 C 8.53 g/m*3 10.5 C 0 km/h
1045 21-03-2010 17:04:01 10.5 C 8.53 g/m*3 10.5 C 0 km/h
1046 21-03-2010 17:16:02 10.7 C 8.45 g/m*3 10.7 C 0 km/h
1047 21-03-2010 17:28:02 10.7 C 8.45 g/m*3 10.7 C 0 km/h
1048 21-03-2010 17:40:02 10.7 C 8.35 g/m*3 10.7 C 0 km/h
1049 21-03-2010 17:52:02 10.7 C 7.96 g/m*3 10.7 C 0 km/h
1050 21-03-2010 18:04:02 10.1 C 7.66 g/m*3 10.1 C 0 km/h
Sensor: Nr:Datum:Temp:Abs-Feuchte:Windchill:Wind:
Aussen-T/F 1051 21-03-2010 18:16:02 9.8 C 7.79 g/m*3 9.8 C 0 km/h
1052 21-03-2010 18:28:02 9.5 C 7.74 g/m*3 9.5 C 0 km/h
1053 21-03-2010 18:40:03 9.4 C 7.69 g/m*3 9.4 C 0 km/h
1054 21-03-2010 18:52:02 9.5 C 7.74 g/m*3 9.5 C 0 km/h
1055 21-03-2010 19:04:02 9.6 C 7.79 g/m*3 9.6 C 0 km/h
1056 21-03-2010 19:16:01 9.6 C 7.79 g/m*3 9.6 C 0 km/h
1057 21-03-2010 19:28:01 9.5 C 7.74 g/m*3 9.5 C 0 km/h
1058 21-03-2010 19:40:02 9.3 C 7.64 g/m*3 9.3 C 0 km/h
1059 21-03-2010 19:52:02 9.3 C 7.73 g/m*3 9.3 C 0 km/h
1060 21-03-2010 20:04:02 9.3 C 7.73 g/m*3 9.3 C 0 km/h
1061 21-03-2010 20:16:02 9.4 C 7.78 g/m*3 9.4 C 0 km/h
1062 21-03-2010 20:28:02 9.5 C 7.92 g/m*3 9.5 C 0 km/h
1063 21-03-2010 20:40:02 9.5 C 7.92 g/m*3 9.5 C 0 km/h
1064 21-03-2010 20:52:02 9.5 C 7.83 g/m*3 9.5 C 0 km/h
1065 21-03-2010 21:04:02 9.5 C 7.83 g/m*3 9.5 C 0 km/h
1066 21-03-2010 21:16:02 9.4 C 7.78 g/m*3 9.4 C 0 km/h
1067 21-03-2010 21:28:02 9.3 C 7.46 g/m*3 9.3 C 0 km/h
1068 21-03-2010 21:40:02 9.4 C 7.15 g/m*3 9.4 C 0 km/h
1069 21-03-2010 21:52:01 9.4 C 7.05 g/m*3 9.4 C 0 km/h
1070 21-03-2010 22:05:03 9.4 C 7.05 g/m*3 9.4 C 0 km/h
1071 21-03-2010 22:17:03 9.3 C 7.1 g/m*3 9.3 C 0 km/h
1072 21-03-2010 22:29:03 9.2 C 7.14 g/m*3 9.2 C 0 km/h
1073 21-03-2010 22:41:03 9.1 C 7.19 g/m*3 9.1 C 0 km/h
1074 21-03-2010 22:53:03 9.1 C 7.19 g/m*3 9.1 C 0 km/h
1075 21-03-2010 23:05:03 8.9 C 7.27 g/m*3 8.9 C 0 km/h
Sensor: Nr:Datum:Temp:Abs-Feuchte:Windchill:Wind:
Aussen-T/F 1076 21-03-2010 23:17:03 8.8 C 7.49 g/m*3 8.8 C 0 km/h
1077 21-03-2010 23:29:03 8.6 C 7.48 g/m*3 8.6 C 0 km/h
1078 21-03-2010 23:41:03 8.5 C 7.51 g/m*3 8.5 C 0 km/h
1079 21-03-2010 23:53:04 8.5 C 7.6 g/m*3 8.5 C 0 km/h
1080 22-03-2010 00:05:04 8.5 C 7.68 g/m*3 8.5 C 0 km/h
1081 22-03-2010 00:17:04 8.5 C 7.68 g/m*3 8.5 C 0 km/h
1082 22-03-2010 00:29:04 8.4 C 7.63 g/m*3 8.4 C 0 km/h
1083 22-03-2010 00:41:04 8.3 C 7.67 g/m*3 8.3 C 0 km/h
1084 22-03-2010 00:53:04 8.3 C 7.67 g/m*3 8.3 C 0 km/h
1085 22-03-2010 01:05:04 8.3 C 7.67 g/m*3 8.3 C 0 km/h
1086 22-03-2010 01:17:04 8.2 C 7.62 g/m*3 8.2 C 0 km/h
1087 22-03-2010 01:29:04 8.2 C 7.62 g/m*3 8.2 C 0 km/h
1088 22-03-2010 01:41:04 8.3 C 7.75 g/m*3 8.3 C 0 km/h
1089 22-03-2010 01:53:04 8.3 C 7.75 g/m*3 8.3 C 0 km/h
1090 22-03-2010 02:05:04 8.4 C 7.8 g/m*3 8.4 C 0 km/h
1091 22-03-2010 02:17:04 8.2 C 7.7 g/m*3 8.2 C 0 km/h
1092 22-03-2010 02:29:04 8.2 C 7.7 g/m*3 8.2 C 0 km/h
1093 22-03-2010 02:41:04 8.3 C 7.75 g/m*3 8.3 C 0 km/h
1094 22-03-2010 02:53:04 8.4 C 7.8 g/m*3 8.4 C 0 km/h
1095 22-03-2010 03:05:04 8.4 C 7.8 g/m*3 8.4 C 0 km/h
1096 22-03-2010 03:17:04 8.4 C 7.8 g/m*3 8.4 C 0 km/h
1097 22-03-2010 03:29:04 8.4 C 7.8 g/m*3 8.4 C 0 km/h
1098 22-03-2010 03:41:04 8.4 C 7.8 g/m*3 8.4 C 0 km/h
1099 22-03-2010 03:53:04 8.4 C 7.8 g/m*3 8.4 C 0 km/h
1100 22-03-2010 04:05:05 8.4 C 7.8 g/m*3 8.4 C 0 km/h
Sensor: Nr:Datum:Temp:Abs-Feuchte:Windchill:Wind:
Aussen-T/F 1101 22-03-2010 04:17:05 8.4 C 7.8 g/m*3 8.4 C 0 km/h
1102 22-03-2010 04:29:05 8.3 C 7.75 g/m*3 8.3 C 0 km/h
1103 22-03-2010 04:41:05 8.2 C 7.7 g/m*3 8.2 C 0 km/h
1104 22-03-2010 04:53:05 8.1 C 7.66 g/m*3 8.1 C 0 km/h
1105 22-03-2010 05:05:05 8.1 C 7.66 g/m*3 8.1 C 0 km/h
1106 22-03-2010 05:17:05 8.2 C 7.7 g/m*3 8.2 C 0 km/h
1107 22-03-2010 05:29:05 8.2 C 7.7 g/m*3 8.2 C 0 km/h
1108 22-03-2010 05:41:05 8.1 C 7.66 g/m*3 8.1 C 0 km/h
1109 22-03-2010 05:53:01 8.1 C 7.66 g/m*3 8.1 C 0 km/h
1110 22-03-2010 06:05:01 8.2 C 7.7 g/m*3 8.2 C 0 km/h
1111 22-03-2010 06:17:02 8.2 C 7.7 g/m*3 8.2 C 0 km/h
1112 22-03-2010 06:29:02 8.2 C 7.7 g/m*3 8.2 C 0 km/h
1113 22-03-2010 06:41:01 8.1 C 7.66 g/m*3 8.1 C 0 km/h
1114 22-03-2010 06:53:02 8.1 C 7.66 g/m*3 8.1 C 0 km/h
1115 22-03-2010 07:05:01 8.2 C 7.7 g/m*3 8.2 C 0 km/h
1116 22-03-2010 07:17:02 8.2 C 7.7 g/m*3 8.2 C 0 km/h
1117 22-03-2010 07:29:02 8.3 C 7.84 g/m*3 8.3 C 0 km/h
1118 22-03-2010 07:41:01 8.4 C 7.89 g/m*3 8.4 C 0 km/h
1119 22-03-2010 07:53:01 8.5 C 7.94 g/m*3 8.5 C 0 km/h
1120 22-03-2010 08:05:01 8.6 C 7.99 g/m*3 8.6 C 0 km/h
1121 22-03-2010 08:17:02 8.8 C 8.09 g/m*3 8.8 C 0 km/h
1122 22-03-2010 08:29:02 8.8 C 8.01 g/m*3 8.8 C 0 km/h
1123 22-03-2010 08:41:01 8.9 C 8.06 g/m*3 8.9 C 0 km/h
1124 22-03-2010 08:53:02 8.9 C 8.06 g/m*3 8.9 C 0 km/h
1125 22-03-2010 09:05:01 8.9 C 7.97 g/m*3 8.9 C 0 km/h
Sensor: Nr:Datum:Temp:Abs-Feuchte:Windchill:Wind:
Aussen-T/F 1126 22-03-2010 09:17:02 9 C 7.93 g/m*3 9 C 0 km/h
1127 22-03-2010 09:29:02 9 C 7.93 g/m*3 9 C 0 km/h
1128 22-03-2010 09:41:02 9.2 C 7.95 g/m*3 9.2 C 0 km/h
1129 22-03-2010 09:53:02 9.3 C 8 g/m*3 9.3 C 0 km/h
1130 22-03-2010 10:05:03 9.6 C 8.06 g/m*3 9.6 C 0 km/h
1131 22-03-2010 10:17:02 10 C 8.08 g/m*3 10 C 0 km/h
1132 22-03-2010 10:29:02 9.9 C 8.03 g/m*3 9.9 C 0 km/h
1133 22-03-2010 10:41:02 9.5 C 7.65 g/m*3 9.5 C 0 km/h
1134 22-03-2010 10:53:02 9.4 C 7.69 g/m*3 9.4 C 0 km/h
1135 22-03-2010 11:05:02 9.5 C 7.92 g/m*3 9.5 C 0 km/h
1136 22-03-2010 11:17:01 9.5 C 7.92 g/m*3 9.5 C 0 km/h
1137 22-03-2010 11:29:01 9.5 C 7.83 g/m*3 9.5 C 0 km/h
1138 22-03-2010 11:41:02 9.7 C 7.74 g/m*3 9.7 C 0 km/h
1139 22-03-2010 11:53:02 10.2 C 7.8 g/m*3 10.2 C 0 km/h
1140 22-03-2010 12:05:02 10.6 C 7.81 g/m*3 10.6 C 0 km/h
1141 22-03-2010 12:17:01 10.7 C 7.76 g/m*3 10.7 C 0 km/h
1142 22-03-2010 12:29:01 11 C 7.61 g/m*3 11 C 0 km/h
1143 22-03-2010 12:41:02 11.1 C 7.45 g/m*3 11.1 C 0 km/h
1144 22-03-2010 12:53:02 11.4 C 7.39 g/m*3 11.4 C 0 km/h
1145 22-03-2010 13:05:02 11.5 C 7.23 g/m*3 11.5 C 0 km/h
1146 22-03-2010 13:17:01 12.1 C 7.18 g/m*3 12.1 C 0 km/h
1147 22-03-2010 13:29:01 12.4 C 6.66 g/m*3 12.4 C 0 km/h
1148 22-03-2010 13:41:02 12.6 C 6.42 g/m*3 12.6 C 0 km/h
1149 22-03-2010 13:53:01 12.6 C 6.31 g/m*3 12.6 C 0 km/h
1150 22-03-2010 14:05:02 13.3 C 6.47 g/m*3 13.3 C 0 km/h
Sensor: Nr:Datum:Temp:Abs-Feuchte:Windchill:Wind:
Aussen-T/F 1151 22-03-2010 14:17:02 14.2 C 6.11 g/m*3 14.2 C 0 km/h
1152 22-03-2010 14:29:02 14.2 C 5.86 g/m*3 14.2 C 0 km/h
1153 22-03-2010 14:41:02 14.5 C 5.72 g/m*3 14.5 C 0 km/h
1154 22-03-2010 14:53:01 14.6 C 5.51 g/m*3 14.6 C 0 km/h
1155 22-03-2010 15:05:02 14.2 C 5.49 g/m*3 14.2 C 0 km/h
1156 22-03-2010 15:17:02 14 C 5.43 g/m*3 14 C 0 km/h
1157 22-03-2010 15:29:02 14 C 5.31 g/m*3 14 C 0 km/h
1158 22-03-2010 15:41:01 14.6 C 5.51 g/m*3 14.6 C 0 km/h
1159 22-03-2010 15:53:02 14.9 C 5.23 g/m*3 14.9 C 0 km/h
1160 22-03-2010 16:05:01 14.4 C 5.07 g/m*3 14.4 C 0 km/h
1161 22-03-2010 16:17:02 14.3 C 5.28 g/m*3 14.3 C 0 km/h
1162 22-03-2010 16:29:02 14.5 C 5.1 g/m*3 14.5 C 0 km/h
1163 22-03-2010 16:41:01 15.2 C 5.32 g/m*3 15.2 C 0 km/h
1164 22-03-2010 16:53:03 15.2 C 5.45 g/m*3 15.2 C 0 km/h
1165 22-03-2010 17:05:02 14.9 C 5.35 g/m*3 14.9 C 0 km/h
1166 22-03-2010 17:17:02 14.2 C 5.01 g/m*3 14.2 C 0 km/h
1167 22-03-2010 17:29:02 13.9 C 4.8 g/m*3 13.9 C 0 km/h
1168 22-03-2010 17:41:02 13.4 C 4.77 g/m*3 13.4 C 0 km/h
1169 22-03-2010 17:53:02 13.2 C 4.82 g/m*3 13.2 C 0 km/h
1170 22-03-2010 18:05:01 13 C 4.88 g/m*3 13 C 0 km/h
1171 22-03-2010 18:17:02 12.9 C 5.3 g/m*3 12.9 C 0 km/h
1172 22-03-2010 18:29:02 12.4 C 5.35 g/m*3 12.4 C 0 km/h
1173 22-03-2010 18:41:02 11.8 C 5.58 g/m*3 11.8 C 0 km/h
1174 22-03-2010 18:53:02 11.3 C 5.61 g/m*3 11.3 C 0 km/h
1175 22-03-2010 19:05:01 10.5 C 5.72 g/m*3 10.5 C 0 km/h
Sensor: Nr:Datum:Temp:Abs-Feuchte:Windchill:Wind:
Aussen-T/F 1176 22-03-2010 19:17:01 10 C 5.64 g/m*3 10 C 0 km/h
1177 22-03-2010 19:29:01 9.7 C 5.72 g/m*3 9.7 C 0 km/h
1178 22-03-2010 19:41:02 9.5 C 5.83 g/m*3 9.5 C 0 km/h
1179 22-03-2010 19:53:02 9.2 C 5.8 g/m*3 9.2 C 0 km/h
1180 22-03-2010 20:05:02 9 C 5.99 g/m*3 9 C 0 km/h
1181 22-03-2010 20:17:02 8.7 C 6.14 g/m*3 8.7 C 0 km/h
1182 22-03-2010 20:29:02 8.7 C 6.23 g/m*3 8.7 C 0 km/h
1183 22-03-2010 20:41:02 8.5 C 6.15 g/m*3 8.5 C 0 km/h
1184 22-03-2010 20:53:02 8.3 C 6.07 g/m*3 8.3 C 0 km/h
1185 22-03-2010 21:05:02 8.1 C 6.07 g/m*3 8.1 C 0 km/h
1186 22-03-2010 21:17:02 7.8 C 6.12 g/m*3 7.8 C 0 km/h
1187 22-03-2010 21:29:02 7.4 C 6.04 g/m*3 7.4 C 0 km/h
1188 22-03-2010 21:41:02 7.3 C 6.08 g/m*3 7.3 C 0 km/h
1189 22-03-2010 21:53:02 7.1 C 6.08 g/m*3 7.1 C 0 km/h
1190 22-03-2010 22:05:02 6.9 C 6.08 g/m*3 6.9 C 0 km/h
1191 22-03-2010 22:17:02 6.6 C 5.96 g/m*3 6.6 C 0 km/h
1192 22-03-2010 22:29:02 6.5 C 6 g/m*3 6.5 C 0 km/h
1193 22-03-2010 22:41:02 6.2 C 5.88 g/m*3 6.2 C 0 km/h
1194 22-03-2010 22:54:02 6 C 5.88 g/m*3 6 C 0 km/h
1195 22-03-2010 23:06:02 6 C 5.95 g/m*3 6 C 0 km/h
1196 22-03-2010 23:18:03 5.7 C 5.91 g/m*3 5.7 C 0 km/h
1197 22-03-2010 23:30:03 5.6 C 5.87 g/m*3 5.6 C 0 km/h
1198 22-03-2010 23:42:03 5.6 C 5.94 g/m*3 5.6 C 0 km/h
1199 22-03-2010 23:54:03 5.4 C 5.86 g/m*3 5.4 C 0 km/h
1200 23-03-2010 00:06:03 5.2 C 5.78 g/m*3 5.2 C 0 km/h
Sensor: Nr:Datum:Temp:Abs-Feuchte:Windchill:Wind:
Aussen-T/F 1201 23-03-2010 00:18:03 5 C 5.78 g/m*3 5 C 0 km/h
1202 23-03-2010 00:30:03 5 C 5.78 g/m*3 5 C 0 km/h
1203 23-03-2010 00:42:03 4.8 C 5.83 g/m*3 4.8 C 0 km/h
1204 23-03-2010 00:54:03 4.6 C 5.76 g/m*3 4.6 C 0 km/h
1205 23-03-2010 01:06:03 4.4 C 5.68 g/m*3 4.4 C 0 km/h
1206 23-03-2010 01:18:03 4.3 C 5.64 g/m*3 4.3 C 0 km/h
1207 23-03-2010 01:30:03 4.3 C 5.71 g/m*3 4.3 C 0 km/h
1208 23-03-2010 01:42:03 4.2 C 5.67 g/m*3 4.2 C 0 km/h
1209 23-03-2010 01:54:03 4.1 C 5.63 g/m*3 4.1 C 0 km/h
1210 23-03-2010 02:06:03 4 C 5.59 g/m*3 4 C 0 km/h
1211 23-03-2010 02:18:03 3.9 C 5.62 g/m*3 3.9 C 0 km/h
1212 23-03-2010 02:30:03 3.7 C 5.55 g/m*3 3.7 C 0 km/h
1213 23-03-2010 02:42:03 3.6 C 5.57 g/m*3 3.6 C 0 km/h
1214 23-03-2010 02:54:03 3.5 C 5.53 g/m*3 3.5 C 0 km/h
1215 23-03-2010 03:06:03 3.4 C 5.56 g/m*3 3.4 C 0 km/h
1216 23-03-2010 03:18:04 3.3 C 5.52 g/m*3 3.3 C 0 km/h
1217 23-03-2010 03:30:04 3.2 C 5.48 g/m*3 3.2 C 0 km/h
1218 23-03-2010 03:42:04 3.1 C 5.45 g/m*3 3.1 C 0 km/h
1219 23-03-2010 03:54:04 2.9 C 5.43 g/m*3 2.9 C 0 km/h
1220 23-03-2010 04:06:04 2.9 C 5.43 g/m*3 2.9 C 0 km/h
1221 23-03-2010 04:18:04 2.7 C 5.3 g/m*3 2.7 C 0 km/h
1222 23-03-2010 04:30:04 2.6 C 5.27 g/m*3 2.6 C 0 km/h
1223 23-03-2010 04:42:04 2.5 C 5.29 g/m*3 2.5 C 0 km/h
1224 23-03-2010 04:54:04 2.4 C 5.25 g/m*3 2.4 C 0 km/h
1225 23-03-2010 05:06:04 2.4 C 5.25 g/m*3 2.4 C 0 km/h
Sensor: Nr:Datum:Temp:Abs-Feuchte:Windchill:Wind:
Aussen-T/F 1226 23-03-2010 05:18:04 2.4 C 5.25 g/m*3 2.4 C 0 km/h
1227 23-03-2010 05:30:04 2.3 C 5.22 g/m*3 2.3 C 0 km/h
1228 23-03-2010 05:42:04 2.2 C 5.24 g/m*3 2.2 C 0 km/h
1229 23-03-2010 05:54:04 2.1 C 5.2 g/m*3 2.1 C 0 km/h
1230 23-03-2010 06:06:04 2.1 C 5.2 g/m*3 2.1 C 0 km/h
1231 23-03-2010 06:18:04 2.1 C 5.2 g/m*3 2.1 C 0 km/h
1232 23-03-2010 06:30:04 2.2 C 5.24 g/m*3 2.2 C 0 km/h
1233 23-03-2010 06:42:04 2.4 C 5.31 g/m*3 2.4 C 0 km/h
1234 23-03-2010 06:54:04 2.7 C 5.48 g/m*3 2.7 C 0 km/h
1235 23-03-2010 07:06:02 2.7 C 5.48 g/m*3 2.7 C 0 km/h
1236 23-03-2010 07:18:02 2.6 C 5.44 g/m*3 2.6 C 0 km/h
1237 23-03-2010 07:30:02 2.7 C 5.48 g/m*3 2.7 C 0 km/h
1238 23-03-2010 07:42:02 2.9 C 5.55 g/m*3 2.9 C 0 km/h
1239 23-03-2010 07:54:02 3.4 C 5.74 g/m*3 3.4 C 0 km/h
1240 23-03-2010 08:06:02 3.6 C 5.82 g/m*3 3.6 C 0 km/h
1241 23-03-2010 08:18:01 3.8 C 5.83 g/m*3 3.8 C 0 km/h
1242 23-03-2010 08:30:01 3.9 C 5.87 g/m*3 3.9 C 0 km/h
1243 23-03-2010 08:42:02 4.1 C 5.95 g/m*3 4.1 C 0 km/h
1244 23-03-2010 08:54:02 4.4 C 6.07 g/m*3 4.4 C 0 km/h
1245 23-03-2010 09:06:01 4.8 C 6.24 g/m*3 4.8 C 0 km/h
1246 23-03-2010 09:18:02 5.3 C 6.45 g/m*3 5.3 C 0 km/h
1247 23-03-2010 09:30:02 5.9 C 6.71 g/m*3 5.9 C 0 km/h
1248 23-03-2010 09:42:01 6.7 C 6.99 g/m*3 6.7 C 0 km/h
1249 23-03-2010 09:54:03 7.3 C 6.95 g/m*3 7.3 C 0 km/h
1250 23-03-2010 10:06:02 7.9 C 7.06 g/m*3 7.9 C 0 km/h
Sensor: Nr:Datum:Temp:Abs-Feuchte:Windchill:Wind:
Aussen-T/F 1251 23-03-2010 10:18:02 8.4 C 6.96 g/m*3 8.4 C 0 km/h
1252 23-03-2010 10:30:03 8.9 C 6.75 g/m*3 8.9 C 0 km/h
1253 23-03-2010 10:42:02 9.3 C 6.56 g/m*3 9.3 C 0 km/h
1254 23-03-2010 10:54:02 9.8 C 6.59 g/m*3 9.8 C 0 km/h
1255 23-03-2010 11:06:01 10.3 C 6.61 g/m*3 10.3 C 0 km/h
1256 23-03-2010 11:18:02 11.2 C 6.49 g/m*3 11.2 C 0 km/h
1257 23-03-2010 11:30:02 11.8 C 6.42 g/m*3 11.8 C 0 km/h
1258 23-03-2010 11:42:02 12.3 C 6.08 g/m*3 12.3 C 0 km/h
1259 23-03-2010 11:54:02 12.8 C 5.94 g/m*3 12.8 C 0 km/h
1260 23-03-2010 12:06:01 13.3 C 5.89 g/m*3 13.3 C 0 km/h
1261 23-03-2010 12:18:01 13.7 C 5.92 g/m*3 13.7 C 0 km/h
1262 23-03-2010 12:30:01 14 C 5.67 g/m*3 14 C 0 km/h
1263 23-03-2010 12:42:02 13.9 C 5.87 g/m*3 13.9 C 0 km/h
1264 23-03-2010 12:54:02 14.4 C 5.56 g/m*3 14.4 C 0 km/h
1265 23-03-2010 13:06:02 14.9 C 5.23 g/m*3 14.9 C 0 km/h
1266 23-03-2010 13:18:02 15 C 5.13 g/m*3 15 C 0 km/h
1267 23-03-2010 13:30:02 15.6 C 5.59 g/m*3 15.6 C 0 km/h
1268 23-03-2010 13:42:02 16.1 C 5.35 g/m*3 16.1 C 0 km/h
1269 23-03-2010 13:54:01 16 C 5.31 g/m*3 16 C 0 km/h
1270 23-03-2010 14:06:02 16.4 C 5.44 g/m*3 16.4 C 0 km/h
1271 23-03-2010 14:18:01 16.8 C 5.43 g/m*3 16.8 C 0 km/h
1272 23-03-2010 14:30:01 16.9 C 5.32 g/m*3 16.9 C 0 km/h
1273 23-03-2010 14:42:01 17.2 C 5.27 g/m*3 17.2 C 0 km/h
1274 23-03-2010 14:54:02 16.6 C 5.09 g/m*3 16.6 C 0 km/h
1275 23-03-2010 15:06:02 17.1 C 5.24 g/m*3 17.1 C 0 km/h
Sensor: Nr:Datum:Temp:Abs-Feuchte:Windchill:Wind:
Aussen-T/F 1276 23-03-2010 15:18:01 17.3 C 5.01 g/m*3 17.3 C 0 km/h
1277 23-03-2010 15:30:01 17.2 C 5.13 g/m*3 17.2 C 0 km/h
1278 23-03-2010 15:42:02 17.1 C 4.8 g/m*3 17.1 C 0 km/h
1279 23-03-2010 15:54:02 17.4 C 5.19 g/m*3 17.4 C 0 km/h
1280 23-03-2010 16:06:02 17.3 C 5.16 g/m*3 17.3 C 0 km/h
1281 23-03-2010 16:18:01 16.7 C 5.12 g/m*3 16.7 C 0 km/h
1282 23-03-2010 16:30:01 16.3 C 5.13 g/m*3 16.3 C 0 km/h
1283 23-03-2010 16:42:02 16.3 C 5.13 g/m*3 16.3 C 0 km/h
1284 23-03-2010 16:54:02 16.1 C 5.35 g/m*3 16.1 C 0 km/h
1285 23-03-2010 17:06:02 16.2 C 5.38 g/m*3 16.2 C 0 km/h
1286 23-03-2010 17:18:01 16.5 C 5.34 g/m*3 16.5 C 0 km/h
1287 23-03-2010 17:30:01 15.8 C 5.38 g/m*3 15.8 C 0 km/h
1288 23-03-2010 17:42:02 15.2 C 5.32 g/m*3 15.2 C 0 km/h
1289 23-03-2010 17:54:02 14.8 C 5.45 g/m*3 14.8 C 0 km/h
1290 23-03-2010 18:06:02 14.6 C 5.63 g/m*3 14.6 C 0 km/h
1291 23-03-2010 18:18:02 14.2 C 5.62 g/m*3 14.2 C 0 km/h
1292 23-03-2010 18:30:02 13.9 C 5.87 g/m*3 13.9 C 0 km/h
1293 23-03-2010 18:42:02 13.5 C 6.08 g/m*3 13.5 C 0 km/h
1294 23-03-2010 18:54:01 12.8 C 6.27 g/m*3 12.8 C 0 km/h
1295 23-03-2010 19:06:02 12.1 C 6.22 g/m*3 12.1 C 0 km/h
1296 23-03-2010 19:18:02 11.7 C 6.28 g/m*3 11.7 C 0 km/h
1297 23-03-2010 19:30:02 11.4 C 6.26 g/m*3 11.4 C 0 km/h
1298 23-03-2010 19:42:02 11.2 C 6.18 g/m*3 11.2 C 0 km/h
1299 23-03-2010 19:54:02 10.8 C 6.23 g/m*3 10.8 C 0 km/h
1300 23-03-2010 20:06:01 10.6 C 6.15 g/m*3 10.6 C 0 km/h
Sensor: Nr:Datum:Temp:Abs-Feuchte:Windchill:Wind:
Aussen-T/F 1301 23-03-2010 20:18:02 10.4 C 6.17 g/m*3 10.4 C 0 km/h
1302 23-03-2010 20:30:02 10.4 C 6.07 g/m*3 10.4 C 0 km/h
1303 23-03-2010 20:42:01 10.3 C 6.03 g/m*3 10.3 C 0 km/h
1304 23-03-2010 20:54:02 10.2 C 6.09 g/m*3 10.2 C 0 km/h
1305 23-03-2010 21:06:01 10 C 6.11 g/m*3 10 C 0 km/h
1306 23-03-2010 21:18:01 9.8 C 6.12 g/m*3 9.8 C 0 km/h
1307 23-03-2010 21:30:01 9.6 C 6.23 g/m*3 9.6 C 0 km/h
1308 23-03-2010 21:42:01 9.5 C 6.28 g/m*3 9.5 C 0 km/h
1309 23-03-2010 21:54:02 9.4 C 6.24 g/m*3 9.4 C 0 km/h
1310 23-03-2010 22:06:02 9.2 C 6.25 g/m*3 9.2 C 0 km/h
1311 23-03-2010 22:18:02 9 C 6.26 g/m*3 9 C 0 km/h
1312 23-03-2010 22:30:02 8.7 C 6.23 g/m*3 8.7 C 0 km/h
1313 23-03-2010 22:42:02 8.6 C 6.27 g/m*3 8.6 C 0 km/h
1314 23-03-2010 22:54:02 8.5 C 6.32 g/m*3 8.5 C 0 km/h
1315 23-03-2010 23:06:02 8.4 C 6.28 g/m*3 8.4 C 0 km/h
1316 23-03-2010 23:18:02 8.3 C 6.24 g/m*3 8.3 C 0 km/h
1317 23-03-2010 23:30:02 8.2 C 6.2 g/m*3 8.2 C 0 km/h
1318 23-03-2010 23:42:02 8.1 C 6.24 g/m*3 8.1 C 0 km/h
1319 23-03-2010 23:54:01 8 C 6.2 g/m*3 8 C 0 km/h
1320 24-03-2010 00:06:01 7.9 C 6.24 g/m*3 7.9 C 0 km/h
1321 24-03-2010 00:18:01 7.8 C 6.28 g/m*3 7.8 C 0 km/h
1322 24-03-2010 00:30:01 7.7 C 6.24 g/m*3 7.7 C 0 km/h
1323 24-03-2010 00:42:02 7.6 C 6.2 g/m*3 7.6 C 0 km/h
1324 24-03-2010 00:54:01 7.5 C 6.16 g/m*3 7.5 C 0 km/h
1325 24-03-2010 01:06:02 7.5 C 6.24 g/m*3 7.5 C 0 km/h
Sensor: Nr:Datum:Temp:Abs-Feuchte:Windchill:Wind:
Aussen-T/F 1326 24-03-2010 01:18:01 7.5 C 6.24 g/m*3 7.5 C 0 km/h
1327 24-03-2010 01:30:01 7.3 C 6.16 g/m*3 7.3 C 0 km/h
1328 24-03-2010 01:42:02 7.1 C 6.08 g/m*3 7.1 C 0 km/h
1329 24-03-2010 01:54:02 6.9 C 6.08 g/m*3 6.9 C 0 km/h
1330 24-03-2010 02:06:02 6.8 C 6.12 g/m*3 6.8 C 0 km/h
1331 24-03-2010 02:18:01 6.7 C 6.15 g/m*3 6.7 C 0 km/h
1332 24-03-2010 02:30:01 6.6 C 6.11 g/m*3 6.6 C 0 km/h
1333 24-03-2010 02:42:02 6.4 C 6.04 g/m*3 6.4 C 0 km/h
1334 24-03-2010 02:55:04 6.2 C 5.96 g/m*3 6.2 C 0 km/h
1335 24-03-2010 03:07:04 6.2 C 6.03 g/m*3 6.2 C 0 km/h
1336 24-03-2010 03:19:04 6.1 C 5.99 g/m*3 6.1 C 0 km/h
1337 24-03-2010 03:31:02 5.8 C 5.95 g/m*3 5.8 C 0 km/h
1338 24-03-2010 03:43:02 5.6 C 5.87 g/m*3 5.6 C 0 km/h
1339 24-03-2010 03:55:02 5.7 C 5.98 g/m*3 5.7 C 0 km/h
1340 24-03-2010 04:07:03 5.6 C 5.94 g/m*3 5.6 C 0 km/h
1341 24-03-2010 04:19:02 5.3 C 5.82 g/m*3 5.3 C 0 km/h
1342 24-03-2010 04:31:02 5.3 C 5.82 g/m*3 5.3 C 0 km/h
1343 24-03-2010 04:43:02 5.2 C 5.85 g/m*3 5.2 C 0 km/h
1344 24-03-2010 04:55:01 5.1 C 5.81 g/m*3 5.1 C 0 km/h
1345 24-03-2010 05:07:02 4.9 C 5.81 g/m*3 4.9 C 0 km/h
1346 24-03-2010 05:19:01 5 C 5.84 g/m*3 5 C 0 km/h
1347 24-03-2010 05:31:01 5 C 5.84 g/m*3 5 C 0 km/h
1348 24-03-2010 05:43:01 4.7 C 5.8 g/m*3 4.7 C 0 km/h
1349 24-03-2010 05:55:01 4.5 C 5.72 g/m*3 4.5 C 0 km/h
1350 24-03-2010 06:07:02 4.4 C 5.68 g/m*3 4.4 C 0 km/h
Sensor: Nr:Datum:Temp:Abs-Feuchte:Windchill:Wind:
Aussen-T/F 1351 24-03-2010 06:19:01 4.4 C 5.68 g/m*3 4.4 C 0 km/h
1352 24-03-2010 06:31:01 4.4 C 5.75 g/m*3 4.4 C 0 km/h
1353 24-03-2010 06:43:01 4.3 C 5.71 g/m*3 4.3 C 0 km/h
1354 24-03-2010 06:55:01 4.3 C 5.71 g/m*3 4.3 C 0 km/h
1355 24-03-2010 07:07:01 4.4 C 5.81 g/m*3 4.4 C 0 km/h
1356 24-03-2010 07:19:02 4.4 C 5.81 g/m*3 4.4 C 0 km/h
1357 24-03-2010 07:31:01 4.6 C 5.89 g/m*3 4.6 C 0 km/h
1358 24-03-2010 07:43:01 4.9 C 6.01 g/m*3 4.9 C 0 km/h
1359 24-03-2010 07:55:03 5.2 C 6.06 g/m*3 5.2 C 0 km/h
1360 24-03-2010 08:07:02 5.3 C 6.1 g/m*3 5.3 C 0 km/h
1361 24-03-2010 08:19:02 5.4 C 6.07 g/m*3 5.4 C 0 km/h
1362 24-03-2010 08:31:02 5.7 C 6.19 g/m*3 5.7 C 0 km/h
1363 24-03-2010 08:43:02 5.7 C 6.12 g/m*3 5.7 C 0 km/h
1364 24-03-2010 08:55:02 5.8 C 6.16 g/m*3 5.8 C 0 km/h
1365 24-03-2010 09:07:01 6.1 C 6.21 g/m*3 6.1 C 0 km/h
1366 24-03-2010 09:19:02 6.7 C 6.46 g/m*3 6.7 C 0 km/h
1367 24-03-2010 09:31:01 7.2 C 6.44 g/m*3 7.2 C 0 km/h
1368 24-03-2010 09:43:01 7.8 C 6.69 g/m*3 7.8 C 0 km/h
1369 24-03-2010 09:55:02 8.4 C 6.53 g/m*3 8.4 C 0 km/h
1370 24-03-2010 10:07:01 9.2 C 6.79 g/m*3 9.2 C 0 km/h
1371 24-03-2010 10:19:01 10.2 C 6.95 g/m*3 10.2 C 0 km/h
1372 24-03-2010 10:31:02 10.9 C 6.76 g/m*3 10.9 C 0 km/h
1373 24-03-2010 10:43:02 11.7 C 6.48 g/m*3 11.7 C 0 km/h
1374 24-03-2010 10:55:02 12.7 C 6.46 g/m*3 12.7 C 0 km/h
1375 24-03-2010 11:07:01 13.1 C 5.71 g/m*3 13.1 C 0 km/h
Sensor: Nr:Datum:Temp:Abs-Feuchte:Windchill:Wind:
Aussen-T/F 1376 24-03-2010 11:19:02 13.8 C 5.6 g/m*3 13.8 C 0 km/h
1377 24-03-2010 11:31:02 14.4 C 5.44 g/m*3 14.4 C 0 km/h
1378 24-03-2010 11:43:02 14.9 C 5.23 g/m*3 14.9 C 0 km/h
1379 24-03-2010 11:55:02 15.5 C 5.29 g/m*3 15.5 C 0 km/h
1380 24-03-2010 12:07:02 16.1 C 5.21 g/m*3 16.1 C 0 km/h
1381 24-03-2010 12:19:02 16.7 C 5.26 g/m*3 16.7 C 0 km/h
1382 24-03-2010 12:31:02 17.2 C 5.27 g/m*3 17.2 C 0 km/h
1383 24-03-2010 12:43:02 17.6 C 5.1 g/m*3 17.6 C 0 km/h
1384 24-03-2010 12:55:02 18.4 C 4.88 g/m*3 18.4 C 0 km/h
1385 24-03-2010 13:07:03 18.7 C 4.8 g/m*3 18.7 C 0 km/h
1386 24-03-2010 13:19:02 19 C 5.05 g/m*3 19 C 0 km/h
1387 24-03-2010 13:31:02 19.5 C 5.2 g/m*3 19.5 C 0 km/h
1388 24-03-2010 13:43:02 19.9 C 4.98 g/m*3 19.9 C 0 km/h
1389 24-03-2010 13:55:01 20.3 C 4.75 g/m*3 20.3 C 0 km/h
1390 24-03-2010 14:07:02 20.8 C 4.71 g/m*3 20.8 C 0 km/h
1391 24-03-2010 14:19:01 21.6 C 4.74 g/m*3 21.6 C 0 km/h
1392 24-03-2010 14:31:01 21.6 C 4.36 g/m*3 21.6 C 0 km/h
1393 24-03-2010 14:43:01 21.5 C 4.34 g/m*3 21.5 C 0 km/h
1394 24-03-2010 14:55:01 21.8 C 4.41 g/m*3 21.8 C 0 km/h
1395 24-03-2010 15:07:02 22 C 4.27 g/m*3 22 C 0 km/h
1396 24-03-2010 15:19:01 22 C 4.27 g/m*3 22 C 0 km/h
1397 24-03-2010 15:31:01 22.3 C 4.34 g/m*3 22.3 C 0 km/h
1398 24-03-2010 15:43:01 23 C 4.52 g/m*3 23 C 0 km/h
1399 24-03-2010 15:55:01 21.9 C 4.44 g/m*3 21.9 C 0 km/h
1400 24-03-2010 16:07:02 21.4 C 4.5 g/m*3 21.4 C 0 km/h
Sensor: Nr:Datum:Temp:Abs-Feuchte:Windchill:Wind:
Aussen-T/F 1401 24-03-2010 16:19:02 21 C 4.58 g/m*3 21 C 0 km/h
1402 24-03-2010 16:31:01 21.1 C 4.79 g/m*3 21.1 C 0 km/h
1403 24-03-2010 16:43:01 20.3 C 4.92 g/m*3 20.3 C 0 km/h
1404 24-03-2010 16:55:01 20.4 C 5.13 g/m*3 20.4 C 0 km/h
1405 24-03-2010 17:07:01 20.4 C 5.31 g/m*3 20.4 C 0 km/h
1406 24-03-2010 17:19:02 20 C 5.18 g/m*3 20 C 0 km/h
1407 24-03-2010 17:31:01 19.8 C 5.47 g/m*3 19.8 C 0 km/h
1408 24-03-2010 17:43:01 19.5 C 5.37 g/m*3 19.5 C 0 km/h
1409 24-03-2010 17:55:02 19.1 C 5.08 g/m*3 19.1 C 0 km/h
1410 24-03-2010 18:07:01 18.5 C 5.22 g/m*3 18.5 C 0 km/h
1411 24-03-2010 18:19:02 17.9 C 5.65 g/m*3 17.9 C 0 km/h
1412 24-03-2010 18:31:01 17.4 C 5.48 g/m*3 17.4 C 0 km/h
1413 24-03-2010 18:43:01 16.5 C 5.62 g/m*3 16.5 C 0 km/h
1414 24-03-2010 18:55:02 15.8 C 5.38 g/m*3 15.8 C 0 km/h
1415 24-03-2010 19:07:02 15.4 C 5.52 g/m*3 15.4 C 0 km/h
1416 24-03-2010 19:19:02 15 C 5.51 g/m*3 15 C 0 km/h
1417 24-03-2010 19:31:03 14.5 C 5.6 g/m*3 14.5 C 0 km/h
1418 24-03-2010 19:43:03 14.4 C 5.56 g/m*3 14.4 C 0 km/h
1419 24-03-2010 19:55:02 14.2 C 5.49 g/m*3 14.2 C 0 km/h
1420 24-03-2010 20:07:01 14 C 5.67 g/m*3 14 C 0 km/h
1421 24-03-2010 20:19:02 14 C 5.55 g/m*3 14 C 0 km/h
1422 24-03-2010 20:31:02 13.8 C 5.48 g/m*3 13.8 C 0 km/h
1423 24-03-2010 20:43:02 13.8 C 5.6 g/m*3 13.8 C 0 km/h
1424 24-03-2010 20:55:02 13.4 C 5.58 g/m*3 13.4 C 0 km/h
1425 24-03-2010 21:07:01 13.4 C 5.58 g/m*3 13.4 C 0 km/h
Sensor: Nr:Datum:Temp:Abs-Feuchte:Windchill:Wind:
Aussen-T/F 1426 24-03-2010 21:19:01 13.2 C 5.51 g/m*3 13.2 C 0 km/h
1427 24-03-2010 21:31:02 13.1 C 5.59 g/m*3 13.1 C 0 km/h
1428 24-03-2010 21:43:02 12.9 C 5.75 g/m*3 12.9 C 0 km/h
1429 24-03-2010 21:55:02 12.8 C 5.71 g/m*3 12.8 C 0 km/h
1430 24-03-2010 22:07:02 12.4 C 5.68 g/m*3 12.4 C 0 km/h
1431 24-03-2010 22:19:02 12.7 C 5.68 g/m*3 12.7 C 0 km/h
1432 24-03-2010 22:31:02 12.6 C 5.64 g/m*3 12.6 C 0 km/h
1433 24-03-2010 22:43:02 12.4 C 5.68 g/m*3 12.4 C 0 km/h
1434 24-03-2010 22:55:02 12 C 5.86 g/m*3 12 C 0 km/h
1435 24-03-2010 23:07:02 11.7 C 6.07 g/m*3 11.7 C 0 km/h
1436 24-03-2010 23:19:02 11.4 C 5.95 g/m*3 11.4 C 0 km/h
1437 24-03-2010 23:31:02 10.9 C 6.07 g/m*3 10.9 C 0 km/h
1438 24-03-2010 23:43:02 10.8 C 6.13 g/m*3 10.8 C 0 km/h
1439 24-03-2010 23:55:02 10.6 C 6.15 g/m*3 10.6 C 0 km/h
1440 25-03-2010 00:07:02 10.6 C 6.25 g/m*3 10.6 C 0 km/h
1441 25-03-2010 00:19:02 10.5 C 6.21 g/m*3 10.5 C 0 km/h
1442 25-03-2010 00:31:02 10.4 C 6.07 g/m*3 10.4 C 0 km/h
1443 25-03-2010 00:43:02 10.1 C 6.05 g/m*3 10.1 C 0 km/h
1444 25-03-2010 00:55:01 9.7 C 6.08 g/m*3 9.7 C 0 km/h
1445 25-03-2010 01:07:02 9.4 C 6.06 g/m*3 9.4 C 0 km/h
1446 25-03-2010 01:19:01 9.3 C 6.11 g/m*3 9.3 C 0 km/h
1447 25-03-2010 01:31:01 9.2 C 6.16 g/m*3 9.2 C 0 km/h
1448 25-03-2010 01:43:01 9 C 6.08 g/m*3 9 C 0 km/h
1449 25-03-2010 01:55:01 8.9 C 6.13 g/m*3 8.9 C 0 km/h
1450 25-03-2010 02:07:02 8.9 C 6.22 g/m*3 8.9 C 0 km/h
Sensor: Nr:Datum:Temp:Abs-Feuchte:Windchill:Wind:
Aussen-T/F 1451 25-03-2010 02:19:02 8.8 C 6.18 g/m*3 8.8 C 0 km/h
1452 25-03-2010 02:31:01 8.6 C 6.19 g/m*3 8.6 C 0 km/h
1453 25-03-2010 02:43:01 8.7 C 6.23 g/m*3 8.7 C 0 km/h
1454 25-03-2010 02:55:01 8.6 C 6.27 g/m*3 8.6 C 0 km/h
1455 25-03-2010 03:07:01 8.7 C 6.31 g/m*3 8.7 C 0 km/h
1456 25-03-2010 03:19:01 8.6 C 6.27 g/m*3 8.6 C 0 km/h
1457 25-03-2010 03:31:01 8.4 C 6.28 g/m*3 8.4 C 0 km/h
1458 25-03-2010 03:43:01 8.1 C 6.16 g/m*3 8.1 C 0 km/h
1459 25-03-2010 03:55:01 7.9 C 6.24 g/m*3 7.9 C 0 km/h
1460 25-03-2010 04:07:02 7.7 C 6.24 g/m*3 7.7 C 0 km/h
1461 25-03-2010 04:19:01 7.6 C 6.28 g/m*3 7.6 C 0 km/h
1462 25-03-2010 04:31:01 7.7 C 6.32 g/m*3 7.7 C 0 km/h
1463 25-03-2010 04:43:01 7.9 C 6.49 g/m*3 7.9 C 0 km/h
1464 25-03-2010 04:55:01 7.8 C 6.45 g/m*3 7.8 C 0 km/h
1465 25-03-2010 05:07:01 7.6 C 6.44 g/m*3 7.6 C 0 km/h
1466 25-03-2010 05:19:01 7.5 C 6.4 g/m*3 7.5 C 0 km/h
1467 25-03-2010 05:31:01 7.3 C 6.4 g/m*3 7.3 C 0 km/h
1468 25-03-2010 05:43:01 7.2 C 6.36 g/m*3 7.2 C 0 km/h
1469 25-03-2010 05:55:01 7.2 C 6.36 g/m*3 7.2 C 0 km/h
1470 25-03-2010 06:07:01 7.3 C 6.48 g/m*3 7.3 C 0 km/h
1471 25-03-2010 06:19:02 7.4 C 6.44 g/m*3 7.4 C 0 km/h
1472 25-03-2010 06:31:01 7.4 C 6.44 g/m*3 7.4 C 0 km/h
1473 25-03-2010 06:43:01 7.5 C 6.48 g/m*3 7.5 C 0 km/h
1474 25-03-2010 06:55:01 7.6 C 6.53 g/m*3 7.6 C 0 km/h
1475 25-03-2010 07:07:01 7.8 C 6.53 g/m*3 7.8 C 0 km/h
Sensor: Nr:Datum:Temp:Abs-Feuchte:Windchill:Wind:
Aussen-T/F 1476 25-03-2010 07:19:02 7.9 C 6.57 g/m*3 7.9 C 0 km/h
1477 25-03-2010 07:31:01 7.6 C 6.61 g/m*3 7.6 C 0 km/h
1478 25-03-2010 07:43:01 7.9 C 6.9 g/m*3 7.9 C 0 km/h
1479 25-03-2010 07:55:02 8.2 C 6.95 g/m*3 8.2 C 0 km/h
1480 25-03-2010 08:07:01 8.2 C 6.87 g/m*3 8.2 C 0 km/h
1481 25-03-2010 08:19:02 8.1 C 6.82 g/m*3 8.1 C 0 km/h
1482 25-03-2010 08:31:01 8.2 C 6.95 g/m*3 8.2 C 0 km/h
1483 25-03-2010 08:43:01 8.4 C 7.04 g/m*3 8.4 C 0 km/h
1484 25-03-2010 08:55:02 8.8 C 7.22 g/m*3 8.8 C 0 km/h
1485 25-03-2010 09:07:01 9.5 C 7.46 g/m*3 9.5 C 0 km/h
1486 25-03-2010 09:19:01 10.4 C 7.61 g/m*3 10.4 C 0 km/h
1487 25-03-2010 09:31:02 11 C 7.31 g/m*3 11 C 0 km/h
1488 25-03-2010 09:43:02 11.5 C 7.33 g/m*3 11.5 C 0 km/h
1489 25-03-2010 09:55:02 11.9 C 7.31 g/m*3 11.9 C 0 km/h
1490 25-03-2010 10:07:01 12.4 C 7.21 g/m*3 12.4 C 0 km/h
1491 25-03-2010 10:19:01 12.6 C 7.08 g/m*3 12.6 C 0 km/h
1492 25-03-2010 10:31:02 13.1 C 7.3 g/m*3 13.1 C 0 km/h
1493 25-03-2010 10:43:02 14.1 C 7.4 g/m*3 14.1 C 0 km/h
1494 25-03-2010 10:55:01 14.7 C 7.05 g/m*3 14.7 C 0 km/h
1495 25-03-2010 11:07:02 15.7 C 6.69 g/m*3 15.7 C 0 km/h
1496 25-03-2010 11:19:01 16.8 C 6.43 g/m*3 16.8 C 0 km/h
1497 25-03-2010 11:31:02 17.9 C 5.95 g/m*3 17.9 C 0 km/h
1498 25-03-2010 11:43:02 18.5 C 5.85 g/m*3 18.5 C 0 km/h
1499 25-03-2010 11:55:01 18.8 C 5.64 g/m*3 18.8 C 0 km/h
1500 25-03-2010 12:07:02 19.5 C 5.2 g/m*3 19.5 C 0 km/h
Sensor: Nr:Datum:Temp:Abs-Feuchte:Windchill:Wind:
Aussen-T/F 1501 25-03-2010 12:19:01 19.3 C 4.64 g/m*3 19.3 C 0 km/h
1502 25-03-2010 12:31:01 20.2 C 4.55 g/m*3 20.2 C 0 km/h
1503 25-03-2010 12:43:01 21 C 4.4 g/m*3 21 C 0 km/h
1504 25-03-2010 12:55:01 21.6 C 4.55 g/m*3 21.6 C 0 km/h
1505 25-03-2010 13:07:02 22 C 4.27 g/m*3 22 C 0 km/h
1506 25-03-2010 13:19:01 22.2 C 3.93 g/m*3 22.2 C 0 km/h
1507 25-03-2010 13:31:01 22.8 C 4.06 g/m*3 22.8 C 0 km/h
1508 25-03-2010 13:43:01 22.7 C 4.04 g/m*3 22.7 C 0 km/h
1509 25-03-2010 13:55:01 23.2 C 4.16 g/m*3 23.2 C 0 km/h
1510 25-03-2010 14:07:01 22.8 C 4.06 g/m*3 22.8 C 0 km/h
1511 25-03-2010 14:19:02 22.9 C 4.09 g/m*3 22.9 C 0 km/h
1512 25-03-2010 14:31:01 23.3 C 4.18 g/m*3 23.3 C 0 km/h
1513 25-03-2010 14:43:01 23.8 C 4.3 g/m*3 23.8 C 0 km/h
1514 25-03-2010 14:55:01 23.7 C 4.28 g/m*3 23.7 C 0 km/h
1515 25-03-2010 15:07:01 23.2 C 4.16 g/m*3 23.2 C 0 km/h
1516 25-03-2010 15:19:02 22.8 C 4.06 g/m*3 22.8 C 0 km/h
1517 25-03-2010 15:31:01 23.4 C 4.21 g/m*3 23.4 C 0 km/h
1518 25-03-2010 15:43:01 23.6 C 4.25 g/m*3 23.6 C 0 km/h
1519 25-03-2010 15:55:02 23.7 C 4.28 g/m*3 23.7 C 0 km/h
1520 25-03-2010 16:07:01 23.6 C 4.25 g/m*3 23.6 C 0 km/h
1521 25-03-2010 16:19:02 24.1 C 4.38 g/m*3 24.1 C 0 km/h
1522 25-03-2010 16:31:01 23.6 C 4.25 g/m*3 23.6 C 0 km/h
1523 25-03-2010 16:43:01 22.8 C 4.06 g/m*3 22.8 C 0 km/h
1524 25-03-2010 16:55:02 21.9 C 4.44 g/m*3 21.9 C 0 km/h
1525 25-03-2010 17:07:01 21.5 C 4.71 g/m*3 21.5 C 0 km/h
Sensor: Nr:Datum:Temp:Abs-Feuchte:Windchill:Wind:
Aussen-T/F 1526 25-03-2010 17:19:01 20.9 C 4.55 g/m*3 20.9 C 0 km/h
1527 25-03-2010 17:31:01 20.7 C 4.68 g/m*3 20.7 C 0 km/h
1528 25-03-2010 17:43:01 20 C 5.01 g/m*3 20 C 0 km/h
1529 25-03-2010 17:55:01 19.5 C 5.37 g/m*3 19.5 C 0 km/h
1530 25-03-2010 18:07:02 19.6 C 5.23 g/m*3 19.6 C 0 km/h
1531 25-03-2010 18:19:02 19.5 C 5.87 g/m*3 19.5 C 0 km/h
1532 25-03-2010 18:31:01 19.3 C 5.31 g/m*3 19.3 C 0 km/h
1533 25-03-2010 18:43:01 18.7 C 5.6 g/m*3 18.7 C 0 km/h
1534 25-03-2010 18:55:02 18.5 C 5.85 g/m*3 18.5 C 0 km/h
1535 25-03-2010 19:07:01 18.3 C 5.79 g/m*3 18.3 C 0 km/h
1536 25-03-2010 19:19:02 17.8 C 5.62 g/m*3 17.8 C 0 km/h
1537 25-03-2010 19:31:01 17.2 C 5.86 g/m*3 17.2 C 0 km/h
1538 25-03-2010 19:43:01 16.8 C 5.86 g/m*3 16.8 C 0 km/h
1539 25-03-2010 19:55:02 16.4 C 5.72 g/m*3 16.4 C 0 km/h
1540 25-03-2010 20:07:01 16.1 C 5.76 g/m*3 16.1 C 0 km/h
1541 25-03-2010 20:19:01 15.8 C 5.79 g/m*3 15.8 C 0 km/h
1542 25-03-2010 20:31:02 15.4 C 5.91 g/m*3 15.4 C 0 km/h
1543 25-03-2010 20:43:02 15.2 C 5.97 g/m*3 15.2 C 0 km/h
1544 25-03-2010 20:55:02 15 C 5.9 g/m*3 15 C 0 km/h
1545 25-03-2010 21:07:01 14.9 C 5.99 g/m*3 14.9 C 0 km/h
1546 25-03-2010 21:19:01 14.7 C 6.04 g/m*3 14.7 C 0 km/h
1547 25-03-2010 21:31:02 14.5 C 6.09 g/m*3 14.5 C 0 km/h
1548 25-03-2010 21:43:02 14.1 C 6.07 g/m*3 14.1 C 0 km/h
1549 25-03-2010 21:55:01 13.8 C 6.2 g/m*3 13.8 C 0 km/h
1550 25-03-2010 22:07:02 13.6 C 6.24 g/m*3 13.6 C 0 km/h
Sensor: Nr:Datum:Temp:Abs-Feuchte:Windchill:Wind:
Aussen-T/F 1551 25-03-2010 22:19:01 13.4 C 6.28 g/m*3 13.4 C 0 km/h
1552 25-03-2010 22:31:01 13.1 C 6.39 g/m*3 13.1 C 0 km/h
1553 25-03-2010 22:43:01 13 C 6.35 g/m*3 13 C 0 km/h
1554 25-03-2010 22:55:01 13 C 6.24 g/m*3 13 C 0 km/h
1555 25-03-2010 23:07:02 13 C 6.46 g/m*3 13 C 0 km/h
1556 25-03-2010 23:19:01 12.6 C 6.31 g/m*3 12.6 C 0 km/h
1557 25-03-2010 23:31:02 12.7 C 6.57 g/m*3 12.7 C 0 km/h
1558 25-03-2010 23:43:02 12.6 C 6.53 g/m*3 12.6 C 0 km/h
1559 25-03-2010 23:55:01 12.5 C 6.6 g/m*3 12.5 C 0 km/h
1560 26-03-2010 00:07:02 12.5 C 6.71 g/m*3 12.5 C 0 km/h
1561 26-03-2010 00:19:02 12.4 C 6.66 g/m*3 12.4 C 0 km/h
1562 26-03-2010 00:31:01 12.4 C 6.66 g/m*3 12.4 C 0 km/h
1563 26-03-2010 00:43:01 12.2 C 6.58 g/m*3 12.2 C 0 km/h
1564 26-03-2010 00:55:02 12.1 C 6.65 g/m*3 12.1 C 0 km/h
1565 26-03-2010 01:07:01 12.3 C 6.62 g/m*3 12.3 C 0 km/h
1566 26-03-2010 01:19:02 12.2 C 6.58 g/m*3 12.2 C 0 km/h
1567 26-03-2010 01:31:01 12.5 C 6.6 g/m*3 12.5 C 0 km/h
1568 26-03-2010 01:43:01 13 C 6.58 g/m*3 13 C 0 km/h
1569 26-03-2010 01:55:02 13.8 C 6.55 g/m*3 13.8 C 0 km/h
1570 26-03-2010 02:07:01 13.4 C 6.28 g/m*3 13.4 C 0 km/h
1571 26-03-2010 02:19:01 12.7 C 6.46 g/m*3 12.7 C 0 km/h
1572 26-03-2010 02:31:02 12.4 C 6.66 g/m*3 12.4 C 0 km/h
1573 26-03-2010 02:43:02 12.1 C 6.76 g/m*3 12.1 C 0 km/h
1574 26-03-2010 02:56:05 12 C 6.82 g/m*3 12 C 0 km/h
1575 26-03-2010 03:08:06 11.6 C 6.76 g/m*3 11.6 C 0 km/h
Sensor: Nr:Datum:Temp:Abs-Feuchte:Windchill:Wind:
Aussen-T/F 1576 26-03-2010 03:20:05 11.6 C 6.86 g/m*3 11.6 C 0 km/h
1577 26-03-2010 03:32:03 11.8 C 6.95 g/m*3 11.8 C 0 km/h
1578 26-03-2010 03:44:03 12 C 6.82 g/m*3 12 C 0 km/h
1579 26-03-2010 03:56:03 12.1 C 6.86 g/m*3 12.1 C 0 km/h
1580 26-03-2010 04:08:02 11.7 C 6.9 g/m*3 11.7 C 0 km/h
1581 26-03-2010 04:20:02 11.2 C 6.79 g/m*3 11.2 C 0 km/h
1582 26-03-2010 04:32:02 11.2 C 6.99 g/m*3 11.2 C 0 km/h
1583 26-03-2010 04:44:02 11.1 C 6.95 g/m*3 11.1 C 0 km/h
1584 26-03-2010 04:56:02 11.2 C 6.89 g/m*3 11.2 C 0 km/h
1585 26-03-2010 05:08:02 11 C 6.81 g/m*3 11 C 0 km/h
1586 26-03-2010 05:20:02 10.9 C 6.86 g/m*3 10.9 C 0 km/h
1587 26-03-2010 05:32:01 10.7 C 6.88 g/m*3 10.7 C 0 km/h
1588 26-03-2010 05:44:01 10.9 C 6.96 g/m*3 10.9 C 0 km/h
1589 26-03-2010 05:56:02 11 C 7.01 g/m*3 11 C 0 km/h
1590 26-03-2010 06:08:01 10.8 C 6.92 g/m*3 10.8 C 0 km/h
1591 26-03-2010 06:20:02 10.5 C 6.98 g/m*3 10.5 C 0 km/h
1592 26-03-2010 06:32:02 10.2 C 6.85 g/m*3 10.2 C 0 km/h
1593 26-03-2010 06:44:02 10.2 C 6.95 g/m*3 10.2 C 0 km/h
1594 26-03-2010 06:56:02 10.2 C 6.95 g/m*3 10.2 C 0 km/h
1595 26-03-2010 07:08:02 10.3 C 6.99 g/m*3 10.3 C 0 km/h
1596 26-03-2010 07:20:02 10.6 C 7.22 g/m*3 10.6 C 0 km/h
1597 26-03-2010 07:32:02 10.7 C 7.17 g/m*3 10.7 C 0 km/h
1598 26-03-2010 07:44:02 10.8 C 7.22 g/m*3 10.8 C 0 km/h
1599 26-03-2010 07:56:02 11 C 7.11 g/m*3 11 C 0 km/h
1600 26-03-2010 08:08:02 11.5 C 7.23 g/m*3 11.5 C 0 km/h
Sensor: Nr:Datum:Temp:Abs-Feuchte:Windchill:Wind:
Aussen-T/F 1601 26-03-2010 08:20:01 11.5 C 7.13 g/m*3 11.5 C 0 km/h
1602 26-03-2010 08:32:02 11.7 C 7.22 g/m*3 11.7 C 0 km/h
1603 26-03-2010 08:44:02 12.3 C 7.28 g/m*3 12.3 C 0 km/h
1604 26-03-2010 08:56:02 12.2 C 7.12 g/m*3 12.2 C 0 km/h
1605 26-03-2010 09:08:02 12.4 C 7.21 g/m*3 12.4 C 0 km/h
1606 26-03-2010 09:20:02 12.8 C 7.28 g/m*3 12.8 C 0 km/h
1607 26-03-2010 09:32:02 13.2 C 7.23 g/m*3 13.2 C 0 km/h
1608 26-03-2010 09:44:02 13.7 C 7.22 g/m*3 13.7 C 0 km/h
1609 26-03-2010 09:56:02 13.8 C 7.03 g/m*3 13.8 C 0 km/h
1610 26-03-2010 10:08:02 13.8 C 7.15 g/m*3 13.8 C 0 km/h
1611 26-03-2010 10:20:02 13.8 C 7.03 g/m*3 13.8 C 0 km/h
1612 26-03-2010 10:32:02 13.8 C 7.15 g/m*3 13.8 C 0 km/h
1613 26-03-2010 10:44:02 13.6 C 6.83 g/m*3 13.6 C 0 km/h
1614 26-03-2010 10:56:02 13.3 C 6.82 g/m*3 13.3 C 0 km/h
1615 26-03-2010 11:08:02 12.5 C 6.6 g/m*3 12.5 C 0 km/h
1616 26-03-2010 11:20:02 12.2 C 6.58 g/m*3 12.2 C 0 km/h
1617 26-03-2010 11:32:02 11 C 7.01 g/m*3 11 C 0 km/h
1618 26-03-2010 11:44:02 9.9 C 7.28 g/m*3 9.9 C 0 km/h
1619 26-03-2010 11:56:01 9 C 6.96 g/m*3 9 C 0 km/h
1620 26-03-2010 12:08:01 8.5 C 7.17 g/m*3 8.5 C 0 km/h
1621 26-03-2010 12:20:01 8.2 C 7.2 g/m*3 8.2 C 0 km/h
1622 26-03-2010 12:32:01 7.9 C 7.23 g/m*3 7.9 C 0 km/h
1623 26-03-2010 12:44:01 7.5 C 6.96 g/m*3 7.5 C 0 km/h
1624 26-03-2010 12:56:01 7.4 C 7 g/m*3 7.4 C 0 km/h
1625 26-03-2010 13:08:01 7.5 C 7.12 g/m*3 7.5 C 0 km/h
Sensor: Nr:Datum:Temp:Abs-Feuchte:Windchill:Wind:
Aussen-T/F 1626 26-03-2010 13:20:02 7.4 C 7.08 g/m*3 7.4 C 0 km/h
1627 26-03-2010 13:32:01 7.5 C 7.2 g/m*3 7.5 C 0 km/h
1628 26-03-2010 13:44:01 7.8 C 7.43 g/m*3 7.8 C 0 km/h
1629 26-03-2010 13:56:02 7.7 C 7.38 g/m*3 7.7 C 0 km/h
1630 26-03-2010 14:08:02 7.5 C 7.28 g/m*3 7.5 C 0 km/h
1631 26-03-2010 14:20:02 7.4 C 7.16 g/m*3 7.4 C 0 km/h
1632 26-03-2010 14:32:02 7.5 C 7.2 g/m*3 7.5 C 0 km/h
1633 26-03-2010 14:44:02 8.1 C 7.49 g/m*3 8.1 C 0 km/h
1634 26-03-2010 14:56:02 8.2 C 7.54 g/m*3 8.2 C 0 km/h
1635 26-03-2010 15:08:01 8.1 C 7.41 g/m*3 8.1 C 0 km/h
1636 26-03-2010 15:20:01 8.2 C 7.45 g/m*3 8.2 C 0 km/h
1637 26-03-2010 15:32:01 8.1 C 7.32 g/m*3 8.1 C 0 km/h
1638 26-03-2010 15:44:01 8.3 C 7.42 g/m*3 8.3 C 0 km/h
1639 26-03-2010 15:56:02 8.6 C 7.65 g/m*3 8.6 C 0 km/h
1640 26-03-2010 16:08:02 8.7 C 7.7 g/m*3 8.7 C 0 km/h
1641 26-03-2010 16:20:01 8.5 C 7.51 g/m*3 8.5 C 0 km/h
1642 26-03-2010 16:32:01 8.6 C 7.56 g/m*3 8.6 C 0 km/h
1643 26-03-2010 16:44:01 8.5 C 7.51 g/m*3 8.5 C 0 km/h
1644 26-03-2010 16:56:01 8.4 C 7.38 g/m*3 8.4 C 0 km/h
1645 26-03-2010 17:08:02 8.6 C 7.3 g/m*3 8.6 C 0 km/h
1646 26-03-2010 17:20:02 8.6 C 7.22 g/m*3 8.6 C 0 km/h
1647 26-03-2010 17:32:02 8.6 C 7.22 g/m*3 8.6 C 0 km/h
1648 26-03-2010 17:44:02 8.6 C 7.22 g/m*3 8.6 C 0 km/h
1649 26-03-2010 17:56:01 8.6 C 7.22 g/m*3 8.6 C 0 km/h
1650 26-03-2010 18:08:02 8.5 C 7.17 g/m*3 8.5 C 0 km/h
Sensor: Nr:Datum:Temp:Abs-Feuchte:Windchill:Wind:
Aussen-T/F 1651 26-03-2010 18:20:02 8.8 C 7.22 g/m*3 8.8 C 0 km/h
1652 26-03-2010 18:32:01 8.7 C 7.01 g/m*3 8.7 C 0 km/h
1653 26-03-2010 18:44:01 8.6 C 6.87 g/m*3 8.6 C 0 km/h
1654 26-03-2010 18:56:02 8.6 C 6.96 g/m*3 8.6 C 0 km/h
1655 26-03-2010 19:08:01 8.4 C 6.96 g/m*3 8.4 C 0 km/h
1656 26-03-2010 19:20:02 8.4 C 7.04 g/m*3 8.4 C 0 km/h
1657 26-03-2010 19:32:01 8.5 C 7.09 g/m*3 8.5 C 0 km/h
1658 26-03-2010 19:44:01 8.4 C 7.04 g/m*3 8.4 C 0 km/h
1659 26-03-2010 19:56:01 8.4 C 7.13 g/m*3 8.4 C 0 km/h
1660 26-03-2010 20:08:01 8.5 C 7.09 g/m*3 8.5 C 0 km/h
1661 26-03-2010 20:20:01 8.7 C 7.09 g/m*3 8.7 C 0 km/h
1662 26-03-2010 20:32:02 8.7 C 6.92 g/m*3 8.7 C 0 km/h
1663 26-03-2010 20:44:02 8.6 C 6.7 g/m*3 8.6 C 0 km/h
1664 26-03-2010 20:56:02 8.4 C 6.53 g/m*3 8.4 C 0 km/h
1665 26-03-2010 21:08:02 8.3 C 6.41 g/m*3 8.3 C 0 km/h
1666 26-03-2010 21:20:01 8.5 C 6.15 g/m*3 8.5 C 0 km/h
1667 26-03-2010 21:33:02 8.5 C 6.15 g/m*3 8.5 C 0 km/h
1668 26-03-2010 21:45:03 8.3 C 6.15 g/m*3 8.3 C 0 km/h
1669 26-03-2010 21:57:03 8.4 C 6.19 g/m*3 8.4 C 0 km/h
1670 26-03-2010 22:09:03 8.3 C 6.32 g/m*3 8.3 C 0 km/h
1671 26-03-2010 22:21:03 8.3 C 6.32 g/m*3 8.3 C 0 km/h
1672 26-03-2010 22:33:03 8.2 C 6.36 g/m*3 8.2 C 0 km/h
1673 26-03-2010 22:45:03 8.1 C 6.41 g/m*3 8.1 C 0 km/h
1674 26-03-2010 22:57:03 7.8 C 6.37 g/m*3 7.8 C 0 km/h
1675 26-03-2010 23:09:03 7.7 C 6.49 g/m*3 7.7 C 0 km/h
Sensor: Nr:Datum:Temp:Abs-Feuchte:Windchill:Wind:
Aussen-T/F 1676 26-03-2010 23:21:03 7.8 C 6.53 g/m*3 7.8 C 0 km/h
1677 26-03-2010 23:33:03 7.8 C 6.45 g/m*3 7.8 C 0 km/h
1678 26-03-2010 23:45:03 7.6 C 6.44 g/m*3 7.6 C 0 km/h
1679 26-03-2010 23:57:03 7.7 C 6.49 g/m*3 7.7 C 0 km/h
1680 27-03-2010 00:09:03 7.7 C 6.41 g/m*3 7.7 C 0 km/h
1681 27-03-2010 00:21:03 7.9 C 6.49 g/m*3 7.9 C 0 km/h
1682 27-03-2010 00:33:03 7.9 C 6.49 g/m*3 7.9 C 0 km/h
1683 27-03-2010 00:45:03 8 C 6.45 g/m*3 8 C 0 km/h
1684 27-03-2010 00:57:03 8.2 C 6.45 g/m*3 8.2 C 0 km/h
1685 27-03-2010 01:09:03 8.4 C 6.45 g/m*3 8.4 C 0 km/h
1686 27-03-2010 01:21:03 8.4 C 6.36 g/m*3 8.4 C 0 km/h
1687 27-03-2010 01:33:03 8.5 C 6.4 g/m*3 8.5 C 0 km/h
1688 27-03-2010 01:45:03 8.5 C 6.23 g/m*3 8.5 C 0 km/h
1689 27-03-2010 01:57:03 8.5 C 6.23 g/m*3 8.5 C 0 km/h
1690 27-03-2010 02:09:03 8.5 C 6.06 g/m*3 8.5 C 0 km/h
1691 27-03-2010 02:21:04 8.2 C 6.11 g/m*3 8.2 C 0 km/h
1692 27-03-2010 02:33:04 8.1 C 5.99 g/m*3 8.1 C 0 km/h
1693 27-03-2010 02:45:04 8 C 6.04 g/m*3 8 C 0 km/h
1694 27-03-2010 02:57:04 8.3 C 6.15 g/m*3 8.3 C 0 km/h
1695 27-03-2010 03:09:04 8.4 C 6.19 g/m*3 8.4 C 0 km/h
1696 27-03-2010 03:21:04 8.1 C 6.07 g/m*3 8.1 C 0 km/h
1697 27-03-2010 03:33:04 7.9 C 6.16 g/m*3 7.9 C 0 km/h
1698 27-03-2010 03:45:04 8 C 6.2 g/m*3 8 C 0 km/h
1699 27-03-2010 03:57:04 8.1 C 6.07 g/m*3 8.1 C 0 km/h
1700 27-03-2010 04:09:04 8.1 C 6.07 g/m*3 8.1 C 0 km/h
Sensor: Nr:Datum:Temp:Abs-Feuchte:Windchill:Wind:
Aussen-T/F 1701 27-03-2010 04:21:04 8.2 C 6.03 g/m*3 8.2 C 0 km/h
1702 27-03-2010 04:33:04 8.2 C 6.03 g/m*3 8.2 C 0 km/h
1703 27-03-2010 04:45:04 8.2 C 5.95 g/m*3 8.2 C 0 km/h
1704 27-03-2010 04:57:04 8.2 C 5.95 g/m*3 8.2 C 0 km/h
1705 27-03-2010 05:09:05 8.1 C 5.91 g/m*3 8.1 C 0 km/h
1706 27-03-2010 05:21:05 8.1 C 5.99 g/m*3 8.1 C 0 km/h
1707 27-03-2010 05:33:05 8.1 C 5.99 g/m*3 8.1 C 0 km/h
1708 27-03-2010 05:45:05 8 C 5.95 g/m*3 8 C 0 km/h
1709 27-03-2010 05:57:05 8 C 5.87 g/m*3 8 C 0 km/h
1710 27-03-2010 06:09:05 8 C 5.79 g/m*3 8 C 0 km/h
1711 27-03-2010 06:21:05 8 C 5.7 g/m*3 8 C 0 km/h
1712 27-03-2010 06:33:02 8.1 C 5.74 g/m*3 8.1 C 0 km/h
1713 27-03-2010 06:45:02 8.1 C 5.74 g/m*3 8.1 C 0 km/h
1714 27-03-2010 06:57:02 8.2 C 5.69 g/m*3 8.2 C 0 km/h
1715 27-03-2010 07:09:01 8.3 C 5.65 g/m*3 8.3 C 0 km/h
1716 27-03-2010 07:21:02 8.4 C 5.68 g/m*3 8.4 C 0 km/h
1717 27-03-2010 07:33:02 8.5 C 5.72 g/m*3 8.5 C 0 km/h
1718 27-03-2010 07:45:02 8.5 C 5.64 g/m*3 8.5 C 0 km/h
1719 27-03-2010 07:57:02 8.5 C 5.72 g/m*3 8.5 C 0 km/h
1720 27-03-2010 08:09:02 8.5 C 5.72 g/m*3 8.5 C 0 km/h
1721 27-03-2010 08:21:02 8.7 C 5.79 g/m*3 8.7 C 0 km/h
1722 27-03-2010 08:33:02 8.9 C 5.69 g/m*3 8.9 C 0 km/h
1723 27-03-2010 08:45:01 9.3 C 5.75 g/m*3 9.3 C 0 km/h
1724 27-03-2010 08:57:01 9.6 C 5.68 g/m*3 9.6 C 0 km/h
1725 27-03-2010 09:09:02 10 C 5.54 g/m*3 10 C 0 km/h
Sensor: Nr:Datum:Temp:Abs-Feuchte:Windchill:Wind:
Aussen-T/F 1726 27-03-2010 09:21:01 9.8 C 5.57 g/m*3 9.8 C 0 km/h
1727 27-03-2010 09:33:02 9.5 C 5.55 g/m*3 9.5 C 0 km/h
1728 27-03-2010 09:45:02 9.7 C 5.62 g/m*3 9.7 C 0 km/h
1729 27-03-2010 09:57:02 9.7 C 5.72 g/m*3 9.7 C 0 km/h
1730 27-03-2010 10:09:02 9.7 C 5.62 g/m*3 9.7 C 0 km/h
1731 27-03-2010 10:21:02 9.8 C 5.66 g/m*3 9.8 C 0 km/h
1732 27-03-2010 10:33:02 10.1 C 5.2 g/m*3 10.1 C 0 km/h
1733 27-03-2010 10:45:01 10.6 C 5.17 g/m*3 10.6 C 0 km/h
1734 27-03-2010 10:57:01 11.1 C 5.14 g/m*3 11.1 C 0 km/h
1735 27-03-2010 11:09:02 11.5 C 4.96 g/m*3 11.5 C 0 km/h
1736 27-03-2010 11:21:01 11.3 C 4.79 g/m*3 11.3 C 0 km/h
1737 27-03-2010 11:33:02 11.3 C 5 g/m*3 11.3 C 0 km/h
1738 27-03-2010 11:45:02 11.7 C 4.92 g/m*3 11.7 C 0 km/h
1739 27-03-2010 11:57:02 11.8 C 4.95 g/m*3 11.8 C 0 km/h
1740 27-03-2010 12:09:02 11.9 C 4.87 g/m*3 11.9 C 0 km/h
1741 27-03-2010 12:21:01 11.8 C 4.74 g/m*3 11.8 C 0 km/h
1742 27-03-2010 12:33:02 11.9 C 4.98 g/m*3 11.9 C 0 km/h
1743 27-03-2010 12:45:03 11.6 C 5.3 g/m*3 11.6 C 0 km/h
1744 27-03-2010 12:57:03 10.8 C 5.73 g/m*3 10.8 C 0 km/h
1745 27-03-2010 13:09:02 10.7 C 5.89 g/m*3 10.7 C 0 km/h
1746 27-03-2010 13:21:02 11.4 C 5.85 g/m*3 11.4 C 0 km/h
1747 27-03-2010 13:33:02 11.3 C 5.61 g/m*3 11.3 C 0 km/h
1748 27-03-2010 13:45:02 11.4 C 5.34 g/m*3 11.4 C 0 km/h
1749 27-03-2010 13:57:02 12 C 5.12 g/m*3 12 C 0 km/h
1750 27-03-2010 14:09:02 11.8 C 5.16 g/m*3 11.8 C 0 km/h
Sensor: Nr:Datum:Temp:Abs-Feuchte:Windchill:Wind:
Aussen-T/F 1751 27-03-2010 14:21:02 11.2 C 4.97 g/m*3 11.2 C 0 km/h
1752 27-03-2010 14:33:01 11.1 C 5.04 g/m*3 11.1 C 0 km/h
1753 27-03-2010 14:45:02 10.9 C 5.07 g/m*3 10.9 C 0 km/h
1754 27-03-2010 14:57:03 11 C 5 g/m*3 11 C 0 km/h
1755 27-03-2010 15:09:01 11.2 C 4.97 g/m*3 11.2 C 0 km/h
1756 27-03-2010 15:21:01 11.2 C 4.87 g/m*3 11.2 C 0 km/h
1757 27-03-2010 15:33:02 11.8 C 4.95 g/m*3 11.8 C 0 km/h
1758 27-03-2010 15:45:02 12.5 C 4.84 g/m*3 12.5 C 0 km/h
1759 27-03-2010 15:57:02 12.1 C 4.72 g/m*3 12.1 C 0 km/h
1760 27-03-2010 16:09:02 11.2 C 4.87 g/m*3 11.2 C 0 km/h
1761 27-03-2010 16:21:02 10.8 C 5.04 g/m*3 10.8 C 0 km/h
1762 27-03-2010 16:33:02 10.8 C 5.04 g/m*3 10.8 C 0 km/h
1763 27-03-2010 16:45:02 10.7 C 5.11 g/m*3 10.7 C 0 km/h
1764 27-03-2010 16:57:02 10.7 C 5.11 g/m*3 10.7 C 0 km/h
1765 27-03-2010 17:09:03 11 C 5.1 g/m*3 11 C 0 km/h
1766 27-03-2010 17:21:02 11.6 C 5.09 g/m*3 11.6 C 0 km/h
1767 27-03-2010 17:33:02 11.2 C 5.17 g/m*3 11.2 C 0 km/h
1768 27-03-2010 17:45:01 11.3 C 5.2 g/m*3 11.3 C 0 km/h
1769 27-03-2010 17:57:01 11.8 C 5.05 g/m*3 11.8 C 0 km/h
1770 27-03-2010 18:09:02 11.4 C 5.13 g/m*3 11.4 C 0 km/h
1771 27-03-2010 18:21:01 11.4 C 5.13 g/m*3 11.4 C 0 km/h
1772 27-03-2010 18:33:01 11.3 C 5 g/m*3 11.3 C 0 km/h
1773 27-03-2010 18:45:01 10.5 C 5.14 g/m*3 10.5 C 0 km/h
1774 27-03-2010 18:57:01 10 C 5.17 g/m*3 10 C 0 km/h
1775 27-03-2010 19:09:01 9.5 C 5.19 g/m*3 9.5 C 0 km/h
Sensor: Nr:Datum:Temp:Abs-Feuchte:Windchill:Wind:
Aussen-T/F 1776 27-03-2010 19:21:02 9.2 C 5.27 g/m*3 9.2 C 0 km/h
1777 27-03-2010 19:33:01 8.9 C 5.34 g/m*3 8.9 C 0 km/h
1778 27-03-2010 19:45:02 8.7 C 5.45 g/m*3 8.7 C 0 km/h
1779 27-03-2010 19:57:02 8.5 C 5.55 g/m*3 8.5 C 0 km/h
1780 27-03-2010 20:09:02 8.3 C 5.56 g/m*3 8.3 C 0 km/h
1781 27-03-2010 20:21:02 8.2 C 5.61 g/m*3 8.2 C 0 km/h
1782 27-03-2010 20:33:01 7.9 C 5.67 g/m*3 7.9 C 0 km/h
1783 27-03-2010 20:45:02 7.7 C 5.76 g/m*3 7.7 C 0 km/h
1784 27-03-2010 20:57:02 7.5 C 5.76 g/m*3 7.5 C 0 km/h
1785 27-03-2010 21:09:01 7.4 C 5.81 g/m*3 7.4 C 0 km/h
1786 27-03-2010 21:21:01 7.4 C 5.96 g/m*3 7.4 C 0 km/h
1787 27-03-2010 21:33:02 7.2 C 5.97 g/m*3 7.2 C 0 km/h
1788 27-03-2010 21:45:02 7.2 C 6.04 g/m*3 7.2 C 0 km/h
1789 27-03-2010 21:57:02 7.1 C 6.08 g/m*3 7.1 C 0 km/h
1790 27-03-2010 22:09:02 7.2 C 6.12 g/m*3 7.2 C 0 km/h
1791 27-03-2010 22:21:02 7.1 C 6.16 g/m*3 7.1 C 0 km/h
1792 27-03-2010 22:33:02 7.2 C 6.2 g/m*3 7.2 C 0 km/h
1793 27-03-2010 22:45:02 7.4 C 6.28 g/m*3 7.4 C 0 km/h
1794 27-03-2010 22:57:02 7.4 C 6.2 g/m*3 7.4 C 0 km/h
1795 27-03-2010 23:09:03 7.7 C 6.16 g/m*3 7.7 C 0 km/h
1796 27-03-2010 23:21:02 7.8 C 6.04 g/m*3 7.8 C 0 km/h
1797 27-03-2010 23:33:03 8 C 5.87 g/m*3 8 C 0 km/h
1798 27-03-2010 23:45:02 7.7 C 6 g/m*3 7.7 C 0 km/h
1799 27-03-2010 23:57:02 7.7 C 6 g/m*3 7.7 C 0 km/h
1800 28-03-2010 00:09:02 7.7 C 6 g/m*3 7.7 C 0 km/h
Sensor: Nr:Datum:Temp:Abs-Feuchte:Windchill:Wind:
Aussen-T/F 1801 28-03-2010 00:21:02 7.4 C 5.96 g/m*3 7.4 C 0 km/h
1802 28-03-2010 00:33:02 7.5 C 6.08 g/m*3 7.5 C 0 km/h
1803 28-03-2010 00:45:02 7.7 C 6.08 g/m*3 7.7 C 0 km/h
1804 28-03-2010 00:57:02 7.7 C 6.08 g/m*3 7.7 C 0 km/h
1805 28-03-2010 01:09:02 7.9 C 6.08 g/m*3 7.9 C 0 km/h
1806 28-03-2010 01:21:02 8.2 C 5.95 g/m*3 8.2 C 0 km/h
1807 28-03-2010 01:33:01 8.4 C 5.85 g/m*3 8.4 C 0 km/h
1808 28-03-2010 01:45:02 8.4 C 5.85 g/m*3 8.4 C 0 km/h
1809 28-03-2010 01:57:02 8.1 C 5.82 g/m*3 8.1 C 0 km/h
1810 28-03-2010 02:09:01 7.9 C 5.91 g/m*3 7.9 C 0 km/h
1811 28-03-2010 02:21:02 8.1 C 5.99 g/m*3 8.1 C 0 km/h
1812 28-03-2010 02:33:01 8.4 C 6.02 g/m*3 8.4 C 0 km/h
1813 28-03-2010 02:45:01 8.3 C 5.9 g/m*3 8.3 C 0 km/h
1814 28-03-2010 02:57:01 8.2 C 5.95 g/m*3 8.2 C 0 km/h
1815 28-03-2010 04:09:02 8.2 C 6.03 g/m*3 8.2 C 0 km/h
1816 28-03-2010 04:21:01 8.1 C 5.99 g/m*3 8.1 C 0 km/h
1817 28-03-2010 04:33:01 8.2 C 6.11 g/m*3 8.2 C 0 km/h
1818 28-03-2010 04:45:01 8.2 C 6.11 g/m*3 8.2 C 0 km/h
1819 28-03-2010 04:57:01 8.2 C 6.11 g/m*3 8.2 C 0 km/h
1820 28-03-2010 05:09:01 8.2 C 6.03 g/m*3 8.2 C 0 km/h
1821 28-03-2010 05:21:02 8.2 C 6.11 g/m*3 8.2 C 0 km/h
1822 28-03-2010 05:33:01 8.1 C 6.24 g/m*3 8.1 C 0 km/h
1823 28-03-2010 05:45:01 8.1 C 6.32 g/m*3 8.1 C 0 km/h
1824 28-03-2010 05:57:01 8.1 C 6.32 g/m*3 8.1 C 0 km/h
1825 28-03-2010 06:09:01 8.2 C 6.28 g/m*3 8.2 C 0 km/h
Sensor: Nr:Datum:Temp:Abs-Feuchte:Windchill:Wind:
Aussen-T/F 1826 28-03-2010 06:21:02 8.4 C 6.36 g/m*3 8.4 C 0 km/h
1827 28-03-2010 06:33:01 8.4 C 6.28 g/m*3 8.4 C 0 km/h
1828 28-03-2010 06:45:02 8.4 C 6.36 g/m*3 8.4 C 0 km/h
1829 28-03-2010 06:57:02 8.3 C 6.32 g/m*3 8.3 C 0 km/h
1830 28-03-2010 07:09:01 8.2 C 6.28 g/m*3 8.2 C 0 km/h
1831 28-03-2010 07:21:01 8.2 C 6.28 g/m*3 8.2 C 0 km/h
1832 28-03-2010 07:33:01 8.2 C 6.11 g/m*3 8.2 C 0 km/h
1833 28-03-2010 07:45:01 8.2 C 6.11 g/m*3 8.2 C 0 km/h
1834 28-03-2010 07:57:02 8.3 C 6.15 g/m*3 8.3 C 0 km/h
1835 28-03-2010 08:09:01 8.6 C 6.27 g/m*3 8.6 C 0 km/h
1836 28-03-2010 08:21:01 8.7 C 6.23 g/m*3 8.7 C 0 km/h
1837 28-03-2010 08:33:02 8.9 C 6.22 g/m*3 8.9 C 0 km/h
1838 28-03-2010 08:45:01 9 C 6.08 g/m*3 9 C 0 km/h
1839 28-03-2010 08:57:01 9.1 C 6.03 g/m*3 9.1 C 0 km/h
1840 28-03-2010 09:09:02 9.1 C 5.94 g/m*3 9.1 C 0 km/h
1841 28-03-2010 09:21:01 9.2 C 5.98 g/m*3 9.2 C 0 km/h
1842 28-03-2010 09:33:02 9.8 C 5.94 g/m*3 9.8 C 0 km/h
1843 28-03-2010 09:45:01 10.2 C 5.9 g/m*3 10.2 C 0 km/h
1844 28-03-2010 09:57:01 10.4 C 5.88 g/m*3 10.4 C 0 km/h
1845 28-03-2010 10:09:02 10.2 C 5.71 g/m*3 10.2 C 0 km/h
1846 28-03-2010 10:21:01 10.1 C 5.77 g/m*3 10.1 C 0 km/h
1847 28-03-2010 10:33:01 10.5 C 5.82 g/m*3 10.5 C 0 km/h
1848 28-03-2010 10:45:01 10.7 C 5.8 g/m*3 10.7 C 0 km/h
1849 28-03-2010 10:57:01 10.7 C 5.8 g/m*3 10.7 C 0 km/h
1850 28-03-2010 11:09:01 11.2 C 5.47 g/m*3 11.2 C 0 km/h
Sensor: Nr:Datum:Temp:Abs-Feuchte:Windchill:Wind:
Aussen-T/F 1851 28-03-2010 11:21:01 10.9 C 5.37 g/m*3 10.9 C 0 km/h
1852 28-03-2010 11:33:01 10.9 C 5.57 g/m*3 10.9 C 0 km/h
1853 28-03-2010 11:45:01 11.7 C 5.54 g/m*3 11.7 C 0 km/h
1854 28-03-2010 11:57:01 11.3 C 5.41 g/m*3 11.3 C 0 km/h
1855 28-03-2010 12:09:01 11 C 5.31 g/m*3 11 C 0 km/h
1856 28-03-2010 12:21:02 10.8 C 5.63 g/m*3 10.8 C 0 km/h
1857 28-03-2010 12:33:01 11.8 C 5.79 g/m*3 11.8 C 0 km/h
1858 28-03-2010 12:45:02 12 C 5.44 g/m*3 12 C 0 km/h
1859 28-03-2010 12:57:02 11.6 C 5.4 g/m*3 11.6 C 0 km/h
1860 28-03-2010 13:09:01 11.6 C 5.51 g/m*3 11.6 C 0 km/h
1861 28-03-2010 13:21:02 12.3 C 5.21 g/m*3 12.3 C 0 km/h
1862 28-03-2010 13:33:01 11.9 C 5.3 g/m*3 11.9 C 0 km/h
1863 28-03-2010 13:45:02 11.7 C 5.23 g/m*3 11.7 C 0 km/h
1864 28-03-2010 13:57:02 11.5 C 5.37 g/m*3 11.5 C 0 km/h
1865 28-03-2010 14:09:01 11.7 C 5.44 g/m*3 11.7 C 0 km/h
1866 28-03-2010 14:21:01 12 C 5.22 g/m*3 12 C 0 km/h
1867 28-03-2010 14:33:02 11.9 C 5.3 g/m*3 11.9 C 0 km/h
1868 28-03-2010 14:45:01 10.2 C 6.19 g/m*3 10.2 C 0 km/h
1869 28-03-2010 14:57:01 9.3 C 6.47 g/m*3 9.3 C 0 km/h
1870 28-03-2010 15:09:01 10.1 C 6.81 g/m*3 10.1 C 0 km/h
1871 28-03-2010 15:21:01 11.3 C 6.43 g/m*3 11.3 C 0 km/h
1872 28-03-2010 15:33:02 11.7 C 6.48 g/m*3 11.7 C 0 km/h
1873 28-03-2010 15:45:01 13.1 C 6.5 g/m*3 13.1 C 0 km/h
1874 28-03-2010 15:57:01 13.7 C 6.16 g/m*3 13.7 C 0 km/h
1875 28-03-2010 16:09:02 13.7 C 5.68 g/m*3 13.7 C 0 km/h
Sensor: Nr:Datum:Temp:Abs-Feuchte:Windchill:Wind:
Aussen-T/F 1876 28-03-2010 16:21:01 13.4 C 4.88 g/m*3 13.4 C 0 km/h
1877 28-03-2010 16:33:01 13.1 C 4.91 g/m*3 13.1 C 0 km/h
1878 28-03-2010 16:45:01 12.6 C 5.09 g/m*3 12.6 C 0 km/h
1879 28-03-2010 16:57:01 11 C 6.51 g/m*3 11 C 0 km/h
1880 28-03-2010 17:09:02 11.1 C 7.15 g/m*3 11.1 C 0 km/h
1881 28-03-2010 17:21:01 11.4 C 6.88 g/m*3 11.4 C 0 km/h
1882 28-03-2010 17:33:01 11.6 C 6.86 g/m*3 11.6 C 0 km/h
1883 28-03-2010 17:45:01 11.7 C 7.01 g/m*3 11.7 C 0 km/h
1884 28-03-2010 17:57:01 11.7 C 6.07 g/m*3 11.7 C 0 km/h
1885 28-03-2010 18:09:01 11.6 C 6.03 g/m*3 11.6 C 0 km/h
1886 28-03-2010 18:21:02 11.5 C 5.78 g/m*3 11.5 C 0 km/h
1887 28-03-2010 18:33:01 11.4 C 5.85 g/m*3 11.4 C 0 km/h
1888 28-03-2010 18:45:01 11.3 C 5.92 g/m*3 11.3 C 0 km/h
1889 28-03-2010 18:57:01 11.3 C 6.12 g/m*3 11.3 C 0 km/h
1890 28-03-2010 19:09:01 11.2 C 6.08 g/m*3 11.2 C 0 km/h
1891 28-03-2010 19:21:02 11.1 C 6.25 g/m*3 11.1 C 0 km/h
1892 28-03-2010 19:33:01 10.9 C 6.37 g/m*3 10.9 C 0 km/h
1893 28-03-2010 19:45:02 10.3 C 6.61 g/m*3 10.3 C 0 km/h
1894 28-03-2010 19:57:02 10 C 6.77 g/m*3 10 C 0 km/h
1895 28-03-2010 20:09:01 9.9 C 6.91 g/m*3 9.9 C 0 km/h
1896 28-03-2010 20:21:01 9.8 C 6.96 g/m*3 9.8 C 0 km/h
1897 28-03-2010 20:33:01 9.8 C 6.96 g/m*3 9.8 C 0 km/h
1898 28-03-2010 20:45:01 9.9 C 6.91 g/m*3 9.9 C 0 km/h
1899 28-03-2010 20:57:02 9.9 C 6.91 g/m*3 9.9 C 0 km/h
1900 28-03-2010 21:09:01 9.9 C 6.91 g/m*3 9.9 C 0 km/h
Sensor: Nr:Datum:Temp:Abs-Feuchte:Windchill:Wind:
Aussen-T/F 1901 28-03-2010 21:21:01 9.9 C 6.82 g/m*3 9.9 C 0 km/h
1902 28-03-2010 21:33:02 9.9 C 6.82 g/m*3 9.9 C 0 km/h
1903 28-03-2010 21:45:01 9.8 C 6.87 g/m*3 9.8 C 0 km/h
1904 28-03-2010 21:57:01 9.8 C 6.87 g/m*3 9.8 C 0 km/h
1905 28-03-2010 22:10:04 9.7 C 6.91 g/m*3 9.7 C 0 km/h
1906 28-03-2010 22:22:04 9.6 C 6.78 g/m*3 9.6 C 0 km/h
1907 28-03-2010 22:34:04 9.5 C 6.74 g/m*3 9.5 C 0 km/h
1908 28-03-2010 22:46:04 9.4 C 6.87 g/m*3 9.4 C 0 km/h
1909 28-03-2010 22:58:04 9.4 C 6.87 g/m*3 9.4 C 0 km/h
1910 28-03-2010 23:10:04 9.5 C 6.92 g/m*3 9.5 C 0 km/h
1911 28-03-2010 23:22:04 9.3 C 6.83 g/m*3 9.3 C 0 km/h
1912 28-03-2010 23:34:04 9.4 C 6.96 g/m*3 9.4 C 0 km/h
1913 28-03-2010 23:46:04 9.7 C 6.91 g/m*3 9.7 C 0 km/h
1914 28-03-2010 23:58:04 9.8 C 6.87 g/m*3 9.8 C 0 km/h
1915 29-03-2010 00:10:04 10 C 6.86 g/m*3 10 C 0 km/h
1916 29-03-2010 00:22:04 10 C 6.77 g/m*3 10 C 0 km/h
1917 29-03-2010 00:34:04 9.8 C 6.87 g/m*3 9.8 C 0 km/h
1918 29-03-2010 00:46:04 9.8 C 6.87 g/m*3 9.8 C 0 km/h
1919 29-03-2010 00:58:04 9.8 C 6.87 g/m*3 9.8 C 0 km/h
1920 29-03-2010 01:10:04 9.8 C 7.05 g/m*3 9.8 C 0 km/h
1921 29-03-2010 01:22:04 9.7 C 7.1 g/m*3 9.7 C 0 km/h
1922 29-03-2010 01:34:04 9.6 C 7.15 g/m*3 9.6 C 0 km/h
1923 29-03-2010 01:46:05 9.6 C 7.15 g/m*3 9.6 C 0 km/h
1924 29-03-2010 01:58:05 9.6 C 7.24 g/m*3 9.6 C 0 km/h
1925 29-03-2010 02:10:05 9.5 C 7.28 g/m*3 9.5 C 0 km/h
Sensor: Nr:Datum:Temp:Abs-Feuchte:Windchill:Wind:
Aussen-T/F 1926 29-03-2010 02:22:05 9.3 C 7.28 g/m*3 9.3 C 0 km/h
1927 29-03-2010 02:34:05 9.3 C 7.46 g/m*3 9.3 C 0 km/h
1928 29-03-2010 02:46:05 9.3 C 7.55 g/m*3 9.3 C 0 km/h
1929 29-03-2010 02:58:05 9.3 C 7.64 g/m*3 9.3 C 0 km/h
1930 29-03-2010 03:10:05 9.3 C 7.73 g/m*3 9.3 C 0 km/h
1931 29-03-2010 03:22:05 9.4 C 7.87 g/m*3 9.4 C 0 km/h
1932 29-03-2010 03:34:05 10 C 7.99 g/m*3 10 C 0 km/h
1933 29-03-2010 03:46:05 10.4 C 8.1 g/m*3 10.4 C 0 km/h
1934 29-03-2010 03:58:05 10.6 C 8 g/m*3 10.6 C 0 km/h
1935 29-03-2010 04:10:05 11 C 8.01 g/m*3 11 C 0 km/h
1936 29-03-2010 04:22:05 11.1 C 7.96 g/m*3 11.1 C 0 km/h
1937 29-03-2010 04:34:05 11.3 C 7.96 g/m*3 11.3 C 0 km/h
1938 29-03-2010 04:46:05 11.5 C 7.95 g/m*3 11.5 C 0 km/h
1939 29-03-2010 04:58:05 11.5 C 7.95 g/m*3 11.5 C 0 km/h
1940 29-03-2010 05:10:05 11.5 C 7.95 g/m*3 11.5 C 0 km/h
1941 29-03-2010 05:22:05 11.5 C 7.95 g/m*3 11.5 C 0 km/h
1942 29-03-2010 05:34:05 11.5 C 8.06 g/m*3 11.5 C 0 km/h
1943 29-03-2010 05:46:05 11.4 C 8.01 g/m*3 11.4 C 0 km/h
1944 29-03-2010 05:58:05 11.5 C 8.06 g/m*3 11.5 C 0 km/h
1945 29-03-2010 06:10:05 11.5 C 8.06 g/m*3 11.5 C 0 km/h
1946 29-03-2010 06:22:06 11.5 C 8.06 g/m*3 11.5 C 0 km/h
1947 29-03-2010 06:34:06 11.5 C 7.95 g/m*3 11.5 C 0 km/h
1948 29-03-2010 06:46:01 11.4 C 7.9 g/m*3 11.4 C 0 km/h
1949 29-03-2010 06:58:01 11.4 C 8.11 g/m*3 11.4 C 0 km/h
1950 29-03-2010 07:10:02 11.2 C 8.11 g/m*3 11.2 C 0 km/h
Sensor: Nr:Datum:Temp:Abs-Feuchte:Windchill:Wind:
Aussen-T/F 1951 29-03-2010 07:22:02 10.9 C 8.26 g/m*3 10.9 C 0 km/h
1952 29-03-2010 07:34:02 10.7 C 8.35 g/m*3 10.7 C 0 km/h
1953 29-03-2010 07:46:02 10.6 C 8.49 g/m*3 10.6 C 0 km/h
1954 29-03-2010 07:58:02 10.6 C 8.59 g/m*3 10.6 C 0 km/h
1955 29-03-2010 08:10:02 10.7 C 8.55 g/m*3 10.7 C 0 km/h
1956 29-03-2010 08:22:01 10.8 C 8.5 g/m*3 10.8 C 0 km/h
1957 29-03-2010 08:34:02 11.2 C 8.41 g/m*3 11.2 C 0 km/h
1958 29-03-2010 08:46:02 11.4 C 8.11 g/m*3 11.4 C 0 km/h
1959 29-03-2010 08:58:02 11.6 C 8 g/m*3 11.6 C 0 km/h
1960 29-03-2010 09:10:02 11.8 C 7.89 g/m*3 11.8 C 0 km/h
1961 29-03-2010 09:22:01 11.9 C 7.84 g/m*3 11.9 C 0 km/h
1962 29-03-2010 09:34:02 12 C 7.78 g/m*3 12 C 0 km/h
1963 29-03-2010 09:46:01 12.1 C 7.72 g/m*3 12.1 C 0 km/h
1964 29-03-2010 09:58:01 12.2 C 7.77 g/m*3 12.2 C 0 km/h
1965 29-03-2010 10:10:02 12.4 C 7.87 g/m*3 12.4 C 0 km/h
1966 29-03-2010 10:22:02 12.6 C 7.85 g/m*3 12.6 C 0 km/h
1967 29-03-2010 10:34:02 12.7 C 7.9 g/m*3 12.7 C 0 km/h
1968 29-03-2010 10:46:02 12.5 C 7.7 g/m*3 12.5 C 0 km/h
1969 29-03-2010 10:58:02 13 C 7.83 g/m*3 13 C 0 km/h
1970 29-03-2010 11:10:02 13.1 C 7.87 g/m*3 13.1 C 0 km/h
1971 29-03-2010 11:22:02 13.3 C 7.86 g/m*3 13.3 C 0 km/h
1972 29-03-2010 11:34:01 13.5 C 7.84 g/m*3 13.5 C 0 km/h
1973 29-03-2010 11:46:02 13.9 C 7.91 g/m*3 13.9 C 0 km/h
1974 29-03-2010 11:58:02 14 C 7.72 g/m*3 14 C 0 km/h
1975 29-03-2010 12:10:01 14.4 C 7.66 g/m*3 14.4 C 0 km/h
Sensor: Nr:Datum:Temp:Abs-Feuchte:Windchill:Wind:
Aussen-T/F 1976 29-03-2010 12:22:02 15 C 7.57 g/m*3 15 C 0 km/h
1977 29-03-2010 12:34:01 15.3 C 7.44 g/m*3 15.3 C 0 km/h
1978 29-03-2010 12:46:02 14.9 C 7.52 g/m*3 14.9 C 0 km/h
1979 29-03-2010 12:58:02 14.9 C 7.39 g/m*3 14.9 C 0 km/h
1980 29-03-2010 13:10:02 15.3 C 7.18 g/m*3 15.3 C 0 km/h
1981 29-03-2010 13:22:02 14.8 C 7.09 g/m*3 14.8 C 0 km/h
1982 29-03-2010 13:34:03 14.6 C 7.38 g/m*3 14.6 C 0 km/h
1983 29-03-2010 13:46:02 14.4 C 7.54 g/m*3 14.4 C 0 km/h
1984 29-03-2010 13:58:02 13.8 C 8.1 g/m*3 13.8 C 0 km/h
1985 29-03-2010 14:10:01 14.2 C 8.91 g/m*3 14.2 C 0 km/h
1986 29-03-2010 14:22:02 14.7 C 8.69 g/m*3 14.7 C 0 km/h
1987 29-03-2010 14:34:02 14.2 C 7.82 g/m*3 14.2 C 0 km/h
1988 29-03-2010 14:46:02 13.1 C 8.33 g/m*3 13.1 C 0 km/h
1989 29-03-2010 14:58:02 12.7 C 8.13 g/m*3 12.7 C 0 km/h
1990 29-03-2010 15:10:02 13.2 C 8.38 g/m*3 13.2 C 0 km/h
1991 29-03-2010 15:22:02 12.8 C 8.4 g/m*3 12.8 C 0 km/h
1992 29-03-2010 15:34:02 12.8 C 8.62 g/m*3 12.8 C 0 km/h
1993 29-03-2010 15:46:02 12.7 C 8.68 g/m*3 12.7 C 0 km/h
1994 29-03-2010 15:58:02 13.4 C 8.6 g/m*3 13.4 C 0 km/h
1995 29-03-2010 16:10:02 14 C 8.2 g/m*3 14 C 0 km/h
1996 29-03-2010 16:22:02 14.2 C 7.69 g/m*3 14.2 C 0 km/h
1997 29-03-2010 16:34:02 14.3 C 7.62 g/m*3 14.3 C 0 km/h
1998 29-03-2010 16:46:02 14 C 7.96 g/m*3 14 C 0 km/h
1999 29-03-2010 16:58:02 13.8 C 8.22 g/m*3 13.8 C 0 km/h
2000 29-03-2010 17:10:02 12.2 C 8.31 g/m*3 12.2 C 0 km/h
Sensor: Nr:Datum:Temp:Abs-Feuchte:Windchill:Wind:
Aussen-T/F 2001 29-03-2010 17:22:03 12.2 C 8.96 g/m*3 12.2 C 0 km/h
2002 29-03-2010 17:34:02 12.6 C 9.4 g/m*3 12.6 C 0 km/h
2003 29-03-2010 17:46:02 14.2 C 10.14 g/m*3 14.2 C 0 km/h
2004 29-03-2010 17:58:02 14.5 C 9.45 g/m*3 14.5 C 0 km/h
2005 29-03-2010 18:10:02 14.7 C 9.44 g/m*3 14.7 C 0 km/h
2006 29-03-2010 18:22:02 14.9 C 8.92 g/m*3 14.9 C 0 km/h
2007 29-03-2010 18:34:02 14.8 C 8.87 g/m*3 14.8 C 0 km/h
2008 29-03-2010 18:46:02 14.5 C 8.83 g/m*3 14.5 C 0 km/h
2009 29-03-2010 18:58:02 14.4 C 9.02 g/m*3 14.4 C 0 km/h
2010 29-03-2010 19:10:01 14.2 C 8.91 g/m*3 14.2 C 0 km/h
2011 29-03-2010 19:22:02 13.7 C 8.76 g/m*3 13.7 C 0 km/h
2012 29-03-2010 19:34:01 13 C 8.73 g/m*3 13 C 0 km/h
2013 29-03-2010 19:46:02 12.2 C 8.52 g/m*3 12.2 C 0 km/h
2014 29-03-2010 19:58:02 11.7 C 8.37 g/m*3 11.7 C 0 km/h
2015 29-03-2010 20:10:01 11.2 C 8.21 g/m*3 11.2 C 0 km/h
2016 29-03-2010 20:22:01 10.8 C 8.2 g/m*3 10.8 C 0 km/h
2017 29-03-2010 20:34:02 10.6 C 8.2 g/m*3 10.6 C 0 km/h
2018 29-03-2010 20:46:02 10.5 C 8.15 g/m*3 10.5 C 0 km/h
2019 29-03-2010 20:58:02 10.4 C 8.1 g/m*3 10.4 C 0 km/h
2020 29-03-2010 21:10:01 10.3 C 8.04 g/m*3 10.3 C 0 km/h
2021 29-03-2010 21:22:02 10.2 C 7.99 g/m*3 10.2 C 0 km/h
2022 29-03-2010 21:34:02 10.3 C 8.04 g/m*3 10.3 C 0 km/h
2023 29-03-2010 21:47:02 10.3 C 8.04 g/m*3 10.3 C 0 km/h
2024 29-03-2010 21:59:02 10.2 C 7.99 g/m*3 10.2 C 0 km/h
2025 29-03-2010 22:11:02 10 C 7.89 g/m*3 10 C 0 km/h
Sensor: Nr:Datum:Temp:Abs-Feuchte:Windchill:Wind:
Aussen-T/F 2026 29-03-2010 22:23:03 10 C 7.89 g/m*3 10 C 0 km/h
2027 29-03-2010 22:35:03 9.9 C 7.94 g/m*3 9.9 C 0 km/h
2028 29-03-2010 22:47:03 9.8 C 7.89 g/m*3 9.8 C 0 km/h
2029 29-03-2010 22:59:03 9.9 C 8.03 g/m*3 9.9 C 0 km/h
2030 29-03-2010 23:11:03 9.9 C 7.94 g/m*3 9.9 C 0 km/h
2031 29-03-2010 23:23:03 9.9 C 7.94 g/m*3 9.9 C 0 km/h
2032 29-03-2010 23:35:03 10.1 C 7.85 g/m*3 10.1 C 0 km/h
2033 29-03-2010 23:47:03 10.1 C 7.66 g/m*3 10.1 C 0 km/h
2034 29-03-2010 23:59:03 10.2 C 7.71 g/m*3 10.2 C 0 km/h
2035 30-03-2010 00:11:03 10.2 C 7.61 g/m*3 10.2 C 0 km/h
2036 30-03-2010 00:23:03 10.3 C 7.66 g/m*3 10.3 C 0 km/h
2037 30-03-2010 00:35:03 10.6 C 7.71 g/m*3 10.6 C 0 km/h
2038 30-03-2010 00:47:03 10.7 C 7.66 g/m*3 10.7 C 0 km/h
2039 30-03-2010 00:59:03 11.1 C 7.66 g/m*3 11.1 C 0 km/h
2040 30-03-2010 01:11:03 11.3 C 7.65 g/m*3 11.3 C 0 km/h
2041 30-03-2010 01:23:03 11.3 C 7.65 g/m*3 11.3 C 0 km/h
2042 30-03-2010 01:35:03 11.3 C 7.55 g/m*3 11.3 C 0 km/h
2043 30-03-2010 01:47:03 11 C 7.41 g/m*3 11 C 0 km/h
2044 30-03-2010 01:59:03 11.1 C 7.35 g/m*3 11.1 C 0 km/h
2045 30-03-2010 02:11:03 11.3 C 7.24 g/m*3 11.3 C 0 km/h
2046 30-03-2010 02:23:03 11.3 C 7.24 g/m*3 11.3 C 0 km/h
2047 30-03-2010 02:35:03 11.1 C 7.25 g/m*3 11.1 C 0 km/h
2048 30-03-2010 02:47:04 11.7 C 7.22 g/m*3 11.7 C 0 km/h
2049 30-03-2010 02:59:04 11.6 C 7.17 g/m*3 11.6 C 0 km/h
2050 30-03-2010 03:11:04 11.3 C 7.14 g/m*3 11.3 C 0 km/h
Sensor: Nr:Datum:Temp:Abs-Feuchte:Windchill:Wind:
Aussen-T/F 2051 30-03-2010 03:23:04 11.3 C 7.24 g/m*3 11.3 C 0 km/h
2052 30-03-2010 03:35:04 10.9 C 7.16 g/m*3 10.9 C 0 km/h
2053 30-03-2010 03:47:04 10.8 C 7.22 g/m*3 10.8 C 0 km/h
2054 30-03-2010 03:59:04 11 C 7.21 g/m*3 11 C 0 km/h
2055 30-03-2010 04:11:04 11.4 C 7.29 g/m*3 11.4 C 0 km/h
2056 30-03-2010 04:23:04 11.4 C 7.19 g/m*3 11.4 C 0 km/h
2057 30-03-2010 04:35:04 11.5 C 7.13 g/m*3 11.5 C 0 km/h
2058 30-03-2010 04:47:04 11.4 C 7.08 g/m*3 11.4 C 0 km/h
2059 30-03-2010 04:59:04 11.3 C 7.14 g/m*3 11.3 C 0 km/h
2060 30-03-2010 05:11:04 11.4 C 7.29 g/m*3 11.4 C 0 km/h
2061 30-03-2010 05:23:04 11.1 C 7.05 g/m*3 11.1 C 0 km/h
2062 30-03-2010 05:35:04 11 C 7.01 g/m*3 11 C 0 km/h
2063 30-03-2010 05:47:04 10.7 C 7.07 g/m*3 10.7 C 0 km/h
2064 30-03-2010 05:59:04 10.5 C 6.98 g/m*3 10.5 C 0 km/h
2065 30-03-2010 06:11:04 10.5 C 7.08 g/m*3 10.5 C 0 km/h
2066 30-03-2010 06:23:04 10.3 C 7.09 g/m*3 10.3 C 0 km/h
2067 30-03-2010 06:35:04 10 C 6.95 g/m*3 10 C 0 km/h
2068 30-03-2010 06:47:04 9.8 C 7.14 g/m*3 9.8 C 0 km/h
2069 30-03-2010 06:59:04 9.8 C 7.24 g/m*3 9.8 C 0 km/h
2070 30-03-2010 07:11:01 10 C 7.14 g/m*3 10 C 0 km/h
2071 30-03-2010 07:23:02 10.2 C 7.04 g/m*3 10.2 C 0 km/h
2072 30-03-2010 07:35:02 10.5 C 6.89 g/m*3 10.5 C 0 km/h
2073 30-03-2010 07:47:02 10.6 C 6.83 g/m*3 10.6 C 0 km/h
2074 30-03-2010 07:59:02 10.7 C 6.88 g/m*3 10.7 C 0 km/h
2075 30-03-2010 08:11:02 10.7 C 6.88 g/m*3 10.7 C 0 km/h
Sensor: Nr:Datum:Temp:Abs-Feuchte:Windchill:Wind:
Aussen-T/F 2076 30-03-2010 08:23:02 11 C 6.91 g/m*3 11 C 0 km/h
2077 30-03-2010 08:35:02 11.1 C 6.85 g/m*3 11.1 C 0 km/h
2078 30-03-2010 08:47:01 11.4 C 6.67 g/m*3 11.4 C 0 km/h
2079 30-03-2010 08:59:01 11.4 C 6.77 g/m*3 11.4 C 0 km/h
2080 30-03-2010 09:11:02 11.8 C 6.95 g/m*3 11.8 C 0 km/h
2081 30-03-2010 09:23:01 12.2 C 6.69 g/m*3 12.2 C 0 km/h
2082 30-03-2010 09:35:02 12.6 C 6.75 g/m*3 12.6 C 0 km/h
2083 30-03-2010 09:47:02 12.9 C 6.54 g/m*3 12.9 C 0 km/h
2084 30-03-2010 09:59:02 13.1 C 6.39 g/m*3 13.1 C 0 km/h
2085 30-03-2010 10:11:02 13.2 C 6.43 g/m*3 13.2 C 0 km/h
2086 30-03-2010 10:23:01 13.1 C 5.93 g/m*3 13.1 C 0 km/h
2087 30-03-2010 10:35:02 14.2 C 6.11 g/m*3 14.2 C 0 km/h
2088 30-03-2010 10:47:02 14.4 C 5.07 g/m*3 14.4 C 0 km/h
2089 30-03-2010 10:59:02 14.1 C 4.85 g/m*3 14.1 C 0 km/h
2090 30-03-2010 11:11:02 14.1 C 4.98 g/m*3 14.1 C 0 km/h
2091 30-03-2010 11:23:01 15 C 4.74 g/m*3 15 C 0 km/h
2092 30-03-2010 11:35:02 15.2 C 4.67 g/m*3 15.2 C 0 km/h
2093 30-03-2010 11:47:02 15.3 C 4.57 g/m*3 15.3 C 0 km/h
2094 30-03-2010 11:59:02 15.8 C 4.71 g/m*3 15.8 C 0 km/h
2095 30-03-2010 12:11:02 16 C 4.63 g/m*3 16 C 0 km/h
2096 30-03-2010 12:23:02 16.2 C 4.55 g/m*3 16.2 C 0 km/h
2097 30-03-2010 12:35:02 16.6 C 4.66 g/m*3 16.6 C 0 km/h
2098 30-03-2010 12:47:02 16.7 C 4.55 g/m*3 16.7 C 0 km/h
2099 30-03-2010 12:59:02 17.2 C 4.69 g/m*3 17.2 C 0 km/h
2100 30-03-2010 13:11:02 17.4 C 4.59 g/m*3 17.4 C 0 km/h
Sensor: Nr:Datum:Temp:Abs-Feuchte:Windchill:Wind:
Aussen-T/F 2101 30-03-2010 13:23:02 17.3 C 4.71 g/m*3 17.3 C 0 km/h
2102 30-03-2010 13:35:02 17.7 C 4.83 g/m*3 17.7 C 0 km/h
2103 30-03-2010 13:47:02 18.1 C 4.79 g/m*3 18.1 C 0 km/h
2104 30-03-2010 13:59:02 18.2 C 4.66 g/m*3 18.2 C 0 km/h
2105 30-03-2010 14:11:02 18.5 C 4.9 g/m*3 18.5 C 0 km/h
2106 30-03-2010 14:23:02 18.9 C 4.7 g/m*3 18.9 C 0 km/h
2107 30-03-2010 14:35:01 18.3 C 4.53 g/m*3 18.3 C 0 km/h
2108 30-03-2010 14:47:02 18 C 4.61 g/m*3 18 C 0 km/h
2109 30-03-2010 14:59:02 17.7 C 4.68 g/m*3 17.7 C 0 km/h
2110 30-03-2010 15:11:01 17.9 C 4.58 g/m*3 17.9 C 0 km/h
2111 30-03-2010 15:23:01 17.7 C 4.68 g/m*3 17.7 C 0 km/h
2112 30-03-2010 15:35:02 18.6 C 4.62 g/m*3 18.6 C 0 km/h
2113 30-03-2010 15:47:02 18.7 C 4.48 g/m*3 18.7 C 0 km/h
2114 30-03-2010 15:59:03 18.2 C 4.51 g/m*3 18.2 C 0 km/h
2115 30-03-2010 16:11:02 18.7 C 4.64 g/m*3 18.7 C 0 km/h
2116 30-03-2010 16:23:02 17.5 C 5.22 g/m*3 17.5 C 0 km/h
2117 30-03-2010 16:35:02 16.4 C 5.58 g/m*3 16.4 C 0 km/h
2118 30-03-2010 16:47:01 15.9 C 5.55 g/m*3 15.9 C 0 km/h
2119 30-03-2010 16:59:01 15.6 C 5.45 g/m*3 15.6 C 0 km/h
2120 30-03-2010 17:11:02 14.9 C 5.48 g/m*3 14.9 C 0 km/h
2121 30-03-2010 17:23:01 14.4 C 5.44 g/m*3 14.4 C 0 km/h
2122 30-03-2010 17:35:02 14.2 C 5.49 g/m*3 14.2 C 0 km/h
2123 30-03-2010 17:47:02 14 C 5.43 g/m*3 14 C 0 km/h
2124 30-03-2010 17:59:02 13.8 C 5.48 g/m*3 13.8 C 0 km/h
2125 30-03-2010 18:11:02 13.6 C 5.65 g/m*3 13.6 C 0 km/h
Sensor: Nr:Datum:Temp:Abs-Feuchte:Windchill:Wind:
Aussen-T/F 2126 30-03-2010 18:23:02 13.3 C 5.89 g/m*3 13.3 C 0 km/h
2127 30-03-2010 18:35:02 12.9 C 6.2 g/m*3 12.9 C 0 km/h
2128 30-03-2010 18:47:02 12 C 6.39 g/m*3 12 C 0 km/h
2129 30-03-2010 18:59:02 11.6 C 6.65 g/m*3 11.6 C 0 km/h
2130 30-03-2010 19:11:02 11.5 C 6.82 g/m*3 11.5 C 0 km/h
2131 30-03-2010 19:23:02 11.1 C 6.65 g/m*3 11.1 C 0 km/h
2132 30-03-2010 19:35:02 11.3 C 6.73 g/m*3 11.3 C 0 km/h
2133 30-03-2010 19:47:01 11.4 C 6.67 g/m*3 11.4 C 0 km/h
2134 30-03-2010 19:59:01 11.3 C 6.43 g/m*3 11.3 C 0 km/h
2135 30-03-2010 20:11:02 10.9 C 6.47 g/m*3 10.9 C 0 km/h
2136 30-03-2010 20:23:01 10.5 C 6.4 g/m*3 10.5 C 0 km/h
2137 30-03-2010 20:35:01 10.6 C 6.44 g/m*3 10.6 C 0 km/h
2138 30-03-2010 20:47:01 10.7 C 6.38 g/m*3 10.7 C 0 km/h
2139 30-03-2010 20:59:01 10.7 C 6.29 g/m*3 10.7 C 0 km/h
2140 30-03-2010 21:11:02 10.4 C 6.36 g/m*3 10.4 C 0 km/h
2141 30-03-2010 21:23:01 10.1 C 6.24 g/m*3 10.1 C 0 km/h
2142 30-03-2010 21:35:01 10 C 6.3 g/m*3 10 C 0 km/h
2143 30-03-2010 21:47:01 9.8 C 6.31 g/m*3 9.8 C 0 km/h
2144 30-03-2010 21:59:01 9.7 C 6.27 g/m*3 9.7 C 0 km/h
2145 30-03-2010 22:11:02 9.4 C 6.24 g/m*3 9.4 C 0 km/h
2146 30-03-2010 22:23:02 9.3 C 6.29 g/m*3 9.3 C 0 km/h
2147 30-03-2010 22:36:04 9.6 C 6.32 g/m*3 9.6 C 0 km/h
2148 30-03-2010 22:48:05 9.8 C 6.12 g/m*3 9.8 C 0 km/h
2149 30-03-2010 23:00:05 10.2 C 5.8 g/m*3 10.2 C 0 km/h
2150 30-03-2010 23:12:05 10.6 C 5.76 g/m*3 10.6 C 0 km/h
Sensor: Nr:Datum:Temp:Abs-Feuchte:Windchill:Wind:
Aussen-T/F 2151 30-03-2010 23:24:05 7.9 C 5.83 g/m*3 7.9 C 0 km/h
2152 30-03-2010 23:36:05 7.4 C 5.49 g/m*3 7.4 C 0 km/h
2153 30-03-2010 23:48:05 7.3 C 5.37 g/m*3 7.3 C 0 km/h
2154 31-03-2010 00:00:05 7.1 C 5.07 g/m*3 7.1 C 0 km/h
2155 31-03-2010 00:12:05 7 C 4.88 g/m*3 7 C 0 km/h
2156 31-03-2010 00:24:05 6.9 C 4.93 g/m*3 6.9 C 0 km/h
2157 31-03-2010 00:36:05 6.6 C 4.83 g/m*3 6.6 C 0 km/h
2158 31-03-2010 00:48:05 6.6 C 4.76 g/m*3 6.6 C 0 km/h
2159 31-03-2010 01:00:05 6.3 C 4.74 g/m*3 6.3 C 0 km/h
2160 31-03-2010 01:12:05 6.2 C 4.71 g/m*3 6.2 C 0 km/h
2161 31-03-2010 01:24:05 6.3 C 4.74 g/m*3 6.3 C 0 km/h
2162 31-03-2010 01:36:05 6.2 C 4.63 g/m*3 6.2 C 0 km/h
2163 31-03-2010 01:48:05 6.1 C 4.6 g/m*3 6.1 C 0 km/h
2164 31-03-2010 02:00:05 6 C 4.57 g/m*3 6 C 0 km/h
2165 31-03-2010 02:12:05 6 C 4.65 g/m*3 6 C 0 km/h
2166 31-03-2010 02:24:05 6 C 4.65 g/m*3 6 C 0 km/h
2167 31-03-2010 02:36:05 6 C 4.65 g/m*3 6 C 0 km/h
2168 31-03-2010 02:48:05 5.9 C 4.69 g/m*3 5.9 C 0 km/h
2169 31-03-2010 03:00:06 5.7 C 4.7 g/m*3 5.7 C 0 km/h
2170 31-03-2010 03:12:06 5.8 C 4.73 g/m*3 5.8 C 0 km/h
2171 31-03-2010 03:24:06 5.8 C 4.8 g/m*3 5.8 C 0 km/h
2172 31-03-2010 03:36:06 5.8 C 4.8 g/m*3 5.8 C 0 km/h
2173 31-03-2010 03:48:06 5.5 C 4.78 g/m*3 5.5 C 0 km/h
2174 31-03-2010 04:00:06 5.5 C 4.85 g/m*3 5.5 C 0 km/h
2175 31-03-2010 04:12:06 5.3 C 4.85 g/m*3 5.3 C 0 km/h
Sensor: Nr:Datum:Temp:Abs-Feuchte:Windchill:Wind:
Aussen-T/F 2176 31-03-2010 04:24:06 5.3 C 4.99 g/m*3 5.3 C 0 km/h
2177 31-03-2010 04:36:06 5.6 C 5.16 g/m*3 5.6 C 0 km/h
2178 31-03-2010 04:48:06 5.8 C 5.16 g/m*3 5.8 C 0 km/h
2179 31-03-2010 05:00:06 5.7 C 5.12 g/m*3 5.7 C 0 km/h
2180 31-03-2010 05:12:06 6.1 C 5.11 g/m*3 6.1 C 0 km/h
2181 31-03-2010 05:24:06 6.5 C 4.95 g/m*3 6.5 C 0 km/h
2182 31-03-2010 05:36:06 6.6 C 4.91 g/m*3 6.6 C 0 km/h
2183 31-03-2010 05:48:06 7.1 C 4.76 g/m*3 7.1 C 0 km/h
2184 31-03-2010 06:00:06 7 C 4.65 g/m*3 7 C 0 km/h
2185 31-03-2010 06:12:06 7.1 C 4.68 g/m*3 7.1 C 0 km/h
2186 31-03-2010 06:24:06 7.3 C 4.58 g/m*3 7.3 C 0 km/h
2187 31-03-2010 06:36:06 7.3 C 4.5 g/m*3 7.3 C 0 km/h
2188 31-03-2010 06:48:06 7.3 C 4.5 g/m*3 7.3 C 0 km/h
2189 31-03-2010 07:00:07 7.3 C 4.42 g/m*3 7.3 C 0 km/h
2190 31-03-2010 07:12:04 7.3 C 4.42 g/m*3 7.3 C 0 km/h
2191 31-03-2010 07:24:03 7.4 C 4.21 g/m*3 7.4 C 0 km/h
2192 31-03-2010 07:36:04 7.4 C 4.06 g/m*3 7.4 C 0 km/h
2193 31-03-2010 07:48:02 7.5 C 4.08 g/m*3 7.5 C 0 km/h
2194 31-03-2010 08:00:02 7.4 C 4.14 g/m*3 7.4 C 0 km/h
2195 31-03-2010 08:12:02 7.5 C 4.24 g/m*3 7.5 C 0 km/h
2196 31-03-2010 08:24:01 7.5 C 4.24 g/m*3 7.5 C 0 km/h
2197 31-03-2010 08:36:02 7.5 C 4.24 g/m*3 7.5 C 0 km/h
2198 31-03-2010 08:48:02 7.4 C 4.14 g/m*3 7.4 C 0 km/h
2199 31-03-2010 09:00:02 7.6 C 4.27 g/m*3 7.6 C 0 km/h
2200 31-03-2010 09:12:02 7.8 C 4.41 g/m*3 7.8 C 0 km/h
Sensor: Nr:Datum:Temp:Abs-Feuchte:Windchill:Wind:
Aussen-T/F 2201 31-03-2010 09:24:02 7.2 C 4.71 g/m*3 7.2 C 0 km/h
2202 31-03-2010 09:36:02 7.4 C 4.85 g/m*3 7.4 C 0 km/h
2203 31-03-2010 09:48:01 7.8 C 4.9 g/m*3 7.8 C 0 km/h
2204 31-03-2010 10:00:01 6.8 C 5.05 g/m*3 6.8 C 0 km/h
2205 31-03-2010 10:12:02 6 C 5.3 g/m*3 6 C 0 km/h
2206 31-03-2010 10:24:02 6.5 C 5.55 g/m*3 6.5 C 0 km/h
2207 31-03-2010 10:36:01 7.4 C 5.33 g/m*3 7.4 C 0 km/h
2208 31-03-2010 10:48:02 8.5 C 4.7 g/m*3 8.5 C 0 km/h
2209 31-03-2010 11:00:02 9.4 C 4.16 g/m*3 9.4 C 0 km/h
2210 31-03-2010 11:12:01 10.1 C 4.26 g/m*3 10.1 C 0 km/h
2211 31-03-2010 11:24:02 10.1 C 3.78 g/m*3 10.1 C 0 km/h
2212 31-03-2010 11:36:01 10.2 C 3.81 g/m*3 10.2 C 0 km/h
2213 31-03-2010 11:48:02 10.4 C 3.76 g/m*3 10.4 C 0 km/h
2214 31-03-2010 12:00:02 10.8 C 3.85 g/m*3 10.8 C 0 km/h
2215 31-03-2010 12:12:02 10.7 C 3.54 g/m*3 10.7 C 0 km/h
2216 31-03-2010 12:24:02 10.2 C 3.52 g/m*3 10.2 C 0 km/h
2217 31-03-2010 12:36:02 10.3 C 3.93 g/m*3 10.3 C 0 km/h
2218 31-03-2010 12:48:02 10.6 C 3.71 g/m*3 10.6 C 0 km/h
2219 31-03-2010 13:00:03 10.9 C 3.48 g/m*3 10.9 C 0 km/h
2220 31-03-2010 13:12:01 11.6 C 3.22 g/m*3 11.6 C 0 km/h
2221 31-03-2010 13:24:01 11.4 C 3.08 g/m*3 11.4 C 0 km/h
2222 31-03-2010 13:36:02 11.8 C 3.16 g/m*3 11.8 C 0 km/h
2223 31-03-2010 13:48:02 11.8 C 3.16 g/m*3 11.8 C 0 km/h
2224 31-03-2010 14:00:02 11.6 C 3.22 g/m*3 11.6 C 0 km/h
2225 31-03-2010 14:12:02 11.5 C 3.1 g/m*3 11.5 C 0 km/h
Sensor: Nr:Datum:Temp:Abs-Feuchte:Windchill:Wind:
Aussen-T/F 2226 31-03-2010 14:24:02 11.8 C 3.05 g/m*3 11.8 C 0 km/h
2227 31-03-2010 14:36:02 12.3 C 3.04 g/m*3 12.3 C 0 km/h
2228 31-03-2010 14:48:02 11.9 C 3.18 g/m*3 11.9 C 0 km/h
2229 31-03-2010 15:00:02 11.2 C 3.45 g/m*3 11.2 C 0 km/h
2230 31-03-2010 15:12:02 11.9 C 4.13 g/m*3 11.9 C 0 km/h
2231 31-03-2010 15:24:02 11.7 C 3.56 g/m*3 11.7 C 0 km/h
2232 31-03-2010 15:36:02 8.6 C 5.41 g/m*3 8.6 C 0 km/h
2233 31-03-2010 15:48:01 9.3 C 6.02 g/m*3 9.3 C 0 km/h
2234 31-03-2010 16:00:01 11.2 C 5.17 g/m*3 11.2 C 0 km/h
2235 31-03-2010 16:12:01 12.2 C 4.21 g/m*3 12.2 C 0 km/h
2236 31-03-2010 16:24:01 12.7 C 4.01 g/m*3 12.7 C 0 km/h
2237 31-03-2010 16:36:01 13.6 C 3.77 g/m*3 13.6 C 0 km/h
2238 31-03-2010 16:48:01 13.4 C 3.25 g/m*3 13.4 C 0 km/h
2239 31-03-2010 17:00:01 13.4 C 3.14 g/m*3 13.4 C 0 km/h
2240 31-03-2010 17:12:01 13 C 2.84 g/m*3 13 C 0 km/h
2241 31-03-2010 17:24:02 12.5 C 2.86 g/m*3 12.5 C 0 km/h
2242 31-03-2010 17:36:01 13.3 C 2.66 g/m*3 13.3 C 0 km/h
2243 31-03-2010 17:48:02 12.5 C 3.3 g/m*3 12.5 C 0 km/h
2244 31-03-2010 18:00:02 11.4 C 4 g/m*3 11.4 C 0 km/h
2245 31-03-2010 18:12:02 11.9 C 3.71 g/m*3 11.9 C 0 km/h
2246 31-03-2010 18:24:02 12.2 C 3.45 g/m*3 12.2 C 0 km/h
2247 31-03-2010 18:36:02 10.3 C 3.35 g/m*3 10.3 C 0 km/h
2248 31-03-2010 18:48:02 9.3 C 4.58 g/m*3 9.3 C 0 km/h
2249 31-03-2010 19:00:02 9.6 C 4.12 g/m*3 9.6 C 0 km/h
2250 31-03-2010 19:12:02 8.4 C 4.58 g/m*3 8.4 C 0 km/h
Sensor: Nr:Datum:Temp:Abs-Feuchte:Windchill:Wind:
Aussen-T/F 2251 31-03-2010 19:24:02 8.1 C 4.74 g/m*3 8.1 C 0 km/h
2252 31-03-2010 19:36:01 8.2 C 4.44 g/m*3 8.2 C 0 km/h
2253 31-03-2010 19:48:02 7.9 C 4.19 g/m*3 7.9 C 0 km/h
2254 31-03-2010 20:00:02 7.5 C 4.08 g/m*3 7.5 C 0 km/h
2255 31-03-2010 20:12:01 7.3 C 4.03 g/m*3 7.3 C 0 km/h
2256 31-03-2010 20:24:02 7.1 C 3.98 g/m*3 7.1 C 0 km/h
2257 31-03-2010 20:36:02 7 C 3.95 g/m*3 7 C 0 km/h
2258 31-03-2010 20:48:02 6.9 C 4.16 g/m*3 6.9 C 0 km/h
2259 31-03-2010 21:00:03 7 C 4.26 g/m*3 7 C 0 km/h
2260 31-03-2010 21:12:02 6.2 C 4.85 g/m*3 6.2 C 0 km/h
2261 31-03-2010 21:24:02 5.7 C 4.98 g/m*3 5.7 C 0 km/h
2262 31-03-2010 21:36:02 5.6 C 4.95 g/m*3 5.6 C 0 km/h
2263 31-03-2010 21:48:02 5.5 C 4.92 g/m*3 5.5 C 0 km/h
2264 31-03-2010 22:00:02 5.6 C 4.74 g/m*3 5.6 C 0 km/h
2265 31-03-2010 22:12:01 5.3 C 4.78 g/m*3 5.3 C 0 km/h
2266 31-03-2010 22:25:03 5.3 C 4.71 g/m*3 5.3 C 0 km/h
2267 31-03-2010 22:37:03 5.2 C 4.68 g/m*3 5.2 C 0 km/h
2268 31-03-2010 22:49:03 5.1 C 4.65 g/m*3 5.1 C 0 km/h
2269 31-03-2010 23:01:03 5.1 C 4.65 g/m*3 5.1 C 0 km/h
2270 31-03-2010 23:13:03 5.2 C 4.54 g/m*3 5.2 C 0 km/h
2271 31-03-2010 23:25:03 5.1 C 4.51 g/m*3 5.1 C 0 km/h
2272 31-03-2010 23:37:03 5.5 C 4.28 g/m*3 5.5 C 0 km/h
2273 31-03-2010 23:49:03 5.5 C 4.21 g/m*3 5.5 C 0 km/h
2274 01-04-2010 00:01:03 5.6 C 4.1 g/m*3 5.6 C 0 km/h
2275 01-04-2010 00:13:03 5.6 C 3.96 g/m*3 5.6 C 0 km/h
Sensor: Nr:Datum:Temp:Abs-Feuchte:Windchill:Wind:
Aussen-T/F 2276 01-04-2010 00:25:03 5.7 C 3.77 g/m*3 5.7 C 0 km/h
2277 01-04-2010 00:37:03 5.6 C 3.75 g/m*3 5.6 C 0 km/h
2278 01-04-2010 00:49:03 5.5 C 3.65 g/m*3 5.5 C 0 km/h
2279 01-04-2010 01:01:03 5.3 C 3.6 g/m*3 5.3 C 0 km/h
2280 01-04-2010 01:13:03 5.3 C 3.6 g/m*3 5.3 C 0 km/h
2281 01-04-2010 01:25:03 5.2 C 3.51 g/m*3 5.2 C 0 km/h
2282 01-04-2010 01:37:04 5 C 3.53 g/m*3 5 C 0 km/h
2283 01-04-2010 01:49:04 4.9 C 3.58 g/m*3 4.9 C 0 km/h
2284 01-04-2010 02:01:04 4.8 C 3.62 g/m*3 4.8 C 0 km/h
2285 01-04-2010 02:13:04 5 C 3.53 g/m*3 5 C 0 km/h
2286 01-04-2010 02:25:04 5.1 C 3.49 g/m*3 5.1 C 0 km/h
2287 01-04-2010 02:37:04 5 C 3.47 g/m*3 5 C 0 km/h
2288 01-04-2010 02:49:04 4.6 C 3.44 g/m*3 4.6 C 0 km/h
2289 01-04-2010 03:01:04 4.4 C 3.46 g/m*3 4.4 C 0 km/h
2290 01-04-2010 03:13:04 4.7 C 3.46 g/m*3 4.7 C 0 km/h
2291 01-04-2010 03:25:04 4.7 C 3.46 g/m*3 4.7 C 0 km/h
2292 01-04-2010 03:37:04 4.4 C 3.33 g/m*3 4.4 C 0 km/h
2293 01-04-2010 03:49:04 4.2 C 3.35 g/m*3 4.2 C 0 km/h
2294 01-04-2010 04:01:04 4.2 C 3.41 g/m*3 4.2 C 0 km/h
2295 01-04-2010 04:13:04 3.8 C 3.45 g/m*3 3.8 C 0 km/h
2296 01-04-2010 04:25:04 3.9 C 3.54 g/m*3 3.9 C 0 km/h
2297 01-04-2010 04:37:04 3.8 C 3.45 g/m*3 3.8 C 0 km/h
2298 01-04-2010 04:49:04 3.8 C 3.45 g/m*3 3.8 C 0 km/h
2299 01-04-2010 05:01:04 3.5 C 3.44 g/m*3 3.5 C 0 km/h
2300 01-04-2010 05:13:04 3.6 C 3.53 g/m*3 3.6 C 0 km/h
Sensor: Nr:Datum:Temp:Abs-Feuchte:Windchill:Wind:
Aussen-T/F 2301 01-04-2010 05:25:04 3.6 C 3.53 g/m*3 3.6 C 0 km/h
2302 01-04-2010 05:37:04 3.5 C 3.5 g/m*3 3.5 C 0 km/h
2303 01-04-2010 05:49:05 3.5 C 3.57 g/m*3 3.5 C 0 km/h
2304 01-04-2010 06:01:05 3.6 C 3.53 g/m*3 3.6 C 0 km/h
2305 01-04-2010 06:13:05 3.5 C 3.5 g/m*3 3.5 C 0 km/h
2306 01-04-2010 06:25:05 3.5 C 3.5 g/m*3 3.5 C 0 km/h
2307 01-04-2010 06:37:05 3.5 C 3.5 g/m*3 3.5 C 0 km/h
2308 01-04-2010 06:49:05 3.2 C 3.56 g/m*3 3.2 C 0 km/h
2309 01-04-2010 07:01:03 3.5 C 3.69 g/m*3 3.5 C 0 km/h
2310 01-04-2010 07:13:03 3.5 C 3.69 g/m*3 3.5 C 0 km/h
2311 01-04-2010 07:25:03 3.3 C 3.64 g/m*3 3.3 C 0 km/h
2312 01-04-2010 07:37:02 3.3 C 3.64 g/m*3 3.3 C 0 km/h
2313 01-04-2010 07:49:02 3.4 C 3.66 g/m*3 3.4 C 0 km/h
2314 01-04-2010 08:01:01 3.4 C 3.66 g/m*3 3.4 C 0 km/h
2315 01-04-2010 08:13:01 3.5 C 3.69 g/m*3 3.5 C 0 km/h
2316 01-04-2010 08:25:02 3.5 C 3.63 g/m*3 3.5 C 0 km/h
2317 01-04-2010 08:37:01 3.5 C 3.69 g/m*3 3.5 C 0 km/h
2318 01-04-2010 08:49:02 3.8 C 3.7 g/m*3 3.8 C 0 km/h
2319 01-04-2010 09:01:02 3.9 C 3.73 g/m*3 3.9 C 0 km/h
2320 01-04-2010 09:13:02 4.2 C 3.67 g/m*3 4.2 C 0 km/h
2321 01-04-2010 09:25:02 4.5 C 3.68 g/m*3 4.5 C 0 km/h
2322 01-04-2010 09:37:03 5.2 C 3.72 g/m*3 5.2 C 0 km/h
2323 01-04-2010 09:49:02 5.2 C 3.65 g/m*3 5.2 C 0 km/h
2324 01-04-2010 10:01:02 5.1 C 3.69 g/m*3 5.1 C 0 km/h
2325 01-04-2010 10:13:02 5.2 C 3.72 g/m*3 5.2 C 0 km/h
Sensor: Nr:Datum:Temp:Abs-Feuchte:Windchill:Wind:
Aussen-T/F 2326 01-04-2010 10:25:02 5.3 C 3.67 g/m*3 5.3 C 0 km/h
2327 01-04-2010 10:37:02 5.6 C 3.68 g/m*3 5.6 C 0 km/h
2328 01-04-2010 10:49:02 6.1 C 3.65 g/m*3 6.1 C 0 km/h
2329 01-04-2010 11:01:02 6.7 C 3.57 g/m*3 6.7 C 0 km/h
2330 01-04-2010 11:13:02 6.9 C 3.46 g/m*3 6.9 C 0 km/h
2331 01-04-2010 11:25:02 6.9 C 3.31 g/m*3 6.9 C 0 km/h
2332 01-04-2010 11:37:02 7.2 C 3.45 g/m*3 7.2 C 0 km/h
2333 01-04-2010 11:49:02 7.5 C 3.52 g/m*3 7.5 C 0 km/h
2334 01-04-2010 12:01:02 8 C 3.39 g/m*3 8 C 0 km/h
2335 01-04-2010 12:13:03 7.9 C 3.29 g/m*3 7.9 C 0 km/h
2336 01-04-2010 12:25:02 7.7 C 3.32 g/m*3 7.7 C 0 km/h
2337 01-04-2010 12:37:02 8 C 3.22 g/m*3 8 C 0 km/h
2338 01-04-2010 12:49:02 9.1 C 3.28 g/m*3 9.1 C 0 km/h
2339 01-04-2010 13:01:02 8.7 C 2.94 g/m*3 8.7 C 0 km/h
2340 01-04-2010 13:13:02 8.5 C 2.73 g/m*3 8.5 C 0 km/h
2341 01-04-2010 13:25:03 8.8 C 2.96 g/m*3 8.8 C 0 km/h
2342 01-04-2010 13:37:02 9.3 C 2.79 g/m*3 9.3 C 0 km/h
2343 01-04-2010 13:49:02 9 C 2.73 g/m*3 9 C 0 km/h
2344 01-04-2010 14:01:02 8.8 C 2.7 g/m*3 8.8 C 0 km/h
2345 01-04-2010 14:13:02 8.9 C 2.8 g/m*3 8.9 C 0 km/h
2346 01-04-2010 14:25:02 10.2 C 2.66 g/m*3 10.2 C 0 km/h
2347 01-04-2010 14:37:02 11 C 2.6 g/m*3 11 C 0 km/h
2348 01-04-2010 14:49:02 8.2 C 3.43 g/m*3 8.2 C 0 km/h
2349 01-04-2010 15:01:01 8.7 C 3.81 g/m*3 8.7 C 0 km/h
2350 01-04-2010 15:13:01 9.7 C 3.69 g/m*3 9.7 C 0 km/h
Sensor: Nr:Datum:Temp:Abs-Feuchte:Windchill:Wind:
Aussen-T/F 2351 01-04-2010 15:25:02 10.7 C 3.54 g/m*3 10.7 C 0 km/h
2352 01-04-2010 15:37:01 10.6 C 3.32 g/m*3 10.6 C 0 km/h
2353 01-04-2010 15:49:02 10.5 C 2.91 g/m*3 10.5 C 0 km/h
2354 01-04-2010 16:01:01 10.4 C 2.89 g/m*3 10.4 C 0 km/h
2355 01-04-2010 16:13:01 10.8 C 2.97 g/m*3 10.8 C 0 km/h
2356 01-04-2010 16:25:01 10.4 C 2.89 g/m*3 10.4 C 0 km/h
2357 01-04-2010 16:37:02 10.4 C 2.99 g/m*3 10.4 C 0 km/h
2358 01-04-2010 16:49:02 11 C 3.1 g/m*3 11 C 0 km/h
2359 01-04-2010 17:01:02 11 C 2.8 g/m*3 11 C 0 km/h
2360 01-04-2010 17:13:02 10.7 C 2.75 g/m*3 10.7 C 0 km/h
2361 01-04-2010 17:25:02 9.9 C 2.61 g/m*3 9.9 C 0 km/h
2362 01-04-2010 17:37:02 9.2 C 3.04 g/m*3 9.2 C 0 km/h
2363 01-04-2010 17:49:02 8.3 C 3.54 g/m*3 8.3 C 0 km/h
2364 01-04-2010 18:01:02 8.1 C 3.41 g/m*3 8.1 C 0 km/h
2365 01-04-2010 18:13:02 9.8 C 3.25 g/m*3 9.8 C 0 km/h
2366 01-04-2010 18:25:02 8.4 C 3.31 g/m*3 8.4 C 0 km/h
2367 01-04-2010 18:37:02 7.8 C 3.43 g/m*3 7.8 C 0 km/h
2368 01-04-2010 18:49:02 5.4 C 3.28 g/m*3 5.4 C 0 km/h
2369 01-04-2010 19:01:02 5.8 C 5.52 g/m*3 5.8 C 0 km/h
2370 01-04-2010 19:13:03 6.4 C 5.51 g/m*3 6.4 C 0 km/h
2371 01-04-2010 19:25:02 6.7 C 5.24 g/m*3 6.7 C 0 km/h
2372 01-04-2010 19:37:02 6.5 C 4.8 g/m*3 6.5 C 0 km/h
2373 01-04-2010 19:49:01 5.8 C 4.58 g/m*3 5.8 C 0 km/h
2374 01-04-2010 20:01:02 5.3 C 4.44 g/m*3 5.3 C 0 km/h
2375 01-04-2010 20:13:02 5 C 4.35 g/m*3 5 C 0 km/h
Sensor: Nr:Datum:Temp:Abs-Feuchte:Windchill:Wind:
Aussen-T/F 2376 01-04-2010 20:25:01 4.7 C 4.53 g/m*3 4.7 C 0 km/h
2377 01-04-2010 20:37:01 4.5 C 4.54 g/m*3 4.5 C 0 km/h
2378 01-04-2010 20:49:01 4.2 C 4.51 g/m*3 4.2 C 0 km/h
2379 01-04-2010 21:01:02 4.1 C 4.48 g/m*3 4.1 C 0 km/h
2380 01-04-2010 21:13:02 3.9 C 4.48 g/m*3 3.9 C 0 km/h
2381 01-04-2010 21:25:01 3.7 C 4.42 g/m*3 3.7 C 0 km/h
2382 01-04-2010 21:37:01 3.6 C 4.46 g/m*3 3.6 C 0 km/h
2383 01-04-2010 21:49:01 3.5 C 4.43 g/m*3 3.5 C 0 km/h
2384 01-04-2010 22:01:02 3.2 C 4.46 g/m*3 3.2 C 0 km/h
2385 01-04-2010 22:13:02 3.2 C 4.46 g/m*3 3.2 C 0 km/h
2386 01-04-2010 22:25:01 3.2 C 4.46 g/m*3 3.2 C 0 km/h
2387 01-04-2010 22:37:02 3.1 C 4.43 g/m*3 3.1 C 0 km/h
2388 01-04-2010 22:50:02 3 C 4.46 g/m*3 3 C 0 km/h
2389 01-04-2010 23:02:02 2.8 C 4.46 g/m*3 2.8 C 0 km/h
2390 01-04-2010 23:14:02 2.6 C 4.46 g/m*3 2.6 C 0 km/h
2391 01-04-2010 23:26:02 2.5 C 4.48 g/m*3 2.5 C 0 km/h
2392 01-04-2010 23:38:02 2.4 C 4.45 g/m*3 2.4 C 0 km/h
2393 01-04-2010 23:50:02 2.3 C 4.42 g/m*3 2.3 C 0 km/h
2394 02-04-2010 00:02:02 2.3 C 4.48 g/m*3 2.3 C 0 km/h
2395 02-04-2010 00:14:02 2.1 C 4.42 g/m*3 2.1 C 0 km/h
2396 02-04-2010 00:26:02 1.9 C 4.42 g/m*3 1.9 C 0 km/h
2397 02-04-2010 00:38:02 1.8 C 4.44 g/m*3 1.8 C 0 km/h
2398 02-04-2010 00:50:02 1.6 C 4.38 g/m*3 1.6 C 0 km/h
2399 02-04-2010 01:02:02 1.4 C 4.37 g/m*3 1.4 C 0 km/h
2400 02-04-2010 01:14:02 1.2 C 4.31 g/m*3 1.2 C 0 km/h
Sensor: Nr:Datum:Temp:Abs-Feuchte:Windchill:Wind:
Aussen-T/F 2401 02-04-2010 01:26:02 1.1 C 4.29 g/m*3 1.1 C 0 km/h
2402 02-04-2010 01:38:02 0.9 C 4.28 g/m*3 0.9 C 0 km/h
2403 02-04-2010 01:50:02 0.7 C 4.22 g/m*3 0.7 C 0 km/h
2404 02-04-2010 02:02:02 0.6 C 4.19 g/m*3 0.6 C 0 km/h
2405 02-04-2010 02:14:02 0.6 C 4.24 g/m*3 0.6 C 0 km/h
2406 02-04-2010 02:26:02 0.5 C 4.26 g/m*3 0.5 C 0 km/h
2407 02-04-2010 02:38:03 0.4 C 4.23 g/m*3 0.4 C 0 km/h
2408 02-04-2010 02:50:03 0.1 C 4.15 g/m*3 0.1 C 0 km/h
2409 02-04-2010 03:02:03 0.1 C 4.15 g/m*3 0.1 C 0 km/h
2410 02-04-2010 03:14:03 -0.1 C 4.14 g/m*3 -0.1 C 0 km/h
2411 02-04-2010 03:26:03 -0.1 C 4.14 g/m*3 -0.1 C 0 km/h
2412 02-04-2010 03:38:03 -0.2 C 4.16 g/m*3 -0.2 C 0 km/h
2413 02-04-2010 03:50:03 -0.3 C 4.13 g/m*3 -0.3 C 0 km/h
2414 02-04-2010 04:02:03 -0.3 C 4.13 g/m*3 -0.3 C 0 km/h
2415 02-04-2010 04:14:03 -0.5 C 4.07 g/m*3 -0.5 C 0 km/h
2416 02-04-2010 04:26:03 -0.4 C 4.1 g/m*3 -0.4 C 0 km/h
2417 02-04-2010 04:38:03 -0.5 C 4.12 g/m*3 -0.5 C 0 km/h
2418 02-04-2010 04:50:03 -0.8 C 3.99 g/m*3 -0.8 C 0 km/h
2419 02-04-2010 05:02:03 -0.9 C 3.96 g/m*3 -0.9 C 0 km/h
2420 02-04-2010 05:14:03 -0.9 C 4.01 g/m*3 -0.9 C 0 km/h
2421 02-04-2010 05:26:03 -1 C 3.98 g/m*3 -1 C 0 km/h
2422 02-04-2010 05:38:03 -1 C 3.98 g/m*3 -1 C 0 km/h
2423 02-04-2010 05:50:03 -0.9 C 4.05 g/m*3 -0.9 C 0 km/h
2424 02-04-2010 06:02:03 -1 C 4.02 g/m*3 -1 C 0 km/h
2425 02-04-2010 06:14:03 -1 C 4.07 g/m*3 -1 C 0 km/h
Sensor: Nr:Datum:Temp:Abs-Feuchte:Windchill:Wind:
Aussen-T/F 2426 02-04-2010 06:26:03 -1 C 4.07 g/m*3 -1 C 0 km/h
2427 02-04-2010 06:38:04 -1 C 4.11 g/m*3 -1 C 0 km/h
2428 02-04-2010 06:50:04 -1 C 4.11 g/m*3 -1 C 0 km/h
2429 02-04-2010 07:02:04 -1 C 4.11 g/m*3 -1 C 0 km/h
2430 02-04-2010 07:14:04 -0.9 C 4.19 g/m*3 -0.9 C 0 km/h
2431 02-04-2010 07:26:04 -0.9 C 4.19 g/m*3 -0.9 C 0 km/h
2432 02-04-2010 07:38:04 -0.8 C 4.22 g/m*3 -0.8 C 0 km/h
2433 02-04-2010 07:50:04 -0.9 C 4.19 g/m*3 -0.9 C 0 km/h
2434 02-04-2010 08:02:04 -0.4 C 4.34 g/m*3 -0.4 C 0 km/h
2435 02-04-2010 08:14:04 -0.3 C 4.41 g/m*3 -0.3 C 0 km/h
2436 02-04-2010 08:26:04 -0.1 C 4.43 g/m*3 -0.1 C 0 km/h
2437 02-04-2010 08:38:04 0.3 C 4.55 g/m*3 0.3 C 0 km/h
2438 02-04-2010 08:50:04 0.2 C 4.52 g/m*3 0.2 C 0 km/h
2439 02-04-2010 09:02:04 0.3 C 4.5 g/m*3 0.3 C 0 km/h
2440 02-04-2010 09:14:04 0.7 C 4.58 g/m*3 0.7 C 0 km/h
2441 02-04-2010 09:26:02 1.2 C 4.68 g/m*3 1.2 C 0 km/h
2442 02-04-2010 09:38:02 1.5 C 4.73 g/m*3 1.5 C 0 km/h
2443 02-04-2010 09:50:01 1.8 C 4.77 g/m*3 1.8 C 0 km/h
2444 02-04-2010 10:02:02 2.2 C 4.79 g/m*3 2.2 C 0 km/h
2445 02-04-2010 10:14:02 2.7 C 4.89 g/m*3 2.7 C 0 km/h
2446 02-04-2010 10:26:02 3.3 C 4.97 g/m*3 3.3 C 0 km/h
2447 02-04-2010 10:38:01 4.2 C 5.22 g/m*3 4.2 C 0 km/h
2448 02-04-2010 10:50:01 5 C 5.37 g/m*3 5 C 0 km/h
2449 02-04-2010 11:02:01 5.7 C 5.34 g/m*3 5.7 C 0 km/h
2450 02-04-2010 11:14:01 6.9 C 5.62 g/m*3 6.9 C 0 km/h
Sensor: Nr:Datum:Temp:Abs-Feuchte:Windchill:Wind:
Aussen-T/F 2451 02-04-2010 11:26:02 8.1 C 4.83 g/m*3 8.1 C 0 km/h
2452 02-04-2010 11:38:01 9 C 4.67 g/m*3 9 C 0 km/h
2453 02-04-2010 11:50:02 9.9 C 4.67 g/m*3 9.9 C 0 km/h
2454 02-04-2010 12:02:02 10 C 4.23 g/m*3 10 C 0 km/h
2455 02-04-2010 12:14:02 10.3 C 4.21 g/m*3 10.3 C 0 km/h
2456 02-04-2010 12:26:02 10.5 C 4.07 g/m*3 10.5 C 0 km/h
2457 02-04-2010 12:38:02 10.9 C 4.08 g/m*3 10.9 C 0 km/h
2458 02-04-2010 12:50:02 11.4 C 4 g/m*3 11.4 C 0 km/h
2459 02-04-2010 13:02:02 11.3 C 3.88 g/m*3 11.3 C 0 km/h
2460 02-04-2010 13:14:02 11.7 C 3.66 g/m*3 11.7 C 0 km/h
2461 02-04-2010 13:26:02 11.5 C 3.41 g/m*3 11.5 C 0 km/h
2462 02-04-2010 13:38:02 11.7 C 3.45 g/m*3 11.7 C 0 km/h
2463 02-04-2010 13:50:01 12.5 C 3.52 g/m*3 12.5 C 0 km/h
2464 02-04-2010 14:02:02 12.5 C 3.41 g/m*3 12.5 C 0 km/h
2465 02-04-2010 14:14:02 12.1 C 3.32 g/m*3 12.1 C 0 km/h
2466 02-04-2010 14:26:01 12.8 C 3.36 g/m*3 12.8 C 0 km/h
2467 02-04-2010 14:38:02 12.7 C 3.23 g/m*3 12.7 C 0 km/h
2468 02-04-2010 14:50:02 13.6 C 3.18 g/m*3 13.6 C 0 km/h
2469 02-04-2010 15:02:02 12.7 C 3.01 g/m*3 12.7 C 0 km/h
2470 02-04-2010 15:14:02 12.5 C 3.08 g/m*3 12.5 C 0 km/h
2471 02-04-2010 15:26:01 13.6 C 3.06 g/m*3 13.6 C 0 km/h
2472 02-04-2010 15:38:02 12.8 C 3.14 g/m*3 12.8 C 0 km/h
2473 02-04-2010 15:50:02 14.4 C 3.21 g/m*3 14.4 C 0 km/h
2474 02-04-2010 16:02:02 13.7 C 2.72 g/m*3 13.7 C 0 km/h
2475 02-04-2010 16:14:02 14.5 C 2.86 g/m*3 14.5 C 0 km/h
Sensor: Nr:Datum:Temp:Abs-Feuchte:Windchill:Wind:
Aussen-T/F 2476 02-04-2010 16:26:01 14.8 C 2.53 g/m*3 14.8 C 0 km/h
2477 02-04-2010 16:38:02 15.6 C 2.66 g/m*3 15.6 C 0 km/h
2478 02-04-2010 16:50:02 14.6 C 2.5 g/m*3 14.6 C 0 km/h
2479 02-04-2010 17:02:02 15.2 C 2.6 g/m*3 15.2 C 0 km/h
2480 02-04-2010 17:14:02 16.6 C 2.83 g/m*3 16.6 C 0 km/h
2481 02-04-2010 17:26:02 15.9 C 2.71 g/m*3 15.9 C 0 km/h
2482 02-04-2010 17:38:02 16 C 2.72 g/m*3 16 C 0 km/h
2483 02-04-2010 17:50:02 15.1 C 2.58 g/m*3 15.1 C 0 km/h
2484 02-04-2010 18:02:02 13.8 C 2.38 g/m*3 13.8 C 0 km/h
2485 02-04-2010 18:14:02 13.3 C 2.31 g/m*3 13.3 C 0 km/h
2486 02-04-2010 18:26:02 13.1 C 2.28 g/m*3 13.1 C 0 km/h
2487 02-04-2010 18:38:02 12.8 C 2.24 g/m*3 12.8 C 0 km/h
2488 02-04-2010 18:50:02 12.3 C 2.39 g/m*3 12.3 C 0 km/h
2489 02-04-2010 19:02:01 12.2 C 2.7 g/m*3 12.2 C 0 km/h
2490 02-04-2010 19:14:01 12 C 2.77 g/m*3 12 C 0 km/h
2491 02-04-2010 19:26:02 11.8 C 2.84 g/m*3 11.8 C 0 km/h
2492 02-04-2010 19:38:01 11.6 C 3.01 g/m*3 11.6 C 0 km/h
2493 02-04-2010 19:50:02 11.4 C 2.98 g/m*3 11.4 C 0 km/h
2494 02-04-2010 20:02:01 11.3 C 3.06 g/m*3 11.3 C 0 km/h
2495 02-04-2010 20:14:01 11.1 C 3.02 g/m*3 11.1 C 0 km/h
2496 02-04-2010 20:26:01 10.8 C 3.06 g/m*3 10.8 C 0 km/h
2497 02-04-2010 20:38:02 10.7 C 3.24 g/m*3 10.7 C 0 km/h
2498 02-04-2010 20:50:02 10.7 C 3.04 g/m*3 10.7 C 0 km/h
2499 02-04-2010 21:02:02 10.7 C 3.14 g/m*3 10.7 C 0 km/h
2500 02-04-2010 21:14:02 10.5 C 3.3 g/m*3 10.5 C 0 km/h
Sensor: Nr:Datum:Temp:Abs-Feuchte:Windchill:Wind:
Aussen-T/F 2501 02-04-2010 21:26:02 10.3 C 3.26 g/m*3 10.3 C 0 km/h
2502 02-04-2010 21:38:02 10.3 C 3.35 g/m*3 10.3 C 0 km/h
2503 02-04-2010 21:50:01 10 C 3.38 g/m*3 10 C 0 km/h
2504 02-04-2010 22:02:01 9.7 C 3.5 g/m*3 9.7 C 0 km/h
2505 02-04-2010 22:14:01 9.5 C 3.64 g/m*3 9.5 C 0 km/h
2506 02-04-2010 22:26:02 9.6 C 3.66 g/m*3 9.6 C 0 km/h
2507 02-04-2010 22:38:01 9.8 C 3.71 g/m*3 9.8 C 0 km/h
2508 02-04-2010 22:50:03 9.9 C 3.83 g/m*3 9.9 C 0 km/h
2509 02-04-2010 23:02:02 9.4 C 4.25 g/m*3 9.4 C 0 km/h
2510 02-04-2010 23:14:02 9 C 4.76 g/m*3 9 C 0 km/h
2511 02-04-2010 23:26:02 8.7 C 4.84 g/m*3 8.7 C 0 km/h
2512 02-04-2010 23:38:02 8.3 C 5.06 g/m*3 8.3 C 0 km/h
2513 02-04-2010 23:50:02 8.1 C 5.33 g/m*3 8.1 C 0 km/h
2514 03-04-2010 00:02:02 8 C 5.37 g/m*3 8 C 0 km/h
2515 03-04-2010 00:14:02 7.6 C 5.8 g/m*3 7.6 C 0 km/h
2516 03-04-2010 00:26:02 7.4 C 6.12 g/m*3 7.4 C 0 km/h
2517 03-04-2010 00:38:02 7.4 C 6.28 g/m*3 7.4 C 0 km/h
2518 03-04-2010 00:50:02 7.4 C 6.36 g/m*3 7.4 C 0 km/h
2519 03-04-2010 01:02:01 7.3 C 6.32 g/m*3 7.3 C 0 km/h
2520 03-04-2010 01:14:01 7.2 C 6.28 g/m*3 7.2 C 0 km/h
2521 03-04-2010 01:26:02 7.4 C 6.36 g/m*3 7.4 C 0 km/h
2522 03-04-2010 01:38:02 7.3 C 6.24 g/m*3 7.3 C 0 km/h
2523 03-04-2010 01:50:02 7.3 C 6.24 g/m*3 7.3 C 0 km/h
2524 03-04-2010 02:02:03 7.3 C 6.24 g/m*3 7.3 C 0 km/h
2525 03-04-2010 02:14:03 7 C 6.04 g/m*3 7 C 0 km/h
Sensor: Nr:Datum:Temp:Abs-Feuchte:Windchill:Wind:
Aussen-T/F 2526 03-04-2010 02:26:02 7.1 C 6.16 g/m*3 7.1 C 0 km/h
2527 03-04-2010 02:38:02 7.3 C 6.16 g/m*3 7.3 C 0 km/h
2528 03-04-2010 02:50:01 7.4 C 6.12 g/m*3 7.4 C 0 km/h
2529 03-04-2010 03:02:01 7.5 C 6.08 g/m*3 7.5 C 0 km/h
2530 03-04-2010 03:14:02 7.7 C 6 g/m*3 7.7 C 0 km/h
2531 03-04-2010 03:26:02 7.6 C 5.88 g/m*3 7.6 C 0 km/h
2532 03-04-2010 03:38:02 7.5 C 5.84 g/m*3 7.5 C 0 km/h
2533 03-04-2010 03:50:02 7.2 C 5.81 g/m*3 7.2 C 0 km/h
2534 03-04-2010 04:02:01 7.3 C 5.93 g/m*3 7.3 C 0 km/h
2535 03-04-2010 04:14:01 7.1 C 5.93 g/m*3 7.1 C 0 km/h
2536 03-04-2010 04:26:01 7 C 5.89 g/m*3 7 C 0 km/h
2537 03-04-2010 04:38:02 7 C 5.89 g/m*3 7 C 0 km/h
2538 03-04-2010 04:50:01 7.1 C 5.93 g/m*3 7.1 C 0 km/h
2539 03-04-2010 05:02:02 6.9 C 5.93 g/m*3 6.9 C 0 km/h
2540 03-04-2010 05:14:02 6.9 C 5.93 g/m*3 6.9 C 0 km/h
2541 03-04-2010 05:26:01 6.8 C 5.81 g/m*3 6.8 C 0 km/h
2542 03-04-2010 05:38:02 6.5 C 5.7 g/m*3 6.5 C 0 km/h
2543 03-04-2010 05:50:01 6.3 C 5.7 g/m*3 6.3 C 0 km/h
2544 03-04-2010 06:02:02 6.1 C 5.7 g/m*3 6.1 C 0 km/h
2545 03-04-2010 06:14:02 6.4 C 5.81 g/m*3 6.4 C 0 km/h
2546 03-04-2010 06:26:01 6.5 C 5.85 g/m*3 6.5 C 0 km/h
2547 03-04-2010 06:38:01 6.6 C 5.89 g/m*3 6.6 C 0 km/h
2548 03-04-2010 06:50:01 6.8 C 5.97 g/m*3 6.8 C 0 km/h
2549 03-04-2010 07:02:01 6.6 C 5.81 g/m*3 6.6 C 0 km/h
2550 03-04-2010 07:14:02 6.4 C 5.81 g/m*3 6.4 C 0 km/h
Sensor: Nr:Datum:Temp:Abs-Feuchte:Windchill:Wind:
Aussen-T/F 2551 03-04-2010 07:26:01 6.4 C 5.81 g/m*3 6.4 C 0 km/h
2552 03-04-2010 07:38:01 6.6 C 5.89 g/m*3 6.6 C 0 km/h
2553 03-04-2010 07:50:01 6.7 C 5.85 g/m*3 6.7 C 0 km/h
2554 03-04-2010 08:02:01 7.1 C 5.85 g/m*3 7.1 C 0 km/h
2555 03-04-2010 08:14:01 7.5 C 5.76 g/m*3 7.5 C 0 km/h
2556 03-04-2010 08:26:01 7.8 C 5.71 g/m*3 7.8 C 0 km/h
2557 03-04-2010 08:38:01 8 C 5.54 g/m*3 8 C 0 km/h
2558 03-04-2010 08:50:01 8.6 C 5.59 g/m*3 8.6 C 0 km/h
2559 03-04-2010 09:02:01 8.9 C 5.43 g/m*3 8.9 C 0 km/h
2560 03-04-2010 09:14:01 9.2 C 5.45 g/m*3 9.2 C 0 km/h
2561 03-04-2010 09:26:01 9.4 C 5.43 g/m*3 9.4 C 0 km/h
2562 03-04-2010 09:38:01 9.9 C 5.51 g/m*3 9.9 C 0 km/h
2563 03-04-2010 09:50:01 10.2 C 5.42 g/m*3 10.2 C 0 km/h
2564 03-04-2010 10:02:01 10.3 C 5.27 g/m*3 10.3 C 0 km/h
2565 03-04-2010 10:14:01 10.4 C 5.3 g/m*3 10.4 C 0 km/h
2566 03-04-2010 10:26:01 10.6 C 5.27 g/m*3 10.6 C 0 km/h
2567 03-04-2010 10:38:01 10.9 C 5.27 g/m*3 10.9 C 0 km/h
2568 03-04-2010 10:50:01 10.9 C 5.17 g/m*3 10.9 C 0 km/h
2569 03-04-2010 11:02:01 11.2 C 4.87 g/m*3 11.2 C 0 km/h
2570 03-04-2010 11:14:01 11.4 C 4.93 g/m*3 11.4 C 0 km/h
2571 03-04-2010 11:26:02 11.9 C 5.19 g/m*3 11.9 C 0 km/h
2572 03-04-2010 11:38:01 11.9 C 4.98 g/m*3 11.9 C 0 km/h
2573 03-04-2010 11:50:02 12.2 C 4.86 g/m*3 12.2 C 0 km/h
2574 03-04-2010 12:02:01 11.9 C 4.77 g/m*3 11.9 C 0 km/h
2575 03-04-2010 12:14:01 11.9 C 4.77 g/m*3 11.9 C 0 km/h
Sensor: Nr:Datum:Temp:Abs-Feuchte:Windchill:Wind:
Aussen-T/F 2576 03-04-2010 12:26:02 11.8 C 4.84 g/m*3 11.8 C 0 km/h
2577 03-04-2010 12:38:01 12.2 C 4.75 g/m*3 12.2 C 0 km/h
2578 03-04-2010 12:50:02 12.2 C 4.64 g/m*3 12.2 C 0 km/h
2579 03-04-2010 13:02:01 11.5 C 4.85 g/m*3 11.5 C 0 km/h
2580 03-04-2010 13:14:01 10.9 C 5.17 g/m*3 10.9 C 0 km/h
2581 03-04-2010 13:26:01 11.7 C 5.12 g/m*3 11.7 C 0 km/h
2582 03-04-2010 13:38:02 12.4 C 4.92 g/m*3 12.4 C 0 km/h
2583 03-04-2010 13:50:01 12.3 C 4.78 g/m*3 12.3 C 0 km/h
2584 03-04-2010 14:02:01 11.9 C 4.66 g/m*3 11.9 C 0 km/h
2585 03-04-2010 14:14:01 12.3 C 4.45 g/m*3 12.3 C 0 km/h
2586 03-04-2010 14:26:01 12.5 C 4.4 g/m*3 12.5 C 0 km/h
2587 03-04-2010 14:38:02 12.5 C 4.29 g/m*3 12.5 C 0 km/h
2588 03-04-2010 14:50:01 12.5 C 4.18 g/m*3 12.5 C 0 km/h
2589 03-04-2010 15:02:02 12.7 C 4.34 g/m*3 12.7 C 0 km/h
2590 03-04-2010 15:14:02 12.7 C 4.45 g/m*3 12.7 C 0 km/h
2591 03-04-2010 15:26:01 12.2 C 4.64 g/m*3 12.2 C 0 km/h
2592 03-04-2010 15:38:01 12.3 C 4.99 g/m*3 12.3 C 0 km/h
2593 03-04-2010 15:50:01 12.9 C 4.62 g/m*3 12.9 C 0 km/h
2594 03-04-2010 16:02:01 13.1 C 4.34 g/m*3 13.1 C 0 km/h
2595 03-04-2010 16:14:02 13.4 C 4.3 g/m*3 13.4 C 0 km/h
2596 03-04-2010 16:26:01 13.4 C 4.3 g/m*3 13.4 C 0 km/h
2597 03-04-2010 16:38:01 13.1 C 4.34 g/m*3 13.1 C 0 km/h
2598 03-04-2010 16:50:01 13.3 C 4.51 g/m*3 13.3 C 0 km/h
2599 03-04-2010 17:02:01 13.2 C 4.59 g/m*3 13.2 C 0 km/h
2600 03-04-2010 17:14:01 13.5 C 4.44 g/m*3 13.5 C 0 km/h
Sensor: Nr:Datum:Temp:Abs-Feuchte:Windchill:Wind:
Aussen-T/F 2601 03-04-2010 17:26:02 13.2 C 4.59 g/m*3 13.2 C 0 km/h
2602 03-04-2010 17:38:01 12.9 C 4.62 g/m*3 12.9 C 0 km/h
2603 03-04-2010 17:50:02 13.3 C 4.74 g/m*3 13.3 C 0 km/h
2604 03-04-2010 18:02:01 12.9 C 4.62 g/m*3 12.9 C 0 km/h
2605 03-04-2010 18:14:01 12 C 4.58 g/m*3 12 C 0 km/h
2606 03-04-2010 18:26:02 12.1 C 4.72 g/m*3 12.1 C 0 km/h
2607 03-04-2010 18:38:01 11.9 C 4.87 g/m*3 11.9 C 0 km/h
2608 03-04-2010 18:50:02 11.7 C 4.92 g/m*3 11.7 C 0 km/h
2609 03-04-2010 19:02:01 11.4 C 4.82 g/m*3 11.4 C 0 km/h
2610 03-04-2010 19:14:01 11.4 C 4.93 g/m*3 11.4 C 0 km/h
2611 03-04-2010 19:26:01 11.2 C 4.87 g/m*3 11.2 C 0 km/h
2612 03-04-2010 19:38:02 11.1 C 4.94 g/m*3 11.1 C 0 km/h
2613 03-04-2010 19:50:01 10.7 C 5.01 g/m*3 10.7 C 0 km/h
2614 03-04-2010 20:02:02 10.7 C 5.11 g/m*3 10.7 C 0 km/h
2615 03-04-2010 20:14:02 10.5 C 5.14 g/m*3 10.5 C 0 km/h
2616 03-04-2010 20:26:01 10.5 C 5.14 g/m*3 10.5 C 0 km/h
2617 03-04-2010 20:38:02 10.4 C 5.2 g/m*3 10.4 C 0 km/h
2618 03-04-2010 20:50:01 10.3 C 5.27 g/m*3 10.3 C 0 km/h
2619 03-04-2010 21:02:02 10.3 C 5.36 g/m*3 10.3 C 0 km/h
2620 03-04-2010 21:14:02 10.3 C 5.27 g/m*3 10.3 C 0 km/h
2621 03-04-2010 21:26:01 10.2 C 5.33 g/m*3 10.2 C 0 km/h
2622 03-04-2010 21:38:01 10.1 C 5.39 g/m*3 10.1 C 0 km/h
2623 03-04-2010 21:50:01 9.9 C 5.42 g/m*3 9.9 C 0 km/h
2624 03-04-2010 22:02:02 9.7 C 5.44 g/m*3 9.7 C 0 km/h
2625 03-04-2010 22:14:02 9.5 C 5.46 g/m*3 9.5 C 0 km/h
Sensor: Nr:Datum:Temp:Abs-Feuchte:Windchill:Wind:
Aussen-T/F 2626 03-04-2010 22:27:04 9.4 C 5.43 g/m*3 9.4 C 0 km/h
2627 03-04-2010 22:39:04 9.3 C 5.48 g/m*3 9.3 C 0 km/h
2628 03-04-2010 22:51:04 9.2 C 5.45 g/m*3 9.2 C 0 km/h
2629 03-04-2010 23:03:04 9.1 C 5.41 g/m*3 9.1 C 0 km/h
2630 03-04-2010 23:15:04 9.2 C 5.54 g/m*3 9.2 C 0 km/h
2631 03-04-2010 23:27:05 9.2 C 5.54 g/m*3 9.2 C 0 km/h
2632 03-04-2010 23:39:05 9.3 C 5.48 g/m*3 9.3 C 0 km/h
2633 03-04-2010 23:51:05 9 C 5.38 g/m*3 9 C 0 km/h
2634 04-04-2010 00:03:05 8.6 C 5.5 g/m*3 8.6 C 0 km/h
2635 04-04-2010 00:15:05 8.9 C 5.61 g/m*3 8.9 C 0 km/h
2636 04-04-2010 00:27:05 8.9 C 5.61 g/m*3 8.9 C 0 km/h
2637 04-04-2010 00:39:05 8.9 C 5.61 g/m*3 8.9 C 0 km/h
2638 04-04-2010 00:51:05 8.9 C 5.61 g/m*3 8.9 C 0 km/h
2639 04-04-2010 01:03:05 8.9 C 5.61 g/m*3 8.9 C 0 km/h
2640 04-04-2010 01:15:05 9 C 5.55 g/m*3 9 C 0 km/h
2641 04-04-2010 01:27:05 9 C 5.55 g/m*3 9 C 0 km/h
2642 04-04-2010 01:39:05 9 C 5.55 g/m*3 9 C 0 km/h
2643 04-04-2010 01:51:05 8.7 C 5.53 g/m*3 8.7 C 0 km/h
2644 04-04-2010 02:03:05 7.9 C 5.59 g/m*3 7.9 C 0 km/h
2645 04-04-2010 02:15:05 8.1 C 5.66 g/m*3 8.1 C 0 km/h
2646 04-04-2010 02:27:05 8 C 5.62 g/m*3 8 C 0 km/h
2647 04-04-2010 02:39:05 7.5 C 5.6 g/m*3 7.5 C 0 km/h
2648 04-04-2010 02:51:05 7.2 C 5.49 g/m*3 7.2 C 0 km/h
2649 04-04-2010 03:03:05 7 C 5.58 g/m*3 7 C 0 km/h
2650 04-04-2010 03:15:05 6.9 C 5.7 g/m*3 6.9 C 0 km/h
Sensor: Nr:Datum:Temp:Abs-Feuchte:Windchill:Wind:
Aussen-T/F 2651 04-04-2010 03:27:05 6.9 C 5.7 g/m*3 6.9 C 0 km/h
2652 04-04-2010 03:39:05 6.8 C 5.66 g/m*3 6.8 C 0 km/h
2653 04-04-2010 03:51:06 7.1 C 5.69 g/m*3 7.1 C 0 km/h
2654 04-04-2010 04:03:06 7.3 C 5.69 g/m*3 7.3 C 0 km/h
2655 04-04-2010 04:15:06 7.2 C 5.65 g/m*3 7.2 C 0 km/h
2656 04-04-2010 04:27:06 7.2 C 5.65 g/m*3 7.2 C 0 km/h
2657 04-04-2010 04:39:06 7.3 C 5.69 g/m*3 7.3 C 0 km/h
2658 04-04-2010 04:51:06 7.4 C 5.65 g/m*3 7.4 C 0 km/h
2659 04-04-2010 05:03:06 7.6 C 5.48 g/m*3 7.6 C 0 km/h
2660 04-04-2010 05:15:06 7.3 C 5.37 g/m*3 7.3 C 0 km/h
2661 04-04-2010 05:27:06 6.9 C 5.31 g/m*3 6.9 C 0 km/h
2662 04-04-2010 05:39:06 6.5 C 5.32 g/m*3 6.5 C 0 km/h
2663 04-04-2010 05:51:06 6.3 C 5.26 g/m*3 6.3 C 0 km/h
2664 04-04-2010 06:03:06 6.2 C 5.22 g/m*3 6.2 C 0 km/h
2665 04-04-2010 06:15:06 6.4 C 5.29 g/m*3 6.4 C 0 km/h
2666 04-04-2010 06:27:06 6.4 C 5.29 g/m*3 6.4 C 0 km/h
2667 04-04-2010 06:39:06 6.1 C 5.19 g/m*3 6.1 C 0 km/h
2668 04-04-2010 06:51:06 6.4 C 5.29 g/m*3 6.4 C 0 km/h
2669 04-04-2010 07:03:06 7 C 5.19 g/m*3 7 C 0 km/h
2670 04-04-2010 07:15:04 7.3 C 4.98 g/m*3 7.3 C 0 km/h
2671 04-04-2010 07:27:05 7.5 C 4.8 g/m*3 7.5 C 0 km/h
2672 04-04-2010 07:39:03 7.3 C 4.74 g/m*3 7.3 C 0 km/h
2673 04-04-2010 07:51:02 7.3 C 4.74 g/m*3 7.3 C 0 km/h
2674 04-04-2010 08:03:01 7.1 C 4.76 g/m*3 7.1 C 0 km/h
2675 04-04-2010 08:15:02 7.4 C 4.93 g/m*3 7.4 C 0 km/h
Sensor: Nr:Datum:Temp:Abs-Feuchte:Windchill:Wind:
Aussen-T/F 2676 04-04-2010 08:27:03 7.6 C 4.91 g/m*3 7.6 C 0 km/h
2677 04-04-2010 08:39:01 8.1 C 4.83 g/m*3 8.1 C 0 km/h
2678 04-04-2010 08:51:02 8.1 C 4.83 g/m*3 8.1 C 0 km/h
2679 04-04-2010 09:03:01 8.6 C 4.73 g/m*3 8.6 C 0 km/h
2680 04-04-2010 09:15:01 9.2 C 4.55 g/m*3 9.2 C 0 km/h
2681 04-04-2010 09:27:01 9.7 C 4.52 g/m*3 9.7 C 0 km/h
2682 04-04-2010 09:39:02 10.2 C 4.38 g/m*3 10.2 C 0 km/h
2683 04-04-2010 09:51:02 9.9 C 4.29 g/m*3 9.9 C 0 km/h
2684 04-04-2010 10:03:02 10.4 C 4.34 g/m*3 10.4 C 0 km/h
2685 04-04-2010 10:15:02 10.7 C 4.22 g/m*3 10.7 C 0 km/h
2686 04-04-2010 10:27:02 10.7 C 4.22 g/m*3 10.7 C 0 km/h
2687 04-04-2010 10:39:02 10.8 C 4.35 g/m*3 10.8 C 0 km/h
2688 04-04-2010 10:51:02 11 C 4.3 g/m*3 11 C 0 km/h
2689 04-04-2010 11:03:02 11.4 C 4.31 g/m*3 11.4 C 0 km/h
2690 04-04-2010 11:15:02 11.7 C 4.29 g/m*3 11.7 C 0 km/h
2691 04-04-2010 11:27:02 11.9 C 4.34 g/m*3 11.9 C 0 km/h
2692 04-04-2010 11:39:02 11.8 C 4.32 g/m*3 11.8 C 0 km/h
2693 04-04-2010 11:51:02 11.1 C 4.33 g/m*3 11.1 C 0 km/h
2694 04-04-2010 12:03:02 11.5 C 4.13 g/m*3 11.5 C 0 km/h
2695 04-04-2010 12:15:02 12.2 C 4.21 g/m*3 12.2 C 0 km/h
2696 04-04-2010 12:27:02 12.3 C 4.02 g/m*3 12.3 C 0 km/h
2697 04-04-2010 12:39:02 12.4 C 4.04 g/m*3 12.4 C 0 km/h
2698 04-04-2010 12:51:02 12.5 C 3.96 g/m*3 12.5 C 0 km/h
2699 04-04-2010 13:03:02 11.8 C 4.21 g/m*3 11.8 C 0 km/h
2700 04-04-2010 13:15:03 10.2 C 5.52 g/m*3 10.2 C 0 km/h
Sensor: Nr:Datum:Temp:Abs-Feuchte:Windchill:Wind:
Aussen-T/F 2701 04-04-2010 13:27:03 11.1 C 5.44 g/m*3 11.1 C 0 km/h
2702 04-04-2010 13:39:02 11.6 C 5.09 g/m*3 11.6 C 0 km/h
2703 04-04-2010 13:51:01 11.8 C 4.84 g/m*3 11.8 C 0 km/h
2704 04-04-2010 14:03:02 12.1 C 4.61 g/m*3 12.1 C 0 km/h
2705 04-04-2010 14:15:01 11.8 C 4.53 g/m*3 11.8 C 0 km/h
2706 04-04-2010 14:27:01 11.9 C 4.55 g/m*3 11.9 C 0 km/h
2707 04-04-2010 14:39:01 12.2 C 4.75 g/m*3 12.2 C 0 km/h
2708 04-04-2010 14:51:01 11.5 C 4.65 g/m*3 11.5 C 0 km/h
2709 04-04-2010 15:03:02 11.4 C 4.82 g/m*3 11.4 C 0 km/h
2710 04-04-2010 15:15:01 11.5 C 4.85 g/m*3 11.5 C 0 km/h
2711 04-04-2010 15:27:01 11.7 C 4.92 g/m*3 11.7 C 0 km/h
2712 04-04-2010 15:39:02 11.4 C 5.13 g/m*3 11.4 C 0 km/h
2713 04-04-2010 15:51:02 11.2 C 5.07 g/m*3 11.2 C 0 km/h
2714 04-04-2010 16:03:02 11 C 5 g/m*3 11 C 0 km/h
2715 04-04-2010 16:15:01 11.1 C 5.14 g/m*3 11.1 C 0 km/h
2716 04-04-2010 16:27:01 11.4 C 5.13 g/m*3 11.4 C 0 km/h
2717 04-04-2010 16:39:02 11.4 C 5.13 g/m*3 11.4 C 0 km/h
2718 04-04-2010 16:51:02 12.6 C 4.98 g/m*3 12.6 C 0 km/h
2719 04-04-2010 17:03:02 12.2 C 4.96 g/m*3 12.2 C 0 km/h
2720 04-04-2010 17:15:02 11.6 C 4.78 g/m*3 11.6 C 0 km/h
2721 04-04-2010 17:27:02 11.3 C 4.9 g/m*3 11.3 C 0 km/h
2722 04-04-2010 17:39:02 11.1 C 4.94 g/m*3 11.1 C 0 km/h
2723 04-04-2010 17:51:01 10.7 C 5.3 g/m*3 10.7 C 0 km/h
2724 04-04-2010 18:03:02 9.7 C 6.08 g/m*3 9.7 C 0 km/h
2725 04-04-2010 18:15:02 8.7 C 6.14 g/m*3 8.7 C 0 km/h
Sensor: Nr:Datum:Temp:Abs-Feuchte:Windchill:Wind:
Aussen-T/F 2726 04-04-2010 18:27:02 8.5 C 6.32 g/m*3 8.5 C 0 km/h
2727 04-04-2010 18:39:01 8.2 C 5.95 g/m*3 8.2 C 0 km/h
2728 04-04-2010 18:51:02 7.8 C 5.96 g/m*3 7.8 C 0 km/h
2729 04-04-2010 19:03:01 7.8 C 6.12 g/m*3 7.8 C 0 km/h
2730 04-04-2010 19:15:02 7.8 C 6.12 g/m*3 7.8 C 0 km/h
2731 04-04-2010 19:27:03 7.8 C 6.04 g/m*3 7.8 C 0 km/h
2732 04-04-2010 19:39:01 8.1 C 5.82 g/m*3 8.1 C 0 km/h
2733 04-04-2010 19:51:02 7.8 C 5.3 g/m*3 7.8 C 0 km/h
2734 04-04-2010 20:03:02 7.8 C 5.14 g/m*3 7.8 C 0 km/h
2735 04-04-2010 20:15:02 7.7 C 5.35 g/m*3 7.7 C 0 km/h
2736 04-04-2010 20:27:02 7.6 C 5.48 g/m*3 7.6 C 0 km/h
2737 04-04-2010 20:39:03 7.5 C 5.44 g/m*3 7.5 C 0 km/h
2738 04-04-2010 20:51:02 7.6 C 5.56 g/m*3 7.6 C 0 km/h
2739 04-04-2010 21:03:02 7.7 C 5.51 g/m*3 7.7 C 0 km/h
2740 04-04-2010 21:15:01 7.8 C 5.55 g/m*3 7.8 C 0 km/h
2741 04-04-2010 21:27:01 7.7 C 5.51 g/m*3 7.7 C 0 km/h
2742 04-04-2010 21:39:02 7.8 C 5.47 g/m*3 7.8 C 0 km/h
2743 04-04-2010 21:51:02 7.8 C 5.39 g/m*3 7.8 C 0 km/h
2744 04-04-2010 22:03:02 7.8 C 5.39 g/m*3 7.8 C 0 km/h
2745 04-04-2010 22:15:02 7.7 C 5.35 g/m*3 7.7 C 0 km/h
2746 04-04-2010 22:27:02 7.5 C 5.36 g/m*3 7.5 C 0 km/h
2747 04-04-2010 22:39:02 7.4 C 5.41 g/m*3 7.4 C 0 km/h
2748 04-04-2010 22:51:02 7.2 C 5.42 g/m*3 7.2 C 0 km/h
2749 04-04-2010 23:03:01 7.1 C 5.46 g/m*3 7.1 C 0 km/h
2750 04-04-2010 23:16:03 6.9 C 5.47 g/m*3 6.9 C 0 km/h
Sensor: Nr:Datum:Temp:Abs-Feuchte:Windchill:Wind:
Aussen-T/F 2751 04-04-2010 23:28:03 6.9 C 5.62 g/m*3 6.9 C 0 km/h
2752 04-04-2010 23:40:03 6.9 C 5.62 g/m*3 6.9 C 0 km/h
2753 04-04-2010 23:52:03 7 C 5.66 g/m*3 7 C 0 km/h
2754 05-04-2010 00:04:03 7 C 5.66 g/m*3 7 C 0 km/h
2755 05-04-2010 00:16:03 6.9 C 5.7 g/m*3 6.9 C 0 km/h
2756 05-04-2010 00:28:03 6.7 C 5.62 g/m*3 6.7 C 0 km/h
2757 05-04-2010 00:40:03 6.8 C 5.74 g/m*3 6.8 C 0 km/h
2758 05-04-2010 00:52:03 6.9 C 5.77 g/m*3 6.9 C 0 km/h
2759 05-04-2010 01:04:03 7 C 5.73 g/m*3 7 C 0 km/h
2760 05-04-2010 01:16:03 6.9 C 5.7 g/m*3 6.9 C 0 km/h
2761 05-04-2010 01:28:03 7 C 5.58 g/m*3 7 C 0 km/h
2762 05-04-2010 01:40:03 7 C 5.5 g/m*3 7 C 0 km/h
2763 05-04-2010 01:52:03 7 C 5.42 g/m*3 7 C 0 km/h
2764 05-04-2010 02:04:03 7 C 5.5 g/m*3 7 C 0 km/h
2765 05-04-2010 02:16:03 7 C 5.42 g/m*3 7 C 0 km/h
2766 05-04-2010 02:28:03 7 C 5.27 g/m*3 7 C 0 km/h
2767 05-04-2010 02:40:03 7 C 5.27 g/m*3 7 C 0 km/h
2768 05-04-2010 02:52:03 6.9 C 5.31 g/m*3 6.9 C 0 km/h
2769 05-04-2010 03:04:03 6.9 C 5.31 g/m*3 6.9 C 0 km/h
2770 05-04-2010 03:16:04 6.9 C 5.23 g/m*3 6.9 C 0 km/h
2771 05-04-2010 03:28:04 6.8 C 5.2 g/m*3 6.8 C 0 km/h
2772 05-04-2010 03:40:04 6.6 C 5.28 g/m*3 6.6 C 0 km/h
2773 05-04-2010 03:52:04 6.5 C 5.32 g/m*3 6.5 C 0 km/h
2774 05-04-2010 04:04:04 6.5 C 5.32 g/m*3 6.5 C 0 km/h
2775 05-04-2010 04:16:04 6.6 C 5.36 g/m*3 6.6 C 0 km/h
Sensor: Nr:Datum:Temp:Abs-Feuchte:Windchill:Wind:
Aussen-T/F 2776 05-04-2010 04:28:04 6.5 C 5.32 g/m*3 6.5 C 0 km/h
2777 05-04-2010 04:40:04 6.3 C 5.33 g/m*3 6.3 C 0 km/h
2778 05-04-2010 04:52:04 6 C 5.37 g/m*3 6 C 0 km/h
2779 05-04-2010 05:04:04 6 C 5.37 g/m*3 6 C 0 km/h
2780 05-04-2010 05:16:04 6.2 C 5.44 g/m*3 6.2 C 0 km/h
2781 05-04-2010 05:28:04 6.3 C 5.48 g/m*3 6.3 C 0 km/h
2782 05-04-2010 05:40:04 6.5 C 5.55 g/m*3 6.5 C 0 km/h
2783 05-04-2010 05:52:04 6.3 C 5.48 g/m*3 6.3 C 0 km/h
2784 05-04-2010 06:04:04 6.1 C 5.48 g/m*3 6.1 C 0 km/h
2785 05-04-2010 06:16:04 5.8 C 5.52 g/m*3 5.8 C 0 km/h
2786 05-04-2010 06:28:04 5.6 C 5.51 g/m*3 5.6 C 0 km/h
2787 05-04-2010 06:40:04 5.4 C 5.51 g/m*3 5.4 C 0 km/h
2788 05-04-2010 06:52:04 5.2 C 5.44 g/m*3 5.2 C 0 km/h
2789 05-04-2010 07:04:04 5.1 C 5.34 g/m*3 5.1 C 0 km/h
2790 05-04-2010 07:16:04 5 C 5.23 g/m*3 5 C 0 km/h
2791 05-04-2010 07:28:04 4.9 C 5.27 g/m*3 4.9 C 0 km/h
2792 05-04-2010 07:40:05 4.8 C 5.23 g/m*3 4.8 C 0 km/h
2793 05-04-2010 07:52:05 4.9 C 5.27 g/m*3 4.9 C 0 km/h
2794 05-04-2010 08:04:05 4.9 C 5.33 g/m*3 4.9 C 0 km/h
2795 05-04-2010 08:16:05 5 C 5.23 g/m*3 5 C 0 km/h
2796 05-04-2010 08:28:05 5.1 C 5.2 g/m*3 5.1 C 0 km/h
2797 05-04-2010 08:40:03 5.2 C 5.1 g/m*3 5.2 C 0 km/h
2798 05-04-2010 08:52:02 5.5 C 5.13 g/m*3 5.5 C 0 km/h
2799 05-04-2010 09:04:02 5.7 C 5.12 g/m*3 5.7 C 0 km/h
2800 05-04-2010 09:16:01 5.8 C 5.09 g/m*3 5.8 C 0 km/h
Sensor: Nr:Datum:Temp:Abs-Feuchte:Windchill:Wind:
Aussen-T/F 2801 05-04-2010 09:28:01 5.9 C 5.12 g/m*3 5.9 C 0 km/h
2802 05-04-2010 09:40:02 6.4 C 5.07 g/m*3 6.4 C 0 km/h
2803 05-04-2010 09:52:02 6.6 C 4.91 g/m*3 6.6 C 0 km/h
2804 05-04-2010 10:04:02 6.9 C 4.93 g/m*3 6.9 C 0 km/h
2805 05-04-2010 10:16:02 7.3 C 4.98 g/m*3 7.3 C 0 km/h
2806 05-04-2010 10:28:02 7.6 C 4.83 g/m*3 7.6 C 0 km/h
2807 05-04-2010 10:40:02 8 C 4.8 g/m*3 8 C 0 km/h
2808 05-04-2010 10:52:02 8.4 C 4.75 g/m*3 8.4 C 0 km/h
2809 05-04-2010 11:04:02 8.7 C 4.67 g/m*3 8.7 C 0 km/h
2810 05-04-2010 11:16:01 9.1 C 4.7 g/m*3 9.1 C 0 km/h
2811 05-04-2010 11:28:01 9.5 C 4.64 g/m*3 9.5 C 0 km/h
2812 05-04-2010 11:40:02 9.9 C 4.76 g/m*3 9.9 C 0 km/h
2813 05-04-2010 11:52:02 10.4 C 4.63 g/m*3 10.4 C 0 km/h
2814 05-04-2010 12:04:02 10.6 C 4.39 g/m*3 10.6 C 0 km/h
2815 05-04-2010 12:16:01 10.7 C 4.32 g/m*3 10.7 C 0 km/h
2816 05-04-2010 12:28:01 11.3 C 4.08 g/m*3 11.3 C 0 km/h
2817 05-04-2010 12:40:02 11.5 C 3.93 g/m*3 11.5 C 0 km/h
2818 05-04-2010 12:52:02 11.4 C 4 g/m*3 11.4 C 0 km/h
2819 05-04-2010 13:04:02 11.7 C 3.97 g/m*3 11.7 C 0 km/h
2820 05-04-2010 13:16:02 11.7 C 3.97 g/m*3 11.7 C 0 km/h
2821 05-04-2010 13:28:02 11.9 C 3.92 g/m*3 11.9 C 0 km/h
2822 05-04-2010 13:40:02 12.4 C 3.82 g/m*3 12.4 C 0 km/h
2823 05-04-2010 13:52:02 12.3 C 3.26 g/m*3 12.3 C 0 km/h
2824 05-04-2010 14:04:02 12.3 C 3.26 g/m*3 12.3 C 0 km/h
2825 05-04-2010 14:16:02 12.8 C 3.36 g/m*3 12.8 C 0 km/h
Sensor: Nr:Datum:Temp:Abs-Feuchte:Windchill:Wind:
Aussen-T/F 2826 05-04-2010 14:28:02 12.8 C 3.25 g/m*3 12.8 C 0 km/h
2827 05-04-2010 14:40:02 12.6 C 3.32 g/m*3 12.6 C 0 km/h
2828 05-04-2010 14:52:01 12.8 C 3.25 g/m*3 12.8 C 0 km/h
2829 05-04-2010 15:04:02 13.1 C 2.97 g/m*3 13.1 C 0 km/h
2830 05-04-2010 15:16:02 13.6 C 2.94 g/m*3 13.6 C 0 km/h
2831 05-04-2010 15:28:02 13.6 C 2.71 g/m*3 13.6 C 0 km/h
2832 05-04-2010 15:40:02 13.9 C 2.64 g/m*3 13.9 C 0 km/h
2833 05-04-2010 15:52:02 14.5 C 2.49 g/m*3 14.5 C 0 km/h
2834 05-04-2010 16:04:01 14.6 C 2.5 g/m*3 14.6 C 0 km/h
2835 05-04-2010 16:16:02 14.1 C 2.43 g/m*3 14.1 C 0 km/h
2836 05-04-2010 16:28:03 15.4 C 2.63 g/m*3 15.4 C 0 km/h
2837 05-04-2010 16:40:01 13.8 C 2.38 g/m*3 13.8 C 0 km/h
2838 05-04-2010 16:52:02 13.8 C 2.38 g/m*3 13.8 C 0 km/h
2839 05-04-2010 17:04:01 14.8 C 2.53 g/m*3 14.8 C 0 km/h
2840 05-04-2010 17:16:01 15.7 C 2.68 g/m*3 15.7 C 0 km/h
2841 05-04-2010 17:28:01 15.8 C 2.69 g/m*3 15.8 C 0 km/h
2842 05-04-2010 17:40:02 15 C 2.56 g/m*3 15 C 0 km/h
2843 05-04-2010 17:52:02 13.8 C 2.38 g/m*3 13.8 C 0 km/h
2844 05-04-2010 18:04:02 13.1 C 2.62 g/m*3 13.1 C 0 km/h
2845 05-04-2010 18:16:01 12.8 C 2.8 g/m*3 12.8 C 0 km/h
2846 05-04-2010 18:28:01 12.5 C 2.97 g/m*3 12.5 C 0 km/h
2847 05-04-2010 18:40:02 12.6 C 2.88 g/m*3 12.6 C 0 km/h
2848 05-04-2010 18:52:02 12.3 C 2.93 g/m*3 12.3 C 0 km/h
2849 05-04-2010 19:04:02 12.1 C 3 g/m*3 12.1 C 0 km/h
2850 05-04-2010 19:16:02 12 C 2.98 g/m*3 12 C 0 km/h
Sensor: Nr:Datum:Temp:Abs-Feuchte:Windchill:Wind:
Aussen-T/F 2851 05-04-2010 19:28:02 11.9 C 3.07 g/m*3 11.9 C 0 km/h
2852 05-04-2010 19:40:02 11.8 C 3.16 g/m*3 11.8 C 0 km/h
2853 05-04-2010 19:52:02 11.8 C 3.16 g/m*3 11.8 C 0 km/h
2854 05-04-2010 20:04:02 11.7 C 3.24 g/m*3 11.7 C 0 km/h
2855 05-04-2010 20:16:02 11.6 C 3.22 g/m*3 11.6 C 0 km/h
2856 05-04-2010 20:28:02 11.4 C 3.39 g/m*3 11.4 C 0 km/h
2857 05-04-2010 20:40:02 11.3 C 3.37 g/m*3 11.3 C 0 km/h
2858 05-04-2010 20:52:01 11 C 3.4 g/m*3 11 C 0 km/h
2859 05-04-2010 21:04:01 10.8 C 3.56 g/m*3 10.8 C 0 km/h
2860 05-04-2010 21:16:02 10.6 C 3.61 g/m*3 10.6 C 0 km/h
2861 05-04-2010 21:28:02 10.2 C 3.62 g/m*3 10.2 C 0 km/h
2862 05-04-2010 21:40:01 9.7 C 3.69 g/m*3 9.7 C 0 km/h
2863 05-04-2010 21:52:01 9.1 C 3.64 g/m*3 9.1 C 0 km/h
2864 05-04-2010 22:04:01 8.8 C 3.57 g/m*3 8.8 C 0 km/h
2865 05-04-2010 22:16:02 8.8 C 3.57 g/m*3 8.8 C 0 km/h
2866 05-04-2010 22:28:02 8.4 C 3.56 g/m*3 8.4 C 0 km/h
2867 05-04-2010 22:41:02 8.1 C 3.58 g/m*3 8.1 C 0 km/h
2868 05-04-2010 22:53:02 8 C 3.64 g/m*3 8 C 0 km/h
2869 05-04-2010 23:05:02 7.6 C 3.87 g/m*3 7.6 C 0 km/h
2870 05-04-2010 23:17:02 7.3 C 3.87 g/m*3 7.3 C 0 km/h
2871 05-04-2010 23:29:02 7 C 3.87 g/m*3 7 C 0 km/h
2872 05-04-2010 23:41:02 7 C 3.95 g/m*3 7 C 0 km/h
2873 05-04-2010 23:53:02 6.8 C 3.98 g/m*3 6.8 C 0 km/h
2874 06-04-2010 00:05:02 6.5 C 3.9 g/m*3 6.5 C 0 km/h
2875 06-04-2010 00:17:02 6.3 C 4 g/m*3 6.3 C 0 km/h
Sensor: Nr:Datum:Temp:Abs-Feuchte:Windchill:Wind:
Aussen-T/F 2876 06-04-2010 00:29:02 6.1 C 4.02 g/m*3 6.1 C 0 km/h
2877 06-04-2010 00:41:02 5.9 C 4.11 g/m*3 5.9 C 0 km/h
2878 06-04-2010 00:53:02 5.8 C 4.08 g/m*3 5.8 C 0 km/h
2879 06-04-2010 01:05:02 5.6 C 4.03 g/m*3 5.6 C 0 km/h
2880 06-04-2010 01:17:02 5.4 C 3.98 g/m*3 5.4 C 0 km/h
2881 06-04-2010 01:29:02 5.3 C 4.02 g/m*3 5.3 C 0 km/h
2882 06-04-2010 01:41:02 5.2 C 4.06 g/m*3 5.2 C 0 km/h
2883 06-04-2010 01:53:02 5.1 C 4.1 g/m*3 5.1 C 0 km/h
2884 06-04-2010 02:05:03 5 C 4.08 g/m*3 5 C 0 km/h
2885 06-04-2010 02:17:03 4.7 C 4.13 g/m*3 4.7 C 0 km/h
2886 06-04-2010 02:29:03 4.5 C 4.21 g/m*3 4.5 C 0 km/h
2887 06-04-2010 02:41:03 4.3 C 4.15 g/m*3 4.3 C 0 km/h
2888 06-04-2010 02:53:03 4.2 C 4.12 g/m*3 4.2 C 0 km/h
2889 06-04-2010 03:05:03 4.1 C 4.1 g/m*3 4.1 C 0 km/h
2890 06-04-2010 03:17:03 3.9 C 4.17 g/m*3 3.9 C 0 km/h
2891 06-04-2010 03:29:03 3.8 C 4.14 g/m*3 3.8 C 0 km/h
2892 06-04-2010 03:41:03 3.6 C 4.09 g/m*3 3.6 C 0 km/h
2893 06-04-2010 03:53:03 3.5 C 4.12 g/m*3 3.5 C 0 km/h
2894 06-04-2010 04:05:03 3.3 C 4.06 g/m*3 3.3 C 0 km/h
2895 06-04-2010 04:17:03 3.2 C 4.16 g/m*3 3.2 C 0 km/h
2896 06-04-2010 04:29:03 3.2 C 4.22 g/m*3 3.2 C 0 km/h
2897 06-04-2010 04:41:03 3 C 4.22 g/m*3 3 C 0 km/h
2898 06-04-2010 04:53:03 2.8 C 4.22 g/m*3 2.8 C 0 km/h
2899 06-04-2010 05:05:03 2.7 C 4.2 g/m*3 2.7 C 0 km/h
2900 06-04-2010 05:17:03 2.5 C 4.14 g/m*3 2.5 C 0 km/h
Sensor: Nr:Datum:Temp:Abs-Feuchte:Windchill:Wind:
Aussen-T/F 2901 06-04-2010 05:29:03 2.4 C 4.11 g/m*3 2.4 C 0 km/h
2902 06-04-2010 05:41:03 2.3 C 4.14 g/m*3 2.3 C 0 km/h
2903 06-04-2010 05:53:03 2.1 C 4.08 g/m*3 2.1 C 0 km/h
2904 06-04-2010 06:05:03 2 C 4.06 g/m*3 2 C 0 km/h
2905 06-04-2010 06:17:03 1.7 C 4.03 g/m*3 1.7 C 0 km/h
2906 06-04-2010 06:29:04 1.7 C 4.08 g/m*3 1.7 C 0 km/h
2907 06-04-2010 06:41:04 1.7 C 4.08 g/m*3 1.7 C 0 km/h
2908 06-04-2010 06:53:04 1.7 C 4.08 g/m*3 1.7 C 0 km/h
2909 06-04-2010 07:05:01 1.5 C 4.08 g/m*3 1.5 C 0 km/h
2910 06-04-2010 07:17:02 1.5 C 4.08 g/m*3 1.5 C 0 km/h
2911 06-04-2010 07:29:02 1.5 C 4.08 g/m*3 1.5 C 0 km/h
2912 06-04-2010 07:41:02 1.4 C 4.11 g/m*3 1.4 C 0 km/h
2913 06-04-2010 07:53:02 1.5 C 4.14 g/m*3 1.5 C 0 km/h
2914 06-04-2010 08:05:02 1.8 C 4.22 g/m*3 1.8 C 0 km/h
2915 06-04-2010 08:17:02 1.8 C 4.22 g/m*3 1.8 C 0 km/h
2916 06-04-2010 08:29:02 1.9 C 4.3 g/m*3 1.9 C 0 km/h
2917 06-04-2010 08:41:02 2.1 C 4.31 g/m*3 2.1 C 0 km/h
2918 06-04-2010 08:53:02 2.3 C 4.37 g/m*3 2.3 C 0 km/h
2919 06-04-2010 09:05:02 2.6 C 4.51 g/m*3 2.6 C 0 km/h
2920 06-04-2010 09:17:03 3 C 4.52 g/m*3 3 C 0 km/h
2921 06-04-2010 09:29:03 3.5 C 4.61 g/m*3 3.5 C 0 km/h
2922 06-04-2010 09:41:02 4.1 C 4.54 g/m*3 4.1 C 0 km/h
2923 06-04-2010 09:53:02 4.5 C 4.54 g/m*3 4.5 C 0 km/h
2924 06-04-2010 10:05:02 5.1 C 4.58 g/m*3 5.1 C 0 km/h
2925 06-04-2010 10:17:02 5.9 C 4.69 g/m*3 5.9 C 0 km/h
Sensor: Nr:Datum:Temp:Abs-Feuchte:Windchill:Wind:
Aussen-T/F 2926 06-04-2010 10:29:02 7.1 C 4.68 g/m*3 7.1 C 0 km/h
2927 06-04-2010 10:41:02 9.2 C 3.93 g/m*3 9.2 C 0 km/h
2928 06-04-2010 10:53:02 9.8 C 3.62 g/m*3 9.8 C 0 km/h
2929 06-04-2010 11:05:01 10.4 C 3.47 g/m*3 10.4 C 0 km/h
2930 06-04-2010 11:17:02 10.9 C 3.28 g/m*3 10.9 C 0 km/h
2931 06-04-2010 11:29:03 11.2 C 3.14 g/m*3 11.2 C 0 km/h
2932 06-04-2010 11:41:01 11.5 C 3.1 g/m*3 11.5 C 0 km/h
2933 06-04-2010 11:53:02 12.2 C 3.02 g/m*3 12.2 C 0 km/h
2934 06-04-2010 12:05:01 12.4 C 2.84 g/m*3 12.4 C 0 km/h
2935 06-04-2010 12:17:01 12.7 C 2.78 g/m*3 12.7 C 0 km/h
2936 06-04-2010 12:29:01 13 C 2.72 g/m*3 13 C 0 km/h
2937 06-04-2010 12:41:02 13.4 C 2.91 g/m*3 13.4 C 0 km/h
2938 06-04-2010 12:53:02 13.5 C 2.81 g/m*3 13.5 C 0 km/h
2939 06-04-2010 13:05:02 13.9 C 3 g/m*3 13.9 C 0 km/h
2940 06-04-2010 13:17:02 14.2 C 3.05 g/m*3 14.2 C 0 km/h
2941 06-04-2010 13:29:02 14.2 C 3.05 g/m*3 14.2 C 0 km/h
2942 06-04-2010 13:41:02 14.8 C 3.17 g/m*3 14.8 C 0 km/h
2943 06-04-2010 13:53:02 15.4 C 2.89 g/m*3 15.4 C 0 km/h
2944 06-04-2010 14:05:03 16.7 C 3.13 g/m*3 16.7 C 0 km/h
2945 06-04-2010 14:17:02 16.8 C 3 g/m*3 16.8 C 0 km/h
2946 06-04-2010 14:29:02 17 C 2.89 g/m*3 17 C 0 km/h
2947 06-04-2010 14:41:02 17.3 C 2.95 g/m*3 17.3 C 0 km/h
2948 06-04-2010 14:53:01 17.4 C 2.96 g/m*3 17.4 C 0 km/h
2949 06-04-2010 15:05:02 18 C 3.07 g/m*3 18 C 0 km/h
2950 06-04-2010 15:17:01 18.6 C 3.18 g/m*3 18.6 C 0 km/h
Sensor: Nr:Datum:Temp:Abs-Feuchte:Windchill:Wind:
Aussen-T/F 2951 06-04-2010 15:29:01 18.5 C 3.16 g/m*3 18.5 C 0 km/h
2952 06-04-2010 15:41:01 19 C 3.26 g/m*3 19 C 0 km/h
2953 06-04-2010 15:53:01 19 C 3.26 g/m*3 19 C 0 km/h
2954 06-04-2010 16:05:02 19.4 C 3.34 g/m*3 19.4 C 0 km/h
2955 06-04-2010 16:17:02 19.7 C 3.4 g/m*3 19.7 C 0 km/h
2956 06-04-2010 16:29:02 20.5 C 3.56 g/m*3 20.5 C 0 km/h
2957 06-04-2010 16:41:01 20.7 C 3.6 g/m*3 20.7 C 0 km/h
2958 06-04-2010 16:53:01 21.5 C 3.77 g/m*3 21.5 C 0 km/h
2959 06-04-2010 17:05:02 21.4 C 3.75 g/m*3 21.4 C 0 km/h
2960 06-04-2010 17:17:02 21.6 C 3.79 g/m*3 21.6 C 0 km/h
2961 06-04-2010 17:29:02 21 C 3.66 g/m*3 21 C 0 km/h
2962 06-04-2010 17:41:01 21.1 C 3.69 g/m*3 21.1 C 0 km/h
2963 06-04-2010 17:53:01 21.9 C 3.86 g/m*3 21.9 C 0 km/h
2964 06-04-2010 18:05:02 21.7 C 3.82 g/m*3 21.7 C 0 km/h
2965 06-04-2010 18:17:02 21.3 C 3.73 g/m*3 21.3 C 0 km/h
2966 06-04-2010 18:29:02 21.5 C 3.77 g/m*3 21.5 C 0 km/h
2967 06-04-2010 18:41:01 21.9 C 3.86 g/m*3 21.9 C 0 km/h
2968 06-04-2010 18:53:02 21.2 C 3.71 g/m*3 21.2 C 0 km/h
2969 06-04-2010 19:05:01 21.1 C 3.69 g/m*3 21.1 C 0 km/h
2970 06-04-2010 19:17:02 19.8 C 3.42 g/m*3 19.8 C 0 km/h
2971 06-04-2010 19:29:02 19.9 C 3.44 g/m*3 19.9 C 0 km/h
2972 06-04-2010 19:41:01 19.7 C 3.4 g/m*3 19.7 C 0 km/h
2973 06-04-2010 19:53:02 18.2 C 3.26 g/m*3 18.2 C 0 km/h
2974 06-04-2010 20:05:02 16.8 C 3.57 g/m*3 16.8 C 0 km/h
2975 06-04-2010 20:17:02 15.5 C 3.83 g/m*3 15.5 C 0 km/h
Sensor: Nr:Datum:Temp:Abs-Feuchte:Windchill:Wind:
Aussen-T/F 2976 06-04-2010 20:29:02 14.7 C 4.03 g/m*3 14.7 C 0 km/h
2977 06-04-2010 20:41:02 14.3 C 3.93 g/m*3 14.3 C 0 km/h
2978 06-04-2010 20:53:02 13.8 C 4.05 g/m*3 13.8 C 0 km/h
2979 06-04-2010 21:05:01 13.5 C 4.09 g/m*3 13.5 C 0 km/h
2980 06-04-2010 21:17:02 13.2 C 4.13 g/m*3 13.2 C 0 km/h
2981 06-04-2010 21:29:02 12.9 C 4.17 g/m*3 12.9 C 0 km/h
2982 06-04-2010 21:41:02 12.8 C 4.14 g/m*3 12.8 C 0 km/h
2983 06-04-2010 21:53:02 12.5 C 4.29 g/m*3 12.5 C 0 km/h
2984 06-04-2010 22:05:02 12.2 C 4.32 g/m*3 12.2 C 0 km/h
2985 06-04-2010 22:17:02 12.1 C 4.29 g/m*3 12.1 C 0 km/h
2986 06-04-2010 22:29:03 11.8 C 4.32 g/m*3 11.8 C 0 km/h
2987 06-04-2010 22:41:02 11.5 C 4.44 g/m*3 11.5 C 0 km/h
2988 06-04-2010 22:53:02 11.3 C 4.59 g/m*3 11.3 C 0 km/h
2989 06-04-2010 23:05:02 10.9 C 4.58 g/m*3 10.9 C 0 km/h
2990 06-04-2010 23:17:02 10.8 C 4.65 g/m*3 10.8 C 0 km/h
2991 06-04-2010 23:29:02 10.5 C 4.56 g/m*3 10.5 C 0 km/h
2992 06-04-2010 23:41:01 10.3 C 4.5 g/m*3 10.3 C 0 km/h
2993 06-04-2010 23:53:02 10.1 C 4.63 g/m*3 10.1 C 0 km/h
2994 07-04-2010 00:05:01 10 C 4.6 g/m*3 10 C 0 km/h
2995 07-04-2010 00:17:01 9.7 C 4.61 g/m*3 9.7 C 0 km/h
2996 07-04-2010 00:29:01 9.3 C 4.67 g/m*3 9.3 C 0 km/h
2997 07-04-2010 00:41:02 9.1 C 4.7 g/m*3 9.1 C 0 km/h
2998 07-04-2010 00:53:02 8.9 C 4.73 g/m*3 8.9 C 0 km/h
2999 07-04-2010 01:05:02 8.6 C 4.73 g/m*3 8.6 C 0 km/h
3000 07-04-2010 01:17:02 8.4 C 4.75 g/m*3 8.4 C 0 km/h
Sensor: Nr:Datum:Temp:Abs-Feuchte:Windchill:Wind:
Aussen-T/F 3001 07-04-2010 01:29:02 8.2 C 4.77 g/m*3 8.2 C 0 km/h
3002 07-04-2010 01:41:03 8.1 C 4.74 g/m*3 8.1 C 0 km/h
3003 07-04-2010 01:53:02 7.9 C 4.76 g/m*3 7.9 C 0 km/h
3004 07-04-2010 02:05:02 7.6 C 4.67 g/m*3 7.6 C 0 km/h
3005 07-04-2010 02:17:02 7.4 C 4.69 g/m*3 7.4 C 0 km/h
3006 07-04-2010 02:29:03 7.3 C 4.74 g/m*3 7.3 C 0 km/h
3007 07-04-2010 02:41:02 7.1 C 4.76 g/m*3 7.1 C 0 km/h
3008 07-04-2010 02:54:02 7.1 C 4.76 g/m*3 7.1 C 0 km/h
3009 07-04-2010 03:06:02 7 C 4.73 g/m*3 7 C 0 km/h
3010 07-04-2010 03:18:02 6.8 C 4.74 g/m*3 6.8 C 0 km/h
3011 07-04-2010 03:30:02 6.7 C 4.71 g/m*3 6.7 C 0 km/h
3012 07-04-2010 03:42:02 6.5 C 4.72 g/m*3 6.5 C 0 km/h
3013 07-04-2010 03:54:02 6.5 C 4.72 g/m*3 6.5 C 0 km/h
3014 07-04-2010 04:06:02 6.2 C 4.71 g/m*3 6.2 C 0 km/h
3015 07-04-2010 04:18:02 6.1 C 4.75 g/m*3 6.1 C 0 km/h
3016 07-04-2010 04:30:02 5.9 C 4.76 g/m*3 5.9 C 0 km/h
3017 07-04-2010 04:42:03 5.8 C 4.8 g/m*3 5.8 C 0 km/h
3018 07-04-2010 04:54:03 5.8 C 4.73 g/m*3 5.8 C 0 km/h
3019 07-04-2010 05:06:03 5.5 C 4.64 g/m*3 5.5 C 0 km/h
3020 07-04-2010 05:18:03 5.6 C 4.67 g/m*3 5.6 C 0 km/h
3021 07-04-2010 05:30:03 5.3 C 4.64 g/m*3 5.3 C 0 km/h
3022 07-04-2010 05:42:03 5.2 C 4.61 g/m*3 5.2 C 0 km/h
3023 07-04-2010 05:54:03 5.1 C 4.58 g/m*3 5.1 C 0 km/h
3024 07-04-2010 06:06:03 4.8 C 4.63 g/m*3 4.8 C 0 km/h
3025 07-04-2010 06:18:03 4.8 C 4.69 g/m*3 4.8 C 0 km/h
Sensor: Nr:Datum:Temp:Abs-Feuchte:Windchill:Wind:
Aussen-T/F 3026 07-04-2010 06:30:03 4.5 C 4.6 g/m*3 4.5 C 0 km/h
3027 07-04-2010 06:42:03 4.5 C 4.67 g/m*3 4.5 C 0 km/h
3028 07-04-2010 06:54:03 4.3 C 4.54 g/m*3 4.3 C 0 km/h
3029 07-04-2010 07:06:02 4.3 C 4.67 g/m*3 4.3 C 0 km/h
3030 07-04-2010 07:18:02 4.3 C 4.61 g/m*3 4.3 C 0 km/h
3031 07-04-2010 07:30:03 4.3 C 4.61 g/m*3 4.3 C 0 km/h
3032 07-04-2010 07:42:02 4.4 C 4.64 g/m*3 4.4 C 0 km/h
3033 07-04-2010 07:54:02 4.4 C 4.64 g/m*3 4.4 C 0 km/h
3034 07-04-2010 08:06:02 4.4 C 4.64 g/m*3 4.4 C 0 km/h
3035 07-04-2010 08:18:03 4.5 C 4.73 g/m*3 4.5 C 0 km/h
3036 07-04-2010 08:30:03 4.7 C 4.8 g/m*3 4.7 C 0 km/h
3037 07-04-2010 08:42:02 4.8 C 4.83 g/m*3 4.8 C 0 km/h
3038 07-04-2010 08:54:02 5.1 C 4.86 g/m*3 5.1 C 0 km/h
3039 07-04-2010 09:06:01 5.4 C 4.88 g/m*3 5.4 C 0 km/h
3040 07-04-2010 09:18:01 5.9 C 5.05 g/m*3 5.9 C 0 km/h
3041 07-04-2010 09:30:01 6.5 C 5.02 g/m*3 6.5 C 0 km/h
3042 07-04-2010 09:42:02 7.1 C 5.07 g/m*3 7.1 C 0 km/h
3043 07-04-2010 09:54:02 8.1 C 4.91 g/m*3 8.1 C 0 km/h
3044 07-04-2010 10:06:01 9.1 C 4.97 g/m*3 9.1 C 0 km/h
3045 07-04-2010 10:18:02 9.7 C 4.98 g/m*3 9.7 C 0 km/h
3046 07-04-2010 10:30:02 10.7 C 4.52 g/m*3 10.7 C 0 km/h
3047 07-04-2010 10:42:02 11.7 C 4.5 g/m*3 11.7 C 0 km/h
3048 07-04-2010 10:54:01 12.4 C 4.15 g/m*3 12.4 C 0 km/h
3049 07-04-2010 11:06:02 13.2 C 4.13 g/m*3 13.2 C 0 km/h
3050 07-04-2010 11:18:01 13.6 C 4 g/m*3 13.6 C 0 km/h
Sensor: Nr:Datum:Temp:Abs-Feuchte:Windchill:Wind:
Aussen-T/F 3051 07-04-2010 11:30:01 14.1 C 3.88 g/m*3 14.1 C 0 km/h
3052 07-04-2010 11:42:02 14.9 C 4.21 g/m*3 14.9 C 0 km/h
3053 07-04-2010 11:54:02 15.7 C 4.01 g/m*3 15.7 C 0 km/h
3054 07-04-2010 12:06:02 16 C 3.95 g/m*3 16 C 0 km/h
3055 07-04-2010 12:18:01 16.4 C 4.05 g/m*3 16.4 C 0 km/h
3056 07-04-2010 12:30:01 16.8 C 3.86 g/m*3 16.8 C 0 km/h
3057 07-04-2010 12:42:02 17.3 C 3.83 g/m*3 17.3 C 0 km/h
3058 07-04-2010 12:54:01 18.1 C 3.71 g/m*3 18.1 C 0 km/h
3059 07-04-2010 13:06:02 18.5 C 3.48 g/m*3 18.5 C 0 km/h
3060 07-04-2010 13:18:02 19.1 C 3.44 g/m*3 19.1 C 0 km/h
3061 07-04-2010 13:30:03 19.2 C 3.3 g/m*3 19.2 C 0 km/h
3062 07-04-2010 13:42:01 19.7 C 3.4 g/m*3 19.7 C 0 km/h
3063 07-04-2010 13:54:02 20.6 C 3.58 g/m*3 20.6 C 0 km/h
3064 07-04-2010 14:06:02 20.9 C 3.64 g/m*3 20.9 C 0 km/h
3065 07-04-2010 14:18:02 21.3 C 3.73 g/m*3 21.3 C 0 km/h
3066 07-04-2010 14:30:02 21.7 C 3.82 g/m*3 21.7 C 0 km/h
3067 07-04-2010 14:42:03 22.7 C 4.04 g/m*3 22.7 C 0 km/h
3068 07-04-2010 14:54:02 23.3 C 4.18 g/m*3 23.3 C 0 km/h
3069 07-04-2010 15:06:02 23.7 C 4.28 g/m*3 23.7 C 0 km/h
3070 07-04-2010 15:18:01 24 C 4.35 g/m*3 24 C 0 km/h
3071 07-04-2010 15:30:01 24.1 C 4.38 g/m*3 24.1 C 0 km/h
3072 07-04-2010 15:42:02 24.4 C 4.45 g/m*3 24.4 C 0 km/h
3073 07-04-2010 15:54:02 25.2 C 4.66 g/m*3 25.2 C 0 km/h
3074 07-04-2010 16:06:02 25.4 C 4.71 g/m*3 25.4 C 0 km/h
3075 07-04-2010 16:18:02 25.8 C 4.82 g/m*3 25.8 C 0 km/h
Sensor: Nr:Datum:Temp:Abs-Feuchte:Windchill:Wind:
Aussen-T/F 3076 07-04-2010 16:30:02 24.2 C 4.4 g/m*3 24.2 C 0 km/h
3077 07-04-2010 16:42:02 24.7 C 4.53 g/m*3 24.7 C 0 km/h
3078 07-04-2010 16:54:02 25.1 C 4.63 g/m*3 25.1 C 0 km/h
3079 07-04-2010 17:06:03 25.9 C 4.84 g/m*3 25.9 C 0 km/h
3080 07-04-2010 17:18:02 25.9 C 4.84 g/m*3 25.9 C 0 km/h
3081 07-04-2010 17:30:02 25.4 C 4.71 g/m*3 25.4 C 0 km/h
3082 07-04-2010 17:42:02 25.2 C 4.66 g/m*3 25.2 C 0 km/h
3083 07-04-2010 17:54:01 25.2 C 4.66 g/m*3 25.2 C 0 km/h
3084 07-04-2010 18:06:02 24.9 C 4.58 g/m*3 24.9 C 0 km/h
3085 07-04-2010 18:18:01 24.7 C 4.53 g/m*3 24.7 C 0 km/h
3086 07-04-2010 18:30:01 24 C 4.35 g/m*3 24 C 0 km/h
3087 07-04-2010 18:42:01 23.5 C 4.23 g/m*3 23.5 C 0 km/h
3088 07-04-2010 18:54:01 23.1 C 4.13 g/m*3 23.1 C 0 km/h
3089 07-04-2010 19:06:02 22.5 C 3.99 g/m*3 22.5 C 0 km/h
3090 07-04-2010 19:18:01 21.5 C 3.77 g/m*3 21.5 C 0 km/h
3091 07-04-2010 19:30:01 20.5 C 3.91 g/m*3 20.5 C 0 km/h
3092 07-04-2010 19:42:01 19.5 C 4.03 g/m*3 19.5 C 0 km/h
3093 07-04-2010 19:54:01 18.7 C 4.16 g/m*3 18.7 C 0 km/h
3094 07-04-2010 20:06:16 18.1 C 3.86 g/m*3 18.1 C 0 km/h
3095 07-04-2010 20:18:02 17.8 C 3.95 g/m*3 17.8 C 0 km/h
3096 07-04-2010 20:30:02 17.5 C 4.03 g/m*3 17.5 C 0 km/h
3097 07-04-2010 20:42:03 17.2 C 4.1 g/m*3 17.2 C 0 km/h
3098 07-04-2010 20:54:03 16.8 C 4.29 g/m*3 16.8 C 0 km/h
3099 07-04-2010 21:06:03 16.4 C 4.19 g/m*3 16.4 C 0 km/h
3100 07-04-2010 21:18:02 16.1 C 4.25 g/m*3 16.1 C 0 km/h
Sensor: Nr:Datum:Temp:Abs-Feuchte:Windchill:Wind:
Aussen-T/F 3101 07-04-2010 21:30:02 15.8 C 4.31 g/m*3 15.8 C 0 km/h
3102 07-04-2010 21:42:03 15.4 C 4.6 g/m*3 15.4 C 0 km/h
3103 07-04-2010 21:54:02 15.1 C 4.64 g/m*3 15.1 C 0 km/h
3104 07-04-2010 22:06:03 14.7 C 4.78 g/m*3 14.7 C 0 km/h
3105 07-04-2010 22:18:04 14.4 C 4.94 g/m*3 14.4 C 0 km/h
3106 07-04-2010 22:30:04 14.2 C 4.76 g/m*3 14.2 C 0 km/h
3107 07-04-2010 22:43:04 14.1 C 4.61 g/m*3 14.1 C 0 km/h
3108 07-04-2010 22:55:04 13.8 C 4.77 g/m*3 13.8 C 0 km/h
3109 07-04-2010 23:07:04 13.5 C 4.91 g/m*3 13.5 C 0 km/h
3110 07-04-2010 23:19:04 13.4 C 5 g/m*3 13.4 C 0 km/h
3111 07-04-2010 23:31:04 13.2 C 5.05 g/m*3 13.2 C 0 km/h
3112 07-04-2010 23:43:04 13.2 C 4.82 g/m*3 13.2 C 0 km/h
3113 07-04-2010 23:55:04 13.1 C 4.91 g/m*3 13.1 C 0 km/h
3114 08-04-2010 00:07:04 12.8 C 5.04 g/m*3 12.8 C 0 km/h
3115 08-04-2010 00:19:04 12.6 C 5.09 g/m*3 12.6 C 0 km/h
3116 08-04-2010 00:31:04 12.2 C 5.07 g/m*3 12.2 C 0 km/h
3117 08-04-2010 00:43:04 12 C 5.12 g/m*3 12 C 0 km/h
3118 08-04-2010 00:55:05 11.8 C 5.26 g/m*3 11.8 C 0 km/h
3119 08-04-2010 01:07:05 11.6 C 5.3 g/m*3 11.6 C 0 km/h
3120 08-04-2010 01:19:05 11.6 C 5.3 g/m*3 11.6 C 0 km/h
3121 08-04-2010 01:31:05 11.6 C 5.3 g/m*3 11.6 C 0 km/h
3122 08-04-2010 01:43:05 11.4 C 5.34 g/m*3 11.4 C 0 km/h
3123 08-04-2010 01:55:05 11.6 C 5.3 g/m*3 11.6 C 0 km/h
3124 08-04-2010 02:07:05 11.4 C 5.44 g/m*3 11.4 C 0 km/h
3125 08-04-2010 02:19:05 11.2 C 5.37 g/m*3 11.2 C 0 km/h
Sensor: Nr:Datum:Temp:Abs-Feuchte:Windchill:Wind:
Aussen-T/F 3126 08-04-2010 02:31:05 10.8 C 5.54 g/m*3 10.8 C 0 km/h
3127 08-04-2010 02:43:05 10.5 C 5.63 g/m*3 10.5 C 0 km/h
3128 08-04-2010 02:55:05 10.4 C 5.59 g/m*3 10.4 C 0 km/h
3129 08-04-2010 03:07:05 10.5 C 5.63 g/m*3 10.5 C 0 km/h
3130 08-04-2010 03:19:05 10.5 C 5.72 g/m*3 10.5 C 0 km/h
3131 08-04-2010 03:31:05 10.5 C 5.72 g/m*3 10.5 C 0 km/h
3132 08-04-2010 03:43:05 10.2 C 5.8 g/m*3 10.2 C 0 km/h
3133 08-04-2010 03:55:05 10.2 C 5.8 g/m*3 10.2 C 0 km/h
3134 08-04-2010 04:07:05 10 C 5.83 g/m*3 10 C 0 km/h
3135 08-04-2010 04:19:05 9.9 C 5.88 g/m*3 9.9 C 0 km/h
3136 08-04-2010 04:31:05 9.9 C 5.88 g/m*3 9.9 C 0 km/h
3137 08-04-2010 04:43:05 10.3 C 5.94 g/m*3 10.3 C 0 km/h
3138 08-04-2010 04:55:06 10.1 C 5.86 g/m*3 10.1 C 0 km/h
3139 08-04-2010 05:07:06 9.9 C 5.98 g/m*3 9.9 C 0 km/h
3140 08-04-2010 05:19:06 10.1 C 5.96 g/m*3 10.1 C 0 km/h
3141 08-04-2010 05:31:06 10 C 5.92 g/m*3 10 C 0 km/h
3142 08-04-2010 05:43:06 10 C 6.01 g/m*3 10 C 0 km/h
3143 08-04-2010 05:55:06 10 C 5.92 g/m*3 10 C 0 km/h
3144 08-04-2010 06:07:06 10.1 C 6.05 g/m*3 10.1 C 0 km/h
3145 08-04-2010 06:19:06 10 C 6.01 g/m*3 10 C 0 km/h
3146 08-04-2010 06:31:06 9.9 C 6.16 g/m*3 9.9 C 0 km/h
3147 08-04-2010 06:43:06 9.9 C 6.16 g/m*3 9.9 C 0 km/h
3148 08-04-2010 06:55:02 9.9 C 6.26 g/m*3 9.9 C 0 km/h
3149 08-04-2010 07:07:02 10.1 C 6.43 g/m*3 10.1 C 0 km/h
3150 08-04-2010 07:19:02 10.3 C 6.42 g/m*3 10.3 C 0 km/h
Sensor: Nr:Datum:Temp:Abs-Feuchte:Windchill:Wind:
Aussen-T/F 3151 08-04-2010 07:31:02 10.7 C 6.78 g/m*3 10.7 C 0 km/h
3152 08-04-2010 07:43:02 11.1 C 6.85 g/m*3 11.1 C 0 km/h
3153 08-04-2010 07:55:01 11.2 C 6.69 g/m*3 11.2 C 0 km/h
3154 08-04-2010 08:07:01 11.7 C 7.11 g/m*3 11.7 C 0 km/h
3155 08-04-2010 08:19:01 11.9 C 7.2 g/m*3 11.9 C 0 km/h
3156 08-04-2010 08:31:01 12.2 C 7.12 g/m*3 12.2 C 0 km/h
3157 08-04-2010 08:43:01 12.4 C 7.1 g/m*3 12.4 C 0 km/h
3158 08-04-2010 08:55:01 12.5 C 7.15 g/m*3 12.5 C 0 km/h
3159 08-04-2010 09:07:01 12.6 C 7.3 g/m*3 12.6 C 0 km/h
3160 08-04-2010 09:19:02 12.7 C 7.24 g/m*3 12.7 C 0 km/h
3161 08-04-2010 09:31:01 13 C 7.26 g/m*3 13 C 0 km/h
3162 08-04-2010 09:43:01 12.7 C 7.12 g/m*3 12.7 C 0 km/h
3163 08-04-2010 09:55:02 12.8 C 7.28 g/m*3 12.8 C 0 km/h
3164 08-04-2010 10:07:02 13.1 C 7.3 g/m*3 13.1 C 0 km/h
3165 08-04-2010 10:19:02 13.4 C 7.32 g/m*3 13.4 C 0 km/h
3166 08-04-2010 10:31:02 13.3 C 7.28 g/m*3 13.3 C 0 km/h
3167 08-04-2010 10:43:02 13.3 C 7.28 g/m*3 13.3 C 0 km/h
3168 08-04-2010 10:55:02 13.6 C 7.65 g/m*3 13.6 C 0 km/h
3169 08-04-2010 11:07:02 14.2 C 7.33 g/m*3 14.2 C 0 km/h
3170 08-04-2010 11:19:02 14.9 C 6.75 g/m*3 14.9 C 0 km/h
3171 08-04-2010 11:31:02 14.9 C 6.75 g/m*3 14.9 C 0 km/h
3172 08-04-2010 11:43:02 15.2 C 6.62 g/m*3 15.2 C 0 km/h
3173 08-04-2010 11:55:02 15.6 C 6.65 g/m*3 15.6 C 0 km/h
3174 08-04-2010 12:07:01 15.3 C 6.53 g/m*3 15.3 C 0 km/h
3175 08-04-2010 12:19:02 15.7 C 6.69 g/m*3 15.7 C 0 km/h
Sensor: Nr:Datum:Temp:Abs-Feuchte:Windchill:Wind:
Aussen-T/F 3176 08-04-2010 12:31:02 15.4 C 6.57 g/m*3 15.4 C 0 km/h
3177 08-04-2010 12:43:02 15.5 C 6.48 g/m*3 15.5 C 0 km/h
3178 08-04-2010 12:55:02 15.3 C 6.92 g/m*3 15.3 C 0 km/h
3179 08-04-2010 13:07:02 15.3 C 7.05 g/m*3 15.3 C 0 km/h
3180 08-04-2010 13:19:02 15.7 C 7.09 g/m*3 15.7 C 0 km/h
3181 08-04-2010 13:31:02 15.8 C 7 g/m*3 15.8 C 0 km/h
3182 08-04-2010 13:43:02 15.6 C 6.92 g/m*3 15.6 C 0 km/h
3183 08-04-2010 13:55:01 15.7 C 6.96 g/m*3 15.7 C 0 km/h
3184 08-04-2010 14:07:02 15.4 C 6.96 g/m*3 15.4 C 0 km/h
3185 08-04-2010 14:19:01 15.2 C 6.88 g/m*3 15.2 C 0 km/h
3186 08-04-2010 14:31:01 14.9 C 7.01 g/m*3 14.9 C 0 km/h
3187 08-04-2010 14:43:01 15 C 7.05 g/m*3 15 C 0 km/h
3188 08-04-2010 14:55:01 15 C 7.18 g/m*3 15 C 0 km/h
3189 08-04-2010 15:07:02 14.9 C 7.39 g/m*3 14.9 C 0 km/h
3190 08-04-2010 15:19:01 14.2 C 7.33 g/m*3 14.2 C 0 km/h
3191 08-04-2010 15:31:01 14.8 C 7.6 g/m*3 14.8 C 0 km/h
3192 08-04-2010 15:43:01 14.2 C 7.69 g/m*3 14.2 C 0 km/h
3193 08-04-2010 15:55:01 13.9 C 8.03 g/m*3 13.9 C 0 km/h
3194 08-04-2010 16:07:02 13.9 C 8.15 g/m*3 13.9 C 0 km/h
3195 08-04-2010 16:19:02 13.8 C 8.34 g/m*3 13.8 C 0 km/h
3196 08-04-2010 16:31:01 13.3 C 8.32 g/m*3 13.3 C 0 km/h
3197 08-04-2010 16:43:01 13.3 C 8.43 g/m*3 13.3 C 0 km/h
3198 08-04-2010 16:55:01 13.6 C 8.59 g/m*3 13.6 C 0 km/h
3199 08-04-2010 17:07:02 13.7 C 8.53 g/m*3 13.7 C 0 km/h
3200 08-04-2010 17:19:02 13.8 C 8.58 g/m*3 13.8 C 0 km/h
Sensor: Nr:Datum:Temp:Abs-Feuchte:Windchill:Wind:
Aussen-T/F 3201 08-04-2010 17:31:01 13.5 C 8.3 g/m*3 13.5 C 0 km/h
3202 08-04-2010 17:43:01 13.8 C 8.34 g/m*3 13.8 C 0 km/h
3203 08-04-2010 17:55:02 13.6 C 8.24 g/m*3 13.6 C 0 km/h
3204 08-04-2010 18:07:01 13.2 C 8.27 g/m*3 13.2 C 0 km/h
3205 08-04-2010 18:19:07 12.9 C 8.34 g/m*3 12.9 C 0 km/h
3206 08-04-2010 18:31:02 13 C 8.28 g/m*3 13 C 0 km/h
3207 08-04-2010 18:43:02 12.9 C 8.23 g/m*3 12.9 C 0 km/h
3208 08-04-2010 18:55:02 12.8 C 8.06 g/m*3 12.8 C 0 km/h
3209 08-04-2010 19:07:02 12.7 C 8.24 g/m*3 12.7 C 0 km/h
3210 08-04-2010 19:19:01 12.7 C 8.24 g/m*3 12.7 C 0 km/h
3211 08-04-2010 19:31:02 12.5 C 8.14 g/m*3 12.5 C 0 km/h
3212 08-04-2010 19:43:02 12.1 C 8.04 g/m*3 12.1 C 0 km/h
3213 08-04-2010 19:55:02 11.9 C 8.15 g/m*3 11.9 C 0 km/h
3214 08-04-2010 20:07:02 11.3 C 8.16 g/m*3 11.3 C 0 km/h
3215 08-04-2010 20:19:02 11.3 C 8.26 g/m*3 11.3 C 0 km/h
3216 08-04-2010 20:31:02 11.2 C 8.11 g/m*3 11.2 C 0 km/h
3217 08-04-2010 20:43:02 11.2 C 7.91 g/m*3 11.2 C 0 km/h
3218 08-04-2010 20:55:02 11.3 C 7.96 g/m*3 11.3 C 0 km/h
3219 08-04-2010 21:07:02 11.3 C 7.85 g/m*3 11.3 C 0 km/h
3220 08-04-2010 21:19:02 11.5 C 7.95 g/m*3 11.5 C 0 km/h
3221 08-04-2010 21:31:02 11.5 C 7.85 g/m*3 11.5 C 0 km/h
3222 08-04-2010 21:43:02 11.3 C 7.75 g/m*3 11.3 C 0 km/h
3223 08-04-2010 21:56:02 11.3 C 7.75 g/m*3 11.3 C 0 km/h
3224 08-04-2010 22:08:02 11.4 C 7.8 g/m*3 11.4 C 0 km/h
3225 08-04-2010 22:20:02 11.2 C 7.6 g/m*3 11.2 C 0 km/h
Sensor: Nr:Datum:Temp:Abs-Feuchte:Windchill:Wind:
Aussen-T/F 3226 08-04-2010 22:32:02 11.1 C 7.45 g/m*3 11.1 C 0 km/h
3227 08-04-2010 22:44:02 11.1 C 7.35 g/m*3 11.1 C 0 km/h
3228 08-04-2010 22:56:02 11.1 C 7.15 g/m*3 11.1 C 0 km/h
3229 08-04-2010 23:08:02 11.1 C 7.15 g/m*3 11.1 C 0 km/h
3230 08-04-2010 23:20:02 11 C 7.21 g/m*3 11 C 0 km/h
3231 08-04-2010 23:32:02 11 C 7.31 g/m*3 11 C 0 km/h
3232 08-04-2010 23:44:02 11.1 C 7.35 g/m*3 11.1 C 0 km/h
3233 08-04-2010 23:56:02 11.1 C 7.25 g/m*3 11.1 C 0 km/h
3234 09-04-2010 00:08:02 11.1 C 7.25 g/m*3 11.1 C 0 km/h
3235 09-04-2010 00:20:02 11.1 C 7.25 g/m*3 11.1 C 0 km/h
3236 09-04-2010 00:32:02 11.2 C 7.2 g/m*3 11.2 C 0 km/h
3237 09-04-2010 00:44:02 11.1 C 7.15 g/m*3 11.1 C 0 km/h
3238 09-04-2010 00:56:02 11 C 7.11 g/m*3 11 C 0 km/h
3239 09-04-2010 01:08:02 11 C 7.11 g/m*3 11 C 0 km/h
3240 09-04-2010 01:20:02 10.9 C 7.06 g/m*3 10.9 C 0 km/h
3241 09-04-2010 01:32:03 10.8 C 6.92 g/m*3 10.8 C 0 km/h
3242 09-04-2010 01:44:03